<?xml version="1.0" encoding="UTF-8" standalone="no" ?>
<gpx xmlns="http://www.topografix.com/GPX/1/1" xmlns:xsi="http://www.w3.org/2001/XMLSchema-instance" xsi:schemaLocation="http://www.topografix.com/GPX/1/1 http://www.topografix.com/GPX/1/1/gpx.xsd" version="1.1" creator="VisuGPX - https://www.visugpx.com">
  <metadata>
    <name>trail de rentrée des GR dans les Monts d\'Or</name>
    <desc><![CDATA[fait le 4/09/12]]></desc>
  </metadata>
  <trk>
    <name><![CDATA[2012-09-04T17:10:50Z]]></name>
    <trkseg>
      <trkpt lat="45.83468" lon="4.82362">
        <ele>252</ele>
        <time>2012-09-04T17:10:50Z</time>
      </trkpt>
      <trkpt lat="45.83468" lon="4.82358">
        <ele>252</ele>
        <time>2012-09-04T17:10:54Z</time>
      </trkpt>
      <trkpt lat="45.83468" lon="4.82356">
        <ele>252</ele>
        <time>2012-09-04T17:10:55Z</time>
      </trkpt>
      <trkpt lat="45.83465" lon="4.8235">
        <ele>253</ele>
        <time>2012-09-04T17:10:59Z</time>
      </trkpt>
      <trkpt lat="45.83464" lon="4.82349">
        <ele>253</ele>
        <time>2012-09-04T17:11:00Z</time>
      </trkpt>
      <trkpt lat="45.8346" lon="4.8234">
        <ele>254</ele>
        <time>2012-09-04T17:11:04Z</time>
      </trkpt>
      <trkpt lat="45.83459" lon="4.82338">
        <ele>254</ele>
        <time>2012-09-04T17:11:05Z</time>
      </trkpt>
      <trkpt lat="45.83458" lon="4.82336">
        <ele>254</ele>
        <time>2012-09-04T17:11:06Z</time>
      </trkpt>
      <trkpt lat="45.83453" lon="4.82329">
        <ele>252</ele>
        <time>2012-09-04T17:11:10Z</time>
      </trkpt>
      <trkpt lat="45.83447" lon="4.82323">
        <ele>253</ele>
        <time>2012-09-04T17:11:14Z</time>
      </trkpt>
      <trkpt lat="45.83446" lon="4.8232">
        <ele>253</ele>
        <time>2012-09-04T17:11:15Z</time>
      </trkpt>
      <trkpt lat="45.83442" lon="4.82309">
        <ele>252</ele>
        <time>2012-09-04T17:11:19Z</time>
      </trkpt>
      <trkpt lat="45.83437" lon="4.823">
        <ele>252</ele>
        <time>2012-09-04T17:11:23Z</time>
      </trkpt>
      <trkpt lat="45.83436" lon="4.82298">
        <ele>252</ele>
        <time>2012-09-04T17:11:24Z</time>
      </trkpt>
      <trkpt lat="45.83429" lon="4.82291">
        <ele>252</ele>
        <time>2012-09-04T17:11:28Z</time>
      </trkpt>
      <trkpt lat="45.83422" lon="4.82287">
        <ele>252</ele>
        <time>2012-09-04T17:11:31Z</time>
      </trkpt>
      <trkpt lat="45.83417" lon="4.82284">
        <ele>267</ele>
        <time>2012-09-04T17:11:34Z</time>
      </trkpt>
      <trkpt lat="45.83408" lon="4.8228">
        <ele>267</ele>
        <time>2012-09-04T17:11:38Z</time>
      </trkpt>
      <trkpt lat="45.83405" lon="4.82278">
        <ele>267</ele>
        <time>2012-09-04T17:11:39Z</time>
      </trkpt>
      <trkpt lat="45.834" lon="4.82275">
        <ele>267</ele>
        <time>2012-09-04T17:11:42Z</time>
      </trkpt>
      <trkpt lat="45.83391" lon="4.82267">
        <ele>268</ele>
        <time>2012-09-04T17:11:47Z</time>
      </trkpt>
      <trkpt lat="45.83388" lon="4.82264">
        <ele>269</ele>
        <time>2012-09-04T17:11:49Z</time>
      </trkpt>
      <trkpt lat="45.83385" lon="4.82259">
        <ele>269</ele>
        <time>2012-09-04T17:11:51Z</time>
      </trkpt>
      <trkpt lat="45.83375" lon="4.82246">
        <ele>261</ele>
        <time>2012-09-04T17:11:57Z</time>
      </trkpt>
      <trkpt lat="45.83364" lon="4.8223">
        <ele>263</ele>
        <time>2012-09-04T17:12:05Z</time>
      </trkpt>
      <trkpt lat="45.83362" lon="4.82226">
        <ele>263</ele>
        <time>2012-09-04T17:12:07Z</time>
      </trkpt>
      <trkpt lat="45.83357" lon="4.82218">
        <ele>262</ele>
        <time>2012-09-04T17:12:11Z</time>
      </trkpt>
      <trkpt lat="45.83349" lon="4.82208">
        <ele>262</ele>
        <time>2012-09-04T17:12:16Z</time>
      </trkpt>
      <trkpt lat="45.83339" lon="4.82194">
        <ele>260</ele>
        <time>2012-09-04T17:12:22Z</time>
      </trkpt>
      <trkpt lat="45.83335" lon="4.82188">
        <ele>260</ele>
        <time>2012-09-04T17:12:25Z</time>
      </trkpt>
      <trkpt lat="45.83331" lon="4.82182">
        <ele>271</ele>
        <time>2012-09-04T17:12:28Z</time>
      </trkpt>
      <trkpt lat="45.83323" lon="4.82172">
        <ele>270</ele>
        <time>2012-09-04T17:12:34Z</time>
      </trkpt>
      <trkpt lat="45.83321" lon="4.8217">
        <ele>270</ele>
        <time>2012-09-04T17:12:35Z</time>
      </trkpt>
      <trkpt lat="45.83316" lon="4.82164">
        <ele>264</ele>
        <time>2012-09-04T17:12:39Z</time>
      </trkpt>
      <trkpt lat="45.83305" lon="4.82157">
        <ele>266</ele>
        <time>2012-09-04T17:12:44Z</time>
      </trkpt>
      <trkpt lat="45.833" lon="4.82149">
        <ele>267</ele>
        <time>2012-09-04T17:12:48Z</time>
      </trkpt>
      <trkpt lat="45.83291" lon="4.82139">
        <ele>268</ele>
        <time>2012-09-04T17:12:54Z</time>
      </trkpt>
      <trkpt lat="45.83284" lon="4.8213">
        <ele>269</ele>
        <time>2012-09-04T17:13:00Z</time>
      </trkpt>
      <trkpt lat="45.83275" lon="4.82123">
        <ele>269</ele>
        <time>2012-09-04T17:13:05Z</time>
      </trkpt>
      <trkpt lat="45.83266" lon="4.82114">
        <ele>269</ele>
        <time>2012-09-04T17:13:09Z</time>
      </trkpt>
      <trkpt lat="45.83257" lon="4.8211">
        <ele>270</ele>
        <time>2012-09-04T17:13:13Z</time>
      </trkpt>
      <trkpt lat="45.83255" lon="4.82108">
        <ele>270</ele>
        <time>2012-09-04T17:13:14Z</time>
      </trkpt>
      <trkpt lat="45.83246" lon="4.821">
        <ele>285</ele>
        <time>2012-09-04T17:13:20Z</time>
      </trkpt>
      <trkpt lat="45.8324" lon="4.82096">
        <ele>285</ele>
        <time>2012-09-04T17:13:24Z</time>
      </trkpt>
      <trkpt lat="45.83238" lon="4.82094">
        <ele>285</ele>
        <time>2012-09-04T17:13:25Z</time>
      </trkpt>
      <trkpt lat="45.83228" lon="4.82084">
        <ele>288</ele>
        <time>2012-09-04T17:13:30Z</time>
      </trkpt>
      <trkpt lat="45.83223" lon="4.8208">
        <ele>281</ele>
        <time>2012-09-04T17:13:32Z</time>
      </trkpt>
      <trkpt lat="45.83218" lon="4.82075">
        <ele>282</ele>
        <time>2012-09-04T17:13:35Z</time>
      </trkpt>
      <trkpt lat="45.83211" lon="4.82067">
        <ele>284</ele>
        <time>2012-09-04T17:13:40Z</time>
      </trkpt>
      <trkpt lat="45.83209" lon="4.82062">
        <ele>284</ele>
        <time>2012-09-04T17:13:42Z</time>
      </trkpt>
      <trkpt lat="45.83208" lon="4.8206">
        <ele>284</ele>
        <time>2012-09-04T17:13:43Z</time>
      </trkpt>
      <trkpt lat="45.83206" lon="4.82058">
        <ele>284</ele>
        <time>2012-09-04T17:13:44Z</time>
      </trkpt>
      <trkpt lat="45.83202" lon="4.82049">
        <ele>284</ele>
        <time>2012-09-04T17:13:47Z</time>
      </trkpt>
      <trkpt lat="45.83202" lon="4.82044">
        <ele>284</ele>
        <time>2012-09-04T17:13:49Z</time>
      </trkpt>
      <trkpt lat="45.83201" lon="4.82038">
        <ele>283</ele>
        <time>2012-09-04T17:13:51Z</time>
      </trkpt>
      <trkpt lat="45.83198" lon="4.82029">
        <ele>284</ele>
        <time>2012-09-04T17:13:55Z</time>
      </trkpt>
      <trkpt lat="45.83189" lon="4.82025">
        <ele>285</ele>
        <time>2012-09-04T17:13:59Z</time>
      </trkpt>
      <trkpt lat="45.83188" lon="4.82026">
        <ele>285</ele>
        <time>2012-09-04T17:14:00Z</time>
      </trkpt>
      <trkpt lat="45.83186" lon="4.82033">
        <ele>286</ele>
        <time>2012-09-04T17:14:03Z</time>
      </trkpt>
      <trkpt lat="45.83187" lon="4.82042">
        <ele>286</ele>
        <time>2012-09-04T17:14:06Z</time>
      </trkpt>
      <trkpt lat="45.83188" lon="4.82047">
        <ele>287</ele>
        <time>2012-09-04T17:14:08Z</time>
      </trkpt>
      <trkpt lat="45.83189" lon="4.8205">
        <ele>287</ele>
        <time>2012-09-04T17:14:09Z</time>
      </trkpt>
      <trkpt lat="45.83189" lon="4.82053">
        <ele>288</ele>
        <time>2012-09-04T17:14:10Z</time>
      </trkpt>
      <trkpt lat="45.83189" lon="4.82058">
        <ele>288</ele>
        <time>2012-09-04T17:14:12Z</time>
      </trkpt>
      <trkpt lat="45.83192" lon="4.8207">
        <ele>289</ele>
        <time>2012-09-04T17:14:17Z</time>
      </trkpt>
      <trkpt lat="45.83193" lon="4.82078">
        <ele>290</ele>
        <time>2012-09-04T17:14:20Z</time>
      </trkpt>
      <trkpt lat="45.83193" lon="4.82083">
        <ele>300</ele>
        <time>2012-09-04T17:14:22Z</time>
      </trkpt>
      <trkpt lat="45.83198" lon="4.82096">
        <ele>299</ele>
        <time>2012-09-04T17:14:27Z</time>
      </trkpt>
      <trkpt lat="45.83201" lon="4.82102">
        <ele>299</ele>
        <time>2012-09-04T17:14:29Z</time>
      </trkpt>
      <trkpt lat="45.83205" lon="4.8211">
        <ele>298</ele>
        <time>2012-09-04T17:14:32Z</time>
      </trkpt>
      <trkpt lat="45.83213" lon="4.82117">
        <ele>297</ele>
        <time>2012-09-04T17:14:38Z</time>
      </trkpt>
      <trkpt lat="45.83217" lon="4.82122">
        <ele>297</ele>
        <time>2012-09-04T17:14:40Z</time>
      </trkpt>
      <trkpt lat="45.83225" lon="4.82132">
        <ele>296</ele>
        <time>2012-09-04T17:14:45Z</time>
      </trkpt>
      <trkpt lat="45.83231" lon="4.82141">
        <ele>296</ele>
        <time>2012-09-04T17:14:50Z</time>
      </trkpt>
      <trkpt lat="45.83233" lon="4.82149">
        <ele>295</ele>
        <time>2012-09-04T17:14:54Z</time>
      </trkpt>
      <trkpt lat="45.83233" lon="4.8215">
        <ele>295</ele>
        <time>2012-09-04T17:14:55Z</time>
      </trkpt>
      <trkpt lat="45.8324" lon="4.82159">
        <ele>293</ele>
        <time>2012-09-04T17:15:00Z</time>
      </trkpt>
      <trkpt lat="45.83242" lon="4.82162">
        <ele>293</ele>
        <time>2012-09-04T17:15:01Z</time>
      </trkpt>
      <trkpt lat="45.83253" lon="4.82176">
        <ele>288</ele>
        <time>2012-09-04T17:15:07Z</time>
      </trkpt>
      <trkpt lat="45.83255" lon="4.82181">
        <ele>288</ele>
        <time>2012-09-04T17:15:09Z</time>
      </trkpt>
      <trkpt lat="45.83262" lon="4.82191">
        <ele>288</ele>
        <time>2012-09-04T17:15:13Z</time>
      </trkpt>
      <trkpt lat="45.83268" lon="4.82202">
        <ele>289</ele>
        <time>2012-09-04T17:15:18Z</time>
      </trkpt>
      <trkpt lat="45.8327" lon="4.82206">
        <ele>289</ele>
        <time>2012-09-04T17:15:20Z</time>
      </trkpt>
      <trkpt lat="45.83275" lon="4.8222">
        <ele>291</ele>
        <time>2012-09-04T17:15:26Z</time>
      </trkpt>
      <trkpt lat="45.83277" lon="4.82224">
        <ele>291</ele>
        <time>2012-09-04T17:15:28Z</time>
      </trkpt>
      <trkpt lat="45.83279" lon="4.82228">
        <ele>292</ele>
        <time>2012-09-04T17:15:30Z</time>
      </trkpt>
      <trkpt lat="45.83283" lon="4.82236">
        <ele>292</ele>
        <time>2012-09-04T17:15:34Z</time>
      </trkpt>
      <trkpt lat="45.83284" lon="4.82238">
        <ele>292</ele>
        <time>2012-09-04T17:15:35Z</time>
      </trkpt>
      <trkpt lat="45.8329" lon="4.82244">
        <ele>290</ele>
        <time>2012-09-04T17:15:39Z</time>
      </trkpt>
      <trkpt lat="45.83293" lon="4.82247">
        <ele>290</ele>
        <time>2012-09-04T17:15:41Z</time>
      </trkpt>
      <trkpt lat="45.83301" lon="4.82255">
        <ele>298</ele>
        <time>2012-09-04T17:15:45Z</time>
      </trkpt>
      <trkpt lat="45.83305" lon="4.82259">
        <ele>297</ele>
        <time>2012-09-04T17:15:47Z</time>
      </trkpt>
      <trkpt lat="45.83316" lon="4.82268">
        <ele>295</ele>
        <time>2012-09-04T17:15:51Z</time>
      </trkpt>
      <trkpt lat="45.83321" lon="4.82275">
        <ele>295</ele>
        <time>2012-09-04T17:15:54Z</time>
      </trkpt>
      <trkpt lat="45.83325" lon="4.8228">
        <ele>296</ele>
        <time>2012-09-04T17:15:56Z</time>
      </trkpt>
      <trkpt lat="45.83331" lon="4.82292">
        <ele>297</ele>
        <time>2012-09-04T17:16:00Z</time>
      </trkpt>
      <trkpt lat="45.83332" lon="4.82295">
        <ele>297</ele>
        <time>2012-09-04T17:16:01Z</time>
      </trkpt>
      <trkpt lat="45.83337" lon="4.82307">
        <ele>282</ele>
        <time>2012-09-04T17:16:05Z</time>
      </trkpt>
      <trkpt lat="45.8334" lon="4.82321">
        <ele>286</ele>
        <time>2012-09-04T17:16:09Z</time>
      </trkpt>
      <trkpt lat="45.83342" lon="4.82331">
        <ele>289</ele>
        <time>2012-09-04T17:16:12Z</time>
      </trkpt>
      <trkpt lat="45.83338" lon="4.82342">
        <ele>290</ele>
        <time>2012-09-04T17:16:16Z</time>
      </trkpt>
      <trkpt lat="45.83337" lon="4.82344">
        <ele>289</ele>
        <time>2012-09-04T17:16:17Z</time>
      </trkpt>
      <trkpt lat="45.83331" lon="4.82357">
        <ele>300</ele>
        <time>2012-09-04T17:16:22Z</time>
      </trkpt>
      <trkpt lat="45.83327" lon="4.82367">
        <ele>301</ele>
        <time>2012-09-04T17:16:26Z</time>
      </trkpt>
      <trkpt lat="45.83326" lon="4.82369">
        <ele>301</ele>
        <time>2012-09-04T17:16:27Z</time>
      </trkpt>
      <trkpt lat="45.83321" lon="4.82383">
        <ele>301</ele>
        <time>2012-09-04T17:16:33Z</time>
      </trkpt>
      <trkpt lat="45.83318" lon="4.82392">
        <ele>300</ele>
        <time>2012-09-04T17:16:36Z</time>
      </trkpt>
      <trkpt lat="45.83317" lon="4.82399">
        <ele>299</ele>
        <time>2012-09-04T17:16:38Z</time>
      </trkpt>
      <trkpt lat="45.83312" lon="4.82417">
        <ele>296</ele>
        <time>2012-09-04T17:16:43Z</time>
      </trkpt>
      <trkpt lat="45.83312" lon="4.8242">
        <ele>297</ele>
        <time>2012-09-04T17:16:44Z</time>
      </trkpt>
      <trkpt lat="45.83305" lon="4.82441">
        <ele>298</ele>
        <time>2012-09-04T17:16:50Z</time>
      </trkpt>
      <trkpt lat="45.83298" lon="4.82462">
        <ele>298</ele>
        <time>2012-09-04T17:16:56Z</time>
      </trkpt>
      <trkpt lat="45.83297" lon="4.82464">
        <ele>298</ele>
        <time>2012-09-04T17:16:57Z</time>
      </trkpt>
      <trkpt lat="45.8329" lon="4.8248">
        <ele>299</ele>
        <time>2012-09-04T17:17:02Z</time>
      </trkpt>
      <trkpt lat="45.83287" lon="4.82486">
        <ele>299</ele>
        <time>2012-09-04T17:17:04Z</time>
      </trkpt>
      <trkpt lat="45.83285" lon="4.82492">
        <ele>299</ele>
        <time>2012-09-04T17:17:06Z</time>
      </trkpt>
      <trkpt lat="45.83277" lon="4.82508">
        <ele>296</ele>
        <time>2012-09-04T17:17:12Z</time>
      </trkpt>
      <trkpt lat="45.83276" lon="4.82511">
        <ele>296</ele>
        <time>2012-09-04T17:17:13Z</time>
      </trkpt>
      <trkpt lat="45.83272" lon="4.82526">
        <ele>295</ele>
        <time>2012-09-04T17:17:17Z</time>
      </trkpt>
      <trkpt lat="45.83271" lon="4.82537">
        <ele>295</ele>
        <time>2012-09-04T17:17:20Z</time>
      </trkpt>
      <trkpt lat="45.83272" lon="4.82544">
        <ele>294</ele>
        <time>2012-09-04T17:17:22Z</time>
      </trkpt>
      <trkpt lat="45.83272" lon="4.82565">
        <ele>294</ele>
        <time>2012-09-04T17:17:28Z</time>
      </trkpt>
      <trkpt lat="45.8327" lon="4.82586">
        <ele>291</ele>
        <time>2012-09-04T17:17:34Z</time>
      </trkpt>
      <trkpt lat="45.8327" lon="4.8259">
        <ele>291</ele>
        <time>2012-09-04T17:17:35Z</time>
      </trkpt>
      <trkpt lat="45.83265" lon="4.82606">
        <ele>289</ele>
        <time>2012-09-04T17:17:40Z</time>
      </trkpt>
      <trkpt lat="45.83262" lon="4.82614">
        <ele>289</ele>
        <time>2012-09-04T17:17:43Z</time>
      </trkpt>
      <trkpt lat="45.83259" lon="4.82619">
        <ele>288</ele>
        <time>2012-09-04T17:17:45Z</time>
      </trkpt>
      <trkpt lat="45.83247" lon="4.82632">
        <ele>303</ele>
        <time>2012-09-04T17:17:51Z</time>
      </trkpt>
      <trkpt lat="45.83242" lon="4.82635">
        <ele>303</ele>
        <time>2012-09-04T17:17:53Z</time>
      </trkpt>
      <trkpt lat="45.83234" lon="4.82642">
        <ele>303</ele>
        <time>2012-09-04T17:17:57Z</time>
      </trkpt>
      <trkpt lat="45.83232" lon="4.82643">
        <ele>303</ele>
        <time>2012-09-04T17:17:58Z</time>
      </trkpt>
      <trkpt lat="45.83229" lon="4.82645">
        <ele>303</ele>
        <time>2012-09-04T17:18:00Z</time>
      </trkpt>
      <trkpt lat="45.83225" lon="4.8266">
        <ele>302</ele>
        <time>2012-09-04T17:18:03Z</time>
      </trkpt>
      <trkpt lat="45.83224" lon="4.82671">
        <ele>297</ele>
        <time>2012-09-04T17:18:06Z</time>
      </trkpt>
      <trkpt lat="45.83221" lon="4.82685">
        <ele>298</ele>
        <time>2012-09-04T17:18:09Z</time>
      </trkpt>
      <trkpt lat="45.8322" lon="4.82697">
        <ele>298</ele>
        <time>2012-09-04T17:18:12Z</time>
      </trkpt>
      <trkpt lat="45.8322" lon="4.82707">
        <ele>298</ele>
        <time>2012-09-04T17:18:15Z</time>
      </trkpt>
      <trkpt lat="45.83219" lon="4.8272">
        <ele>297</ele>
        <time>2012-09-04T17:18:19Z</time>
      </trkpt>
      <trkpt lat="45.83218" lon="4.82724">
        <ele>297</ele>
        <time>2012-09-04T17:18:20Z</time>
      </trkpt>
      <trkpt lat="45.83216" lon="4.82737">
        <ele>296</ele>
        <time>2012-09-04T17:18:25Z</time>
      </trkpt>
      <trkpt lat="45.83211" lon="4.82739">
        <ele>297</ele>
        <time>2012-09-04T17:18:33Z</time>
      </trkpt>
      <trkpt lat="45.83208" lon="4.82735">
        <ele>298</ele>
        <time>2012-09-04T17:18:37Z</time>
      </trkpt>
      <trkpt lat="45.83208" lon="4.82734">
        <ele>298</ele>
        <time>2012-09-04T17:18:38Z</time>
      </trkpt>
      <trkpt lat="45.83203" lon="4.82726">
        <ele>299</ele>
        <time>2012-09-04T17:18:43Z</time>
      </trkpt>
      <trkpt lat="45.83196" lon="4.82718">
        <ele>300</ele>
        <time>2012-09-04T17:18:48Z</time>
      </trkpt>
      <trkpt lat="45.83194" lon="4.82717">
        <ele>300</ele>
        <time>2012-09-04T17:18:49Z</time>
      </trkpt>
      <trkpt lat="45.83187" lon="4.82714">
        <ele>301</ele>
        <time>2012-09-04T17:18:54Z</time>
      </trkpt>
      <trkpt lat="45.83182" lon="4.8271">
        <ele>302</ele>
        <time>2012-09-04T17:18:59Z</time>
      </trkpt>
      <trkpt lat="45.83177" lon="4.82707">
        <ele>303</ele>
        <time>2012-09-04T17:19:02Z</time>
      </trkpt>
      <trkpt lat="45.83174" lon="4.82705">
        <ele>303</ele>
        <time>2012-09-04T17:19:04Z</time>
      </trkpt>
      <trkpt lat="45.8317" lon="4.82705">
        <ele>304</ele>
        <time>2012-09-04T17:19:07Z</time>
      </trkpt>
      <trkpt lat="45.83169" lon="4.82702">
        <ele>304</ele>
        <time>2012-09-04T17:19:10Z</time>
      </trkpt>
      <trkpt lat="45.83167" lon="4.82698">
        <ele>320</ele>
        <time>2012-09-04T17:19:14Z</time>
      </trkpt>
      <trkpt lat="45.83165" lon="4.82696">
        <ele>320</ele>
        <time>2012-09-04T17:19:15Z</time>
      </trkpt>
      <trkpt lat="45.83161" lon="4.82693">
        <ele>321</ele>
        <time>2012-09-04T17:19:18Z</time>
      </trkpt>
      <trkpt lat="45.83157" lon="4.82693">
        <ele>321</ele>
        <time>2012-09-04T17:19:21Z</time>
      </trkpt>
      <trkpt lat="45.83153" lon="4.82689">
        <ele>322</ele>
        <time>2012-09-04T17:19:26Z</time>
      </trkpt>
      <trkpt lat="45.83152" lon="4.82689">
        <ele>322</ele>
        <time>2012-09-04T17:19:27Z</time>
      </trkpt>
      <trkpt lat="45.83148" lon="4.82691">
        <ele>322</ele>
        <time>2012-09-04T17:19:34Z</time>
      </trkpt>
      <trkpt lat="45.83144" lon="4.82688">
        <ele>323</ele>
        <time>2012-09-04T17:19:37Z</time>
      </trkpt>
      <trkpt lat="45.83142" lon="4.82689">
        <ele>323</ele>
        <time>2012-09-04T17:19:39Z</time>
      </trkpt>
      <trkpt lat="45.83139" lon="4.82691">
        <ele>324</ele>
        <time>2012-09-04T17:19:43Z</time>
      </trkpt>
      <trkpt lat="45.83136" lon="4.8269">
        <ele>324</ele>
        <time>2012-09-04T17:19:48Z</time>
      </trkpt>
      <trkpt lat="45.83133" lon="4.8269">
        <ele>325</ele>
        <time>2012-09-04T17:19:50Z</time>
      </trkpt>
      <trkpt lat="45.8313" lon="4.82689">
        <ele>325</ele>
        <time>2012-09-04T17:19:51Z</time>
      </trkpt>
      <trkpt lat="45.83127" lon="4.82691">
        <ele>326</ele>
        <time>2012-09-04T17:19:53Z</time>
      </trkpt>
      <trkpt lat="45.83125" lon="4.82695">
        <ele>326</ele>
        <time>2012-09-04T17:19:55Z</time>
      </trkpt>
      <trkpt lat="45.83121" lon="4.827">
        <ele>326</ele>
        <time>2012-09-04T17:19:59Z</time>
      </trkpt>
      <trkpt lat="45.8312" lon="4.82702">
        <ele>326</ele>
        <time>2012-09-04T17:20:01Z</time>
      </trkpt>
      <trkpt lat="45.8312" lon="4.82705">
        <ele>326</ele>
        <time>2012-09-04T17:20:03Z</time>
      </trkpt>
      <trkpt lat="45.83119" lon="4.82707">
        <ele>326</ele>
        <time>2012-09-04T17:20:05Z</time>
      </trkpt>
      <trkpt lat="45.83118" lon="4.8271">
        <ele>326</ele>
        <time>2012-09-04T17:20:06Z</time>
      </trkpt>
      <trkpt lat="45.83118" lon="4.82714">
        <ele>325</ele>
        <time>2012-09-04T17:20:07Z</time>
      </trkpt>
      <trkpt lat="45.83114" lon="4.82721">
        <ele>325</ele>
        <time>2012-09-04T17:20:11Z</time>
      </trkpt>
      <trkpt lat="45.83111" lon="4.82736">
        <ele>325</ele>
        <time>2012-09-04T17:20:16Z</time>
      </trkpt>
      <trkpt lat="45.83111" lon="4.82739">
        <ele>325</ele>
        <time>2012-09-04T17:20:17Z</time>
      </trkpt>
      <trkpt lat="45.83107" lon="4.82749">
        <ele>326</ele>
        <time>2012-09-04T17:20:21Z</time>
      </trkpt>
      <trkpt lat="45.83105" lon="4.82756">
        <ele>319</ele>
        <time>2012-09-04T17:20:23Z</time>
      </trkpt>
      <trkpt lat="45.83104" lon="4.82761">
        <ele>318</ele>
        <time>2012-09-04T17:20:24Z</time>
      </trkpt>
      <trkpt lat="45.83102" lon="4.82767">
        <ele>318</ele>
        <time>2012-09-04T17:20:27Z</time>
      </trkpt>
      <trkpt lat="45.83102" lon="4.82771">
        <ele>317</ele>
        <time>2012-09-04T17:20:28Z</time>
      </trkpt>
      <trkpt lat="45.83101" lon="4.82776">
        <ele>316</ele>
        <time>2012-09-04T17:20:31Z</time>
      </trkpt>
      <trkpt lat="45.83099" lon="4.82778">
        <ele>316</ele>
        <time>2012-09-04T17:20:33Z</time>
      </trkpt>
      <trkpt lat="45.83097" lon="4.8278">
        <ele>316</ele>
        <time>2012-09-04T17:20:36Z</time>
      </trkpt>
      <trkpt lat="45.83096" lon="4.8278">
        <ele>316</ele>
        <time>2012-09-04T17:20:37Z</time>
      </trkpt>
      <trkpt lat="45.83094" lon="4.82781">
        <ele>316</ele>
        <time>2012-09-04T17:20:42Z</time>
      </trkpt>
      <trkpt lat="45.8309" lon="4.82783">
        <ele>316</ele>
        <time>2012-09-04T17:20:48Z</time>
      </trkpt>
      <trkpt lat="45.83088" lon="4.82788">
        <ele>316</ele>
        <time>2012-09-04T17:20:54Z</time>
      </trkpt>
      <trkpt lat="45.83083" lon="4.82798">
        <ele>329</ele>
        <time>2012-09-04T17:20:59Z</time>
      </trkpt>
      <trkpt lat="45.83082" lon="4.828">
        <ele>329</ele>
        <time>2012-09-04T17:21:00Z</time>
      </trkpt>
      <trkpt lat="45.83076" lon="4.82807">
        <ele>327</ele>
        <time>2012-09-04T17:21:05Z</time>
      </trkpt>
      <trkpt lat="45.83068" lon="4.82818">
        <ele>326</ele>
        <time>2012-09-04T17:21:11Z</time>
      </trkpt>
      <trkpt lat="45.83064" lon="4.82821">
        <ele>327</ele>
        <time>2012-09-04T17:21:15Z</time>
      </trkpt>
      <trkpt lat="45.8306" lon="4.82825">
        <ele>327</ele>
        <time>2012-09-04T17:21:20Z</time>
      </trkpt>
      <trkpt lat="45.8306" lon="4.82826">
        <ele>327</ele>
        <time>2012-09-04T17:21:21Z</time>
      </trkpt>
      <trkpt lat="45.83055" lon="4.82836">
        <ele>320</ele>
        <time>2012-09-04T17:21:27Z</time>
      </trkpt>
      <trkpt lat="45.83048" lon="4.82836">
        <ele>321</ele>
        <time>2012-09-04T17:21:32Z</time>
      </trkpt>
      <trkpt lat="45.83045" lon="4.82836">
        <ele>322</ele>
        <time>2012-09-04T17:21:34Z</time>
      </trkpt>
      <trkpt lat="45.8304" lon="4.82835">
        <ele>323</ele>
        <time>2012-09-04T17:21:37Z</time>
      </trkpt>
      <trkpt lat="45.83038" lon="4.82835">
        <ele>323</ele>
        <time>2012-09-04T17:21:38Z</time>
      </trkpt>
      <trkpt lat="45.83033" lon="4.82834">
        <ele>325</ele>
        <time>2012-09-04T17:21:42Z</time>
      </trkpt>
      <trkpt lat="45.8303" lon="4.82831">
        <ele>334</ele>
        <time>2012-09-04T17:21:44Z</time>
      </trkpt>
      <trkpt lat="45.83027" lon="4.8283">
        <ele>334</ele>
        <time>2012-09-04T17:21:46Z</time>
      </trkpt>
      <trkpt lat="45.83022" lon="4.82828">
        <ele>335</ele>
        <time>2012-09-04T17:21:51Z</time>
      </trkpt>
      <trkpt lat="45.83021" lon="4.82828">
        <ele>335</ele>
        <time>2012-09-04T17:21:52Z</time>
      </trkpt>
      <trkpt lat="45.83015" lon="4.82826">
        <ele>336</ele>
        <time>2012-09-04T17:21:58Z</time>
      </trkpt>
      <trkpt lat="45.83012" lon="4.82824">
        <ele>337</ele>
        <time>2012-09-04T17:22:00Z</time>
      </trkpt>
      <trkpt lat="45.83006" lon="4.82821">
        <ele>337</ele>
        <time>2012-09-04T17:22:04Z</time>
      </trkpt>
      <trkpt lat="45.83002" lon="4.82819">
        <ele>337</ele>
        <time>2012-09-04T17:22:08Z</time>
      </trkpt>
      <trkpt lat="45.83001" lon="4.82819">
        <ele>337</ele>
        <time>2012-09-04T17:22:09Z</time>
      </trkpt>
      <trkpt lat="45.82998" lon="4.82815">
        <ele>350</ele>
        <time>2012-09-04T17:22:13Z</time>
      </trkpt>
      <trkpt lat="45.82995" lon="4.82813">
        <ele>351</ele>
        <time>2012-09-04T17:22:17Z</time>
      </trkpt>
      <trkpt lat="45.82991" lon="4.82812">
        <ele>352</ele>
        <time>2012-09-04T17:22:20Z</time>
      </trkpt>
      <trkpt lat="45.82989" lon="4.82811">
        <ele>352</ele>
        <time>2012-09-04T17:22:22Z</time>
      </trkpt>
      <trkpt lat="45.82985" lon="4.82809">
        <ele>354</ele>
        <time>2012-09-04T17:22:25Z</time>
      </trkpt>
      <trkpt lat="45.82981" lon="4.82807">
        <ele>355</ele>
        <time>2012-09-04T17:22:29Z</time>
      </trkpt>
      <trkpt lat="45.82977" lon="4.82805">
        <ele>356</ele>
        <time>2012-09-04T17:22:32Z</time>
      </trkpt>
      <trkpt lat="45.82976" lon="4.82805">
        <ele>356</ele>
        <time>2012-09-04T17:22:33Z</time>
      </trkpt>
      <trkpt lat="45.82975" lon="4.82806">
        <ele>356</ele>
        <time>2012-09-04T17:22:34Z</time>
      </trkpt>
      <trkpt lat="45.82974" lon="4.82806">
        <ele>356</ele>
        <time>2012-09-04T17:22:35Z</time>
      </trkpt>
      <trkpt lat="45.82973" lon="4.82804">
        <ele>357</ele>
        <time>2012-09-04T17:22:39Z</time>
      </trkpt>
      <trkpt lat="45.82979" lon="4.82807">
        <ele>355</ele>
        <time>2012-09-04T17:23:20Z</time>
      </trkpt>
      <trkpt lat="45.82977" lon="4.82807">
        <ele>356</ele>
        <time>2012-09-04T17:23:29Z</time>
      </trkpt>
      <trkpt lat="45.8297" lon="4.82814">
        <ele>356</ele>
        <time>2012-09-04T17:23:57Z</time>
      </trkpt>
      <trkpt lat="45.82969" lon="4.82815">
        <ele>356</ele>
        <time>2012-09-04T17:23:58Z</time>
      </trkpt>
      <trkpt lat="45.82963" lon="4.82823">
        <ele>356</ele>
        <time>2012-09-04T17:24:03Z</time>
      </trkpt>
      <trkpt lat="45.82956" lon="4.82831">
        <ele>357</ele>
        <time>2012-09-04T17:24:07Z</time>
      </trkpt>
      <trkpt lat="45.82951" lon="4.82833">
        <ele>358</ele>
        <time>2012-09-04T17:24:10Z</time>
      </trkpt>
      <trkpt lat="45.82943" lon="4.82835">
        <ele>347</ele>
        <time>2012-09-04T17:24:15Z</time>
      </trkpt>
      <trkpt lat="45.82937" lon="4.82836">
        <ele>349</ele>
        <time>2012-09-04T17:24:18Z</time>
      </trkpt>
      <trkpt lat="45.82932" lon="4.82837">
        <ele>351</ele>
        <time>2012-09-04T17:24:21Z</time>
      </trkpt>
      <trkpt lat="45.82923" lon="4.8284">
        <ele>354</ele>
        <time>2012-09-04T17:24:26Z</time>
      </trkpt>
      <trkpt lat="45.82918" lon="4.82841">
        <ele>354</ele>
        <time>2012-09-04T17:24:28Z</time>
      </trkpt>
      <trkpt lat="45.82908" lon="4.8284">
        <ele>358</ele>
        <time>2012-09-04T17:24:32Z</time>
      </trkpt>
      <trkpt lat="45.82899" lon="4.8284">
        <ele>358</ele>
        <time>2012-09-04T17:24:36Z</time>
      </trkpt>
      <trkpt lat="45.82897" lon="4.8284">
        <ele>358</ele>
        <time>2012-09-04T17:24:37Z</time>
      </trkpt>
      <trkpt lat="45.82882" lon="4.82844">
        <ele>358</ele>
        <time>2012-09-04T17:24:43Z</time>
      </trkpt>
      <trkpt lat="45.8288" lon="4.82844">
        <ele>358</ele>
        <time>2012-09-04T17:24:44Z</time>
      </trkpt>
      <trkpt lat="45.82869" lon="4.82844">
        <ele>359</ele>
        <time>2012-09-04T17:24:48Z</time>
      </trkpt>
      <trkpt lat="45.82859" lon="4.82844">
        <ele>361</ele>
        <time>2012-09-04T17:24:52Z</time>
      </trkpt>
      <trkpt lat="45.82855" lon="4.82844">
        <ele>362</ele>
        <time>2012-09-04T17:24:54Z</time>
      </trkpt>
      <trkpt lat="45.82842" lon="4.82847">
        <ele>364</ele>
        <time>2012-09-04T17:24:59Z</time>
      </trkpt>
      <trkpt lat="45.8284" lon="4.82846">
        <ele>365</ele>
        <time>2012-09-04T17:25:00Z</time>
      </trkpt>
      <trkpt lat="45.8283" lon="4.82849">
        <ele>366</ele>
        <time>2012-09-04T17:25:04Z</time>
      </trkpt>
      <trkpt lat="45.8282" lon="4.82852">
        <ele>365</ele>
        <time>2012-09-04T17:25:08Z</time>
      </trkpt>
      <trkpt lat="45.82817" lon="4.82853">
        <ele>364</ele>
        <time>2012-09-04T17:25:09Z</time>
      </trkpt>
      <trkpt lat="45.82805" lon="4.82857">
        <ele>362</ele>
        <time>2012-09-04T17:25:14Z</time>
      </trkpt>
      <trkpt lat="45.82802" lon="4.82857">
        <ele>362</ele>
        <time>2012-09-04T17:25:15Z</time>
      </trkpt>
      <trkpt lat="45.82791" lon="4.8286">
        <ele>361</ele>
        <time>2012-09-04T17:25:19Z</time>
      </trkpt>
      <trkpt lat="45.82783" lon="4.82863">
        <ele>361</ele>
        <time>2012-09-04T17:25:22Z</time>
      </trkpt>
      <trkpt lat="45.82775" lon="4.82874">
        <ele>359</ele>
        <time>2012-09-04T17:25:25Z</time>
      </trkpt>
      <trkpt lat="45.82764" lon="4.8287">
        <ele>360</ele>
        <time>2012-09-04T17:25:30Z</time>
      </trkpt>
      <trkpt lat="45.82753" lon="4.82866">
        <ele>360</ele>
        <time>2012-09-04T17:25:35Z</time>
      </trkpt>
      <trkpt lat="45.82745" lon="4.82863">
        <ele>356</ele>
        <time>2012-09-04T17:25:38Z</time>
      </trkpt>
      <trkpt lat="45.82739" lon="4.8286">
        <ele>356</ele>
        <time>2012-09-04T17:25:41Z</time>
      </trkpt>
      <trkpt lat="45.82727" lon="4.82866">
        <ele>354</ele>
        <time>2012-09-04T17:25:46Z</time>
      </trkpt>
      <trkpt lat="45.82726" lon="4.82867">
        <ele>354</ele>
        <time>2012-09-04T17:25:47Z</time>
      </trkpt>
      <trkpt lat="45.82718" lon="4.82863">
        <ele>353</ele>
        <time>2012-09-04T17:25:50Z</time>
      </trkpt>
      <trkpt lat="45.82709" lon="4.82854">
        <ele>353</ele>
        <time>2012-09-04T17:25:54Z</time>
      </trkpt>
      <trkpt lat="45.82707" lon="4.82852">
        <ele>353</ele>
        <time>2012-09-04T17:25:55Z</time>
      </trkpt>
      <trkpt lat="45.82698" lon="4.8284">
        <ele>353</ele>
        <time>2012-09-04T17:26:00Z</time>
      </trkpt>
      <trkpt lat="45.82695" lon="4.82837">
        <ele>353</ele>
        <time>2012-09-04T17:26:01Z</time>
      </trkpt>
      <trkpt lat="45.82687" lon="4.82823">
        <ele>361</ele>
        <time>2012-09-04T17:26:06Z</time>
      </trkpt>
      <trkpt lat="45.82683" lon="4.82816">
        <ele>361</ele>
        <time>2012-09-04T17:26:08Z</time>
      </trkpt>
      <trkpt lat="45.82681" lon="4.82811">
        <ele>362</ele>
        <time>2012-09-04T17:26:10Z</time>
      </trkpt>
      <trkpt lat="45.8268" lon="4.82807">
        <ele>362</ele>
        <time>2012-09-04T17:26:11Z</time>
      </trkpt>
      <trkpt lat="45.82673" lon="4.82793">
        <ele>364</ele>
        <time>2012-09-04T17:26:16Z</time>
      </trkpt>
      <trkpt lat="45.82671" lon="4.82791">
        <ele>364</ele>
        <time>2012-09-04T17:26:17Z</time>
      </trkpt>
      <trkpt lat="45.8267" lon="4.82785">
        <ele>364</ele>
        <time>2012-09-04T17:26:20Z</time>
      </trkpt>
      <trkpt lat="45.82671" lon="4.82784">
        <ele>364</ele>
        <time>2012-09-04T17:26:21Z</time>
      </trkpt>
      <trkpt lat="45.82677" lon="4.82787">
        <ele>365</ele>
        <time>2012-09-04T17:26:26Z</time>
      </trkpt>
      <trkpt lat="45.82678" lon="4.82788">
        <ele>365</ele>
        <time>2012-09-04T17:26:27Z</time>
      </trkpt>
      <trkpt lat="45.82682" lon="4.82791">
        <ele>365</ele>
        <time>2012-09-04T17:26:30Z</time>
      </trkpt>
      <trkpt lat="45.82688" lon="4.82792">
        <ele>365</ele>
        <time>2012-09-04T17:26:33Z</time>
      </trkpt>
      <trkpt lat="45.82697" lon="4.82793">
        <ele>366</ele>
        <time>2012-09-04T17:26:38Z</time>
      </trkpt>
      <trkpt lat="45.827" lon="4.82791">
        <ele>367</ele>
        <time>2012-09-04T17:26:39Z</time>
      </trkpt>
      <trkpt lat="45.82708" lon="4.82787">
        <ele>368</ele>
        <time>2012-09-04T17:26:43Z</time>
      </trkpt>
      <trkpt lat="45.8271" lon="4.82788">
        <ele>368</ele>
        <time>2012-09-04T17:26:44Z</time>
      </trkpt>
      <trkpt lat="45.82719" lon="4.82792">
        <ele>369</ele>
        <time>2012-09-04T17:26:48Z</time>
      </trkpt>
      <trkpt lat="45.82721" lon="4.82793">
        <ele>369</ele>
        <time>2012-09-04T17:26:50Z</time>
      </trkpt>
      <trkpt lat="45.82728" lon="4.82796">
        <ele>369</ele>
        <time>2012-09-04T17:26:54Z</time>
      </trkpt>
      <trkpt lat="45.8273" lon="4.82796">
        <ele>369</ele>
        <time>2012-09-04T17:26:55Z</time>
      </trkpt>
      <trkpt lat="45.82737" lon="4.82801">
        <ele>369</ele>
        <time>2012-09-04T17:26:59Z</time>
      </trkpt>
      <trkpt lat="45.82741" lon="4.82804">
        <ele>369</ele>
        <time>2012-09-04T17:27:02Z</time>
      </trkpt>
      <trkpt lat="45.82745" lon="4.82803">
        <ele>369</ele>
        <time>2012-09-04T17:27:04Z</time>
      </trkpt>
      <trkpt lat="45.82749" lon="4.82801">
        <ele>370</ele>
        <time>2012-09-04T17:27:07Z</time>
      </trkpt>
      <trkpt lat="45.82754" lon="4.82802">
        <ele>378</ele>
        <time>2012-09-04T17:27:10Z</time>
      </trkpt>
      <trkpt lat="45.82758" lon="4.82804">
        <ele>378</ele>
        <time>2012-09-04T17:27:12Z</time>
      </trkpt>
      <trkpt lat="45.82761" lon="4.82807">
        <ele>378</ele>
        <time>2012-09-04T17:27:14Z</time>
      </trkpt>
      <trkpt lat="45.82762" lon="4.82811">
        <ele>377</ele>
        <time>2012-09-04T17:27:17Z</time>
      </trkpt>
      <trkpt lat="45.82763" lon="4.82813">
        <ele>376</ele>
        <time>2012-09-04T17:27:19Z</time>
      </trkpt>
      <trkpt lat="45.82766" lon="4.8282">
        <ele>375</ele>
        <time>2012-09-04T17:27:22Z</time>
      </trkpt>
      <trkpt lat="45.82766" lon="4.82827">
        <ele>374</ele>
        <time>2012-09-04T17:27:25Z</time>
      </trkpt>
      <trkpt lat="45.82766" lon="4.82828">
        <ele>374</ele>
        <time>2012-09-04T17:27:26Z</time>
      </trkpt>
      <trkpt lat="45.82766" lon="4.8283">
        <ele>374</ele>
        <time>2012-09-04T17:27:29Z</time>
      </trkpt>
      <trkpt lat="45.82768" lon="4.82831">
        <ele>374</ele>
        <time>2012-09-04T17:27:31Z</time>
      </trkpt>
      <trkpt lat="45.82769" lon="4.8283">
        <ele>375</ele>
        <time>2012-09-04T17:27:33Z</time>
      </trkpt>
      <trkpt lat="45.82773" lon="4.82828">
        <ele>375</ele>
        <time>2012-09-04T17:27:37Z</time>
      </trkpt>
      <trkpt lat="45.82775" lon="4.82826">
        <ele>376</ele>
        <time>2012-09-04T17:27:41Z</time>
      </trkpt>
      <trkpt lat="45.82776" lon="4.82825">
        <ele>376</ele>
        <time>2012-09-04T17:27:42Z</time>
      </trkpt>
      <trkpt lat="45.82777" lon="4.82824">
        <ele>376</ele>
        <time>2012-09-04T17:27:43Z</time>
      </trkpt>
      <trkpt lat="45.8278" lon="4.8282">
        <ele>377</ele>
        <time>2012-09-04T17:27:47Z</time>
      </trkpt>
      <trkpt lat="45.82781" lon="4.82819">
        <ele>378</ele>
        <time>2012-09-04T17:27:49Z</time>
      </trkpt>
      <trkpt lat="45.82783" lon="4.82819">
        <ele>378</ele>
        <time>2012-09-04T17:27:51Z</time>
      </trkpt>
      <trkpt lat="45.82787" lon="4.82819">
        <ele>378</ele>
        <time>2012-09-04T17:27:54Z</time>
      </trkpt>
      <trkpt lat="45.8279" lon="4.82818">
        <ele>378</ele>
        <time>2012-09-04T17:27:56Z</time>
      </trkpt>
      <trkpt lat="45.82792" lon="4.82818">
        <ele>378</ele>
        <time>2012-09-04T17:27:57Z</time>
      </trkpt>
      <trkpt lat="45.82793" lon="4.82818">
        <ele>378</ele>
        <time>2012-09-04T17:27:58Z</time>
      </trkpt>
      <trkpt lat="45.82797" lon="4.82816">
        <ele>379</ele>
        <time>2012-09-04T17:28:01Z</time>
      </trkpt>
      <trkpt lat="45.82801" lon="4.82813">
        <ele>379</ele>
        <time>2012-09-04T17:28:04Z</time>
      </trkpt>
      <trkpt lat="45.82802" lon="4.82813">
        <ele>379</ele>
        <time>2012-09-04T17:28:05Z</time>
      </trkpt>
      <trkpt lat="45.82805" lon="4.82808">
        <ele>380</ele>
        <time>2012-09-04T17:28:09Z</time>
      </trkpt>
      <trkpt lat="45.82806" lon="4.82803">
        <ele>381</ele>
        <time>2012-09-04T17:28:15Z</time>
      </trkpt>
      <trkpt lat="45.82807" lon="4.82802">
        <ele>381</ele>
        <time>2012-09-04T17:28:16Z</time>
      </trkpt>
      <trkpt lat="45.82808" lon="4.82793">
        <ele>382</ele>
        <time>2012-09-04T17:28:21Z</time>
      </trkpt>
      <trkpt lat="45.82806" lon="4.82786">
        <ele>383</ele>
        <time>2012-09-04T17:28:29Z</time>
      </trkpt>
      <trkpt lat="45.82809" lon="4.82778">
        <ele>385</ele>
        <time>2012-09-04T17:28:36Z</time>
      </trkpt>
      <trkpt lat="45.82805" lon="4.82774">
        <ele>385</ele>
        <time>2012-09-04T17:28:42Z</time>
      </trkpt>
      <trkpt lat="45.82803" lon="4.82774">
        <ele>385</ele>
        <time>2012-09-04T17:28:44Z</time>
      </trkpt>
      <trkpt lat="45.82802" lon="4.82774">
        <ele>385</ele>
        <time>2012-09-04T17:28:46Z</time>
      </trkpt>
      <trkpt lat="45.82801" lon="4.82772">
        <ele>385</ele>
        <time>2012-09-04T17:28:48Z</time>
      </trkpt>
      <trkpt lat="45.828" lon="4.82771">
        <ele>385</ele>
        <time>2012-09-04T17:28:49Z</time>
      </trkpt>
      <trkpt lat="45.828" lon="4.82769">
        <ele>385</ele>
        <time>2012-09-04T17:28:51Z</time>
      </trkpt>
      <trkpt lat="45.828" lon="4.82765">
        <ele>386</ele>
        <time>2012-09-04T17:28:54Z</time>
      </trkpt>
      <trkpt lat="45.82799" lon="4.82763">
        <ele>386</ele>
        <time>2012-09-04T17:28:56Z</time>
      </trkpt>
      <trkpt lat="45.82799" lon="4.82758">
        <ele>386</ele>
        <time>2012-09-04T17:29:01Z</time>
      </trkpt>
      <trkpt lat="45.82797" lon="4.82754">
        <ele>387</ele>
        <time>2012-09-04T17:29:05Z</time>
      </trkpt>
      <trkpt lat="45.82796" lon="4.82751">
        <ele>387</ele>
        <time>2012-09-04T17:29:10Z</time>
      </trkpt>
      <trkpt lat="45.82797" lon="4.82744">
        <ele>399</ele>
        <time>2012-09-04T17:29:19Z</time>
      </trkpt>
      <trkpt lat="45.82796" lon="4.82738">
        <ele>400</ele>
        <time>2012-09-04T17:29:23Z</time>
      </trkpt>
      <trkpt lat="45.82794" lon="4.82733">
        <ele>400</ele>
        <time>2012-09-04T17:29:27Z</time>
      </trkpt>
      <trkpt lat="45.82793" lon="4.82733">
        <ele>400</ele>
        <time>2012-09-04T17:29:28Z</time>
      </trkpt>
      <trkpt lat="45.82792" lon="4.82732">
        <ele>400</ele>
        <time>2012-09-04T17:29:29Z</time>
      </trkpt>
      <trkpt lat="45.82788" lon="4.8273">
        <ele>400</ele>
        <time>2012-09-04T17:29:32Z</time>
      </trkpt>
      <trkpt lat="45.82786" lon="4.82726">
        <ele>400</ele>
        <time>2012-09-04T17:29:35Z</time>
      </trkpt>
      <trkpt lat="45.82785" lon="4.82723">
        <ele>400</ele>
        <time>2012-09-04T17:29:37Z</time>
      </trkpt>
      <trkpt lat="45.82784" lon="4.82722">
        <ele>400</ele>
        <time>2012-09-04T17:29:40Z</time>
      </trkpt>
      <trkpt lat="45.82782" lon="4.8272">
        <ele>400</ele>
        <time>2012-09-04T17:29:45Z</time>
      </trkpt>
      <trkpt lat="45.82782" lon="4.82721">
        <ele>400</ele>
        <time>2012-09-04T17:29:53Z</time>
      </trkpt>
      <trkpt lat="45.82783" lon="4.82721">
        <ele>400</ele>
        <time>2012-09-04T17:29:58Z</time>
      </trkpt>
      <trkpt lat="45.8278" lon="4.8272">
        <ele>400</ele>
        <time>2012-09-04T17:30:22Z</time>
      </trkpt>
      <trkpt lat="45.82782" lon="4.82718">
        <ele>400</ele>
        <time>2012-09-04T17:30:32Z</time>
      </trkpt>
      <trkpt lat="45.82781" lon="4.82719">
        <ele>400</ele>
        <time>2012-09-04T17:30:38Z</time>
      </trkpt>
      <trkpt lat="45.82783" lon="4.82715">
        <ele>401</ele>
        <time>2012-09-04T17:30:54Z</time>
      </trkpt>
      <trkpt lat="45.82785" lon="4.82713">
        <ele>401</ele>
        <time>2012-09-04T17:30:56Z</time>
      </trkpt>
      <trkpt lat="45.82789" lon="4.82711">
        <ele>402</ele>
        <time>2012-09-04T17:31:00Z</time>
      </trkpt>
      <trkpt lat="45.8279" lon="4.8271">
        <ele>402</ele>
        <time>2012-09-04T17:31:01Z</time>
      </trkpt>
      <trkpt lat="45.82794" lon="4.82705">
        <ele>402</ele>
        <time>2012-09-04T17:31:06Z</time>
      </trkpt>
      <trkpt lat="45.82796" lon="4.82705">
        <ele>403</ele>
        <time>2012-09-04T17:31:07Z</time>
      </trkpt>
      <trkpt lat="45.82803" lon="4.82695">
        <ele>404</ele>
        <time>2012-09-04T17:31:14Z</time>
      </trkpt>
      <trkpt lat="45.82804" lon="4.82694">
        <ele>404</ele>
        <time>2012-09-04T17:31:15Z</time>
      </trkpt>
      <trkpt lat="45.82806" lon="4.82689">
        <ele>405</ele>
        <time>2012-09-04T17:31:19Z</time>
      </trkpt>
      <trkpt lat="45.82806" lon="4.82683">
        <ele>406</ele>
        <time>2012-09-04T17:31:23Z</time>
      </trkpt>
      <trkpt lat="45.82807" lon="4.82681">
        <ele>406</ele>
        <time>2012-09-04T17:31:25Z</time>
      </trkpt>
      <trkpt lat="45.82811" lon="4.82675">
        <ele>407</ele>
        <time>2012-09-04T17:31:31Z</time>
      </trkpt>
      <trkpt lat="45.82815" lon="4.82667">
        <ele>408</ele>
        <time>2012-09-04T17:31:37Z</time>
      </trkpt>
      <trkpt lat="45.82818" lon="4.82663">
        <ele>415</ele>
        <time>2012-09-04T17:31:39Z</time>
      </trkpt>
      <trkpt lat="45.82827" lon="4.82655">
        <ele>415</ele>
        <time>2012-09-04T17:31:44Z</time>
      </trkpt>
      <trkpt lat="45.82834" lon="4.8265">
        <ele>416</ele>
        <time>2012-09-04T17:31:48Z</time>
      </trkpt>
      <trkpt lat="45.82836" lon="4.82646">
        <ele>416</ele>
        <time>2012-09-04T17:31:50Z</time>
      </trkpt>
      <trkpt lat="45.82846" lon="4.8264">
        <ele>417</ele>
        <time>2012-09-04T17:31:56Z</time>
      </trkpt>
      <trkpt lat="45.8285" lon="4.82636">
        <ele>417</ele>
        <time>2012-09-04T17:31:58Z</time>
      </trkpt>
      <trkpt lat="45.82854" lon="4.8263">
        <ele>418</ele>
        <time>2012-09-04T17:32:02Z</time>
      </trkpt>
      <trkpt lat="45.82863" lon="4.82622">
        <ele>418</ele>
        <time>2012-09-04T17:32:08Z</time>
      </trkpt>
      <trkpt lat="45.82865" lon="4.82618">
        <ele>419</ele>
        <time>2012-09-04T17:32:10Z</time>
      </trkpt>
      <trkpt lat="45.82866" lon="4.82617">
        <ele>419</ele>
        <time>2012-09-04T17:32:11Z</time>
      </trkpt>
      <trkpt lat="45.82871" lon="4.82611">
        <ele>419</ele>
        <time>2012-09-04T17:32:14Z</time>
      </trkpt>
      <trkpt lat="45.82874" lon="4.82608">
        <ele>419</ele>
        <time>2012-09-04T17:32:16Z</time>
      </trkpt>
      <trkpt lat="45.82878" lon="4.82605">
        <ele>419</ele>
        <time>2012-09-04T17:32:19Z</time>
      </trkpt>
      <trkpt lat="45.8288" lon="4.82602">
        <ele>419</ele>
        <time>2012-09-04T17:32:21Z</time>
      </trkpt>
      <trkpt lat="45.82881" lon="4.82601">
        <ele>419</ele>
        <time>2012-09-04T17:32:24Z</time>
      </trkpt>
      <trkpt lat="45.82882" lon="4.82599">
        <ele>420</ele>
        <time>2012-09-04T17:32:44Z</time>
      </trkpt>
      <trkpt lat="45.82885" lon="4.82597">
        <ele>420</ele>
        <time>2012-09-04T17:32:47Z</time>
      </trkpt>
      <trkpt lat="45.82889" lon="4.82595">
        <ele>420</ele>
        <time>2012-09-04T17:32:50Z</time>
      </trkpt>
      <trkpt lat="45.8289" lon="4.82595">
        <ele>420</ele>
        <time>2012-09-04T17:32:51Z</time>
      </trkpt>
      <trkpt lat="45.82891" lon="4.82594">
        <ele>420</ele>
        <time>2012-09-04T17:32:52Z</time>
      </trkpt>
      <trkpt lat="45.82897" lon="4.82592">
        <ele>420</ele>
        <time>2012-09-04T17:32:55Z</time>
      </trkpt>
      <trkpt lat="45.82901" lon="4.8259">
        <ele>421</ele>
        <time>2012-09-04T17:32:57Z</time>
      </trkpt>
      <trkpt lat="45.82911" lon="4.82584">
        <ele>422</ele>
        <time>2012-09-04T17:33:02Z</time>
      </trkpt>
      <trkpt lat="45.82914" lon="4.82581">
        <ele>424</ele>
        <time>2012-09-04T17:33:04Z</time>
      </trkpt>
      <trkpt lat="45.8292" lon="4.82576">
        <ele>422</ele>
        <time>2012-09-04T17:33:08Z</time>
      </trkpt>
      <trkpt lat="45.82929" lon="4.82567">
        <ele>421</ele>
        <time>2012-09-04T17:33:12Z</time>
      </trkpt>
      <trkpt lat="45.82935" lon="4.82562">
        <ele>421</ele>
        <time>2012-09-04T17:33:15Z</time>
      </trkpt>
      <trkpt lat="45.82938" lon="4.82557">
        <ele>421</ele>
        <time>2012-09-04T17:33:17Z</time>
      </trkpt>
      <trkpt lat="45.82939" lon="4.82555">
        <ele>421</ele>
        <time>2012-09-04T17:33:18Z</time>
      </trkpt>
      <trkpt lat="45.82944" lon="4.82551">
        <ele>421</ele>
        <time>2012-09-04T17:33:21Z</time>
      </trkpt>
      <trkpt lat="45.82946" lon="4.8255">
        <ele>421</ele>
        <time>2012-09-04T17:33:22Z</time>
      </trkpt>
      <trkpt lat="45.82946" lon="4.82548">
        <ele>421</ele>
        <time>2012-09-04T17:33:23Z</time>
      </trkpt>
      <trkpt lat="45.82952" lon="4.82541">
        <ele>421</ele>
        <time>2012-09-04T17:33:26Z</time>
      </trkpt>
      <trkpt lat="45.82955" lon="4.82536">
        <ele>421</ele>
        <time>2012-09-04T17:33:29Z</time>
      </trkpt>
      <trkpt lat="45.82957" lon="4.82534">
        <ele>421</ele>
        <time>2012-09-04T17:33:30Z</time>
      </trkpt>
      <trkpt lat="45.82958" lon="4.82533">
        <ele>421</ele>
        <time>2012-09-04T17:33:31Z</time>
      </trkpt>
      <trkpt lat="45.8296" lon="4.82532">
        <ele>421</ele>
        <time>2012-09-04T17:33:32Z</time>
      </trkpt>
      <trkpt lat="45.82971" lon="4.82518">
        <ele>421</ele>
        <time>2012-09-04T17:33:39Z</time>
      </trkpt>
      <trkpt lat="45.82973" lon="4.82516">
        <ele>421</ele>
        <time>2012-09-04T17:33:40Z</time>
      </trkpt>
      <trkpt lat="45.82982" lon="4.82505">
        <ele>421</ele>
        <time>2012-09-04T17:33:45Z</time>
      </trkpt>
      <trkpt lat="45.82986" lon="4.82496">
        <ele>424</ele>
        <time>2012-09-04T17:33:49Z</time>
      </trkpt>
      <trkpt lat="45.82986" lon="4.82493">
        <ele>424</ele>
        <time>2012-09-04T17:33:50Z</time>
      </trkpt>
      <trkpt lat="45.82986" lon="4.82489">
        <ele>424</ele>
        <time>2012-09-04T17:33:52Z</time>
      </trkpt>
      <trkpt lat="45.82986" lon="4.82482">
        <ele>425</ele>
        <time>2012-09-04T17:33:55Z</time>
      </trkpt>
      <trkpt lat="45.82986" lon="4.82472">
        <ele>425</ele>
        <time>2012-09-04T17:33:59Z</time>
      </trkpt>
      <trkpt lat="45.82985" lon="4.82469">
        <ele>426</ele>
        <time>2012-09-04T17:34:00Z</time>
      </trkpt>
      <trkpt lat="45.82983" lon="4.82456">
        <ele>426</ele>
        <time>2012-09-04T17:34:05Z</time>
      </trkpt>
      <trkpt lat="45.82979" lon="4.82444">
        <ele>427</ele>
        <time>2012-09-04T17:34:09Z</time>
      </trkpt>
      <trkpt lat="45.82979" lon="4.82441">
        <ele>427</ele>
        <time>2012-09-04T17:34:10Z</time>
      </trkpt>
      <trkpt lat="45.82979" lon="4.82436">
        <ele>427</ele>
        <time>2012-09-04T17:34:12Z</time>
      </trkpt>
      <trkpt lat="45.82978" lon="4.8243">
        <ele>427</ele>
        <time>2012-09-04T17:34:14Z</time>
      </trkpt>
      <trkpt lat="45.82978" lon="4.82414">
        <ele>427</ele>
        <time>2012-09-04T17:34:20Z</time>
      </trkpt>
      <trkpt lat="45.82977" lon="4.82412">
        <ele>427</ele>
        <time>2012-09-04T17:34:21Z</time>
      </trkpt>
      <trkpt lat="45.82977" lon="4.82409">
        <ele>427</ele>
        <time>2012-09-04T17:34:22Z</time>
      </trkpt>
      <trkpt lat="45.82975" lon="4.82397">
        <ele>428</ele>
        <time>2012-09-04T17:34:26Z</time>
      </trkpt>
      <trkpt lat="45.82973" lon="4.82388">
        <ele>428</ele>
        <time>2012-09-04T17:34:29Z</time>
      </trkpt>
      <trkpt lat="45.82972" lon="4.82385">
        <ele>428</ele>
        <time>2012-09-04T17:34:30Z</time>
      </trkpt>
      <trkpt lat="45.82972" lon="4.82381">
        <ele>428</ele>
        <time>2012-09-04T17:34:31Z</time>
      </trkpt>
      <trkpt lat="45.8297" lon="4.82371">
        <ele>428</ele>
        <time>2012-09-04T17:34:34Z</time>
      </trkpt>
      <trkpt lat="45.82969" lon="4.8236">
        <ele>428</ele>
        <time>2012-09-04T17:34:37Z</time>
      </trkpt>
      <trkpt lat="45.8297" lon="4.82353">
        <ele>427</ele>
        <time>2012-09-04T17:34:39Z</time>
      </trkpt>
      <trkpt lat="45.82973" lon="4.82341">
        <ele>427</ele>
        <time>2012-09-04T17:34:44Z</time>
      </trkpt>
      <trkpt lat="45.82975" lon="4.82333">
        <ele>424</ele>
        <time>2012-09-04T17:34:47Z</time>
      </trkpt>
      <trkpt lat="45.82976" lon="4.82325">
        <ele>424</ele>
        <time>2012-09-04T17:34:50Z</time>
      </trkpt>
      <trkpt lat="45.82976" lon="4.82322">
        <ele>424</ele>
        <time>2012-09-04T17:34:51Z</time>
      </trkpt>
      <trkpt lat="45.82972" lon="4.82312">
        <ele>424</ele>
        <time>2012-09-04T17:34:55Z</time>
      </trkpt>
      <trkpt lat="45.82971" lon="4.82309">
        <ele>424</ele>
        <time>2012-09-04T17:34:56Z</time>
      </trkpt>
      <trkpt lat="45.82966" lon="4.82301">
        <ele>424</ele>
        <time>2012-09-04T17:34:59Z</time>
      </trkpt>
      <trkpt lat="45.82961" lon="4.82295">
        <ele>424</ele>
        <time>2012-09-04T17:35:02Z</time>
      </trkpt>
      <trkpt lat="45.8296" lon="4.82293">
        <ele>424</ele>
        <time>2012-09-04T17:35:03Z</time>
      </trkpt>
      <trkpt lat="45.82958" lon="4.82289">
        <ele>424</ele>
        <time>2012-09-04T17:35:05Z</time>
      </trkpt>
      <trkpt lat="45.82952" lon="4.82279">
        <ele>424</ele>
        <time>2012-09-04T17:35:08Z</time>
      </trkpt>
      <trkpt lat="45.82948" lon="4.82272">
        <ele>424</ele>
        <time>2012-09-04T17:35:12Z</time>
      </trkpt>
      <trkpt lat="45.82947" lon="4.82269">
        <ele>424</ele>
        <time>2012-09-04T17:35:13Z</time>
      </trkpt>
      <trkpt lat="45.82946" lon="4.8226">
        <ele>424</ele>
        <time>2012-09-04T17:35:16Z</time>
      </trkpt>
      <trkpt lat="45.82946" lon="4.82257">
        <ele>424</ele>
        <time>2012-09-04T17:35:18Z</time>
      </trkpt>
      <trkpt lat="45.82946" lon="4.82254">
        <ele>424</ele>
        <time>2012-09-04T17:35:19Z</time>
      </trkpt>
      <trkpt lat="45.82942" lon="4.82243">
        <ele>418</ele>
        <time>2012-09-04T17:35:22Z</time>
      </trkpt>
      <trkpt lat="45.8294" lon="4.8224">
        <ele>418</ele>
        <time>2012-09-04T17:35:23Z</time>
      </trkpt>
      <trkpt lat="45.82933" lon="4.82233">
        <ele>418</ele>
        <time>2012-09-04T17:35:26Z</time>
      </trkpt>
      <trkpt lat="45.82931" lon="4.82228">
        <ele>418</ele>
        <time>2012-09-04T17:35:28Z</time>
      </trkpt>
      <trkpt lat="45.8293" lon="4.82225">
        <ele>417</ele>
        <time>2012-09-04T17:35:29Z</time>
      </trkpt>
      <trkpt lat="45.82928" lon="4.82215">
        <ele>416</ele>
        <time>2012-09-04T17:35:32Z</time>
      </trkpt>
      <trkpt lat="45.82925" lon="4.82209">
        <ele>416</ele>
        <time>2012-09-04T17:35:34Z</time>
      </trkpt>
      <trkpt lat="45.82923" lon="4.82207">
        <ele>415</ele>
        <time>2012-09-04T17:35:35Z</time>
      </trkpt>
      <trkpt lat="45.82919" lon="4.82204">
        <ele>415</ele>
        <time>2012-09-04T17:35:37Z</time>
      </trkpt>
      <trkpt lat="45.82917" lon="4.82201">
        <ele>415</ele>
        <time>2012-09-04T17:35:38Z</time>
      </trkpt>
      <trkpt lat="45.82915" lon="4.822">
        <ele>423</ele>
        <time>2012-09-04T17:35:39Z</time>
      </trkpt>
      <trkpt lat="45.82906" lon="4.82191">
        <ele>422</ele>
        <time>2012-09-04T17:35:44Z</time>
      </trkpt>
      <trkpt lat="45.82904" lon="4.82189">
        <ele>422</ele>
        <time>2012-09-04T17:35:45Z</time>
      </trkpt>
      <trkpt lat="45.82893" lon="4.8218">
        <ele>423</ele>
        <time>2012-09-04T17:35:51Z</time>
      </trkpt>
      <trkpt lat="45.82887" lon="4.82177">
        <ele>423</ele>
        <time>2012-09-04T17:35:54Z</time>
      </trkpt>
      <trkpt lat="45.82884" lon="4.82174">
        <ele>424</ele>
        <time>2012-09-04T17:35:56Z</time>
      </trkpt>
      <trkpt lat="45.82882" lon="4.82173">
        <ele>424</ele>
        <time>2012-09-04T17:35:57Z</time>
      </trkpt>
      <trkpt lat="45.82871" lon="4.8217">
        <ele>425</ele>
        <time>2012-09-04T17:36:03Z</time>
      </trkpt>
      <trkpt lat="45.82869" lon="4.82169">
        <ele>426</ele>
        <time>2012-09-04T17:36:04Z</time>
      </trkpt>
      <trkpt lat="45.82859" lon="4.8217">
        <ele>427</ele>
        <time>2012-09-04T17:36:09Z</time>
      </trkpt>
      <trkpt lat="45.82851" lon="4.8217">
        <ele>428</ele>
        <time>2012-09-04T17:36:13Z</time>
      </trkpt>
      <trkpt lat="45.82848" lon="4.8217">
        <ele>428</ele>
        <time>2012-09-04T17:36:15Z</time>
      </trkpt>
      <trkpt lat="45.82846" lon="4.82171">
        <ele>428</ele>
        <time>2012-09-04T17:36:16Z</time>
      </trkpt>
      <trkpt lat="45.82842" lon="4.82174">
        <ele>428</ele>
        <time>2012-09-04T17:36:19Z</time>
      </trkpt>
      <trkpt lat="45.8284" lon="4.82177">
        <ele>428</ele>
        <time>2012-09-04T17:36:22Z</time>
      </trkpt>
      <trkpt lat="45.82838" lon="4.82179">
        <ele>428</ele>
        <time>2012-09-04T17:36:25Z</time>
      </trkpt>
      <trkpt lat="45.82837" lon="4.82185">
        <ele>429</ele>
        <time>2012-09-04T17:36:29Z</time>
      </trkpt>
      <trkpt lat="45.82836" lon="4.82187">
        <ele>429</ele>
        <time>2012-09-04T17:36:30Z</time>
      </trkpt>
      <trkpt lat="45.82833" lon="4.82188">
        <ele>435</ele>
        <time>2012-09-04T17:36:32Z</time>
      </trkpt>
      <trkpt lat="45.82828" lon="4.82189">
        <ele>436</ele>
        <time>2012-09-04T17:36:36Z</time>
      </trkpt>
      <trkpt lat="45.82824" lon="4.82189">
        <ele>436</ele>
        <time>2012-09-04T17:36:38Z</time>
      </trkpt>
      <trkpt lat="45.82819" lon="4.82188">
        <ele>436</ele>
        <time>2012-09-04T17:36:43Z</time>
      </trkpt>
      <trkpt lat="45.82818" lon="4.82188">
        <ele>436</ele>
        <time>2012-09-04T17:36:44Z</time>
      </trkpt>
      <trkpt lat="45.82812" lon="4.82191">
        <ele>437</ele>
        <time>2012-09-04T17:36:49Z</time>
      </trkpt>
      <trkpt lat="45.82806" lon="4.8219">
        <ele>438</ele>
        <time>2012-09-04T17:36:53Z</time>
      </trkpt>
      <trkpt lat="45.82803" lon="4.8219">
        <ele>438</ele>
        <time>2012-09-04T17:36:55Z</time>
      </trkpt>
      <trkpt lat="45.82801" lon="4.82189">
        <ele>438</ele>
        <time>2012-09-04T17:36:57Z</time>
      </trkpt>
      <trkpt lat="45.82793" lon="4.82189">
        <ele>439</ele>
        <time>2012-09-04T17:37:03Z</time>
      </trkpt>
      <trkpt lat="45.82783" lon="4.82189">
        <ele>440</ele>
        <time>2012-09-04T17:37:11Z</time>
      </trkpt>
      <trkpt lat="45.82782" lon="4.82188">
        <ele>440</ele>
        <time>2012-09-04T17:37:12Z</time>
      </trkpt>
      <trkpt lat="45.82773" lon="4.82192">
        <ele>441</ele>
        <time>2012-09-04T17:37:19Z</time>
      </trkpt>
      <trkpt lat="45.82772" lon="4.82194">
        <ele>441</ele>
        <time>2012-09-04T17:37:21Z</time>
      </trkpt>
      <trkpt lat="45.82768" lon="4.822">
        <ele>441</ele>
        <time>2012-09-04T17:37:26Z</time>
      </trkpt>
      <trkpt lat="45.82768" lon="4.82202">
        <ele>441</ele>
        <time>2012-09-04T17:37:27Z</time>
      </trkpt>
      <trkpt lat="45.82767" lon="4.82205">
        <ele>441</ele>
        <time>2012-09-04T17:37:30Z</time>
      </trkpt>
      <trkpt lat="45.82765" lon="4.82205">
        <ele>441</ele>
        <time>2012-09-04T17:37:32Z</time>
      </trkpt>
      <trkpt lat="45.82763" lon="4.82208">
        <ele>442</ele>
        <time>2012-09-04T17:37:35Z</time>
      </trkpt>
      <trkpt lat="45.82758" lon="4.82211">
        <ele>442</ele>
        <time>2012-09-04T17:37:40Z</time>
      </trkpt>
      <trkpt lat="45.82754" lon="4.82213">
        <ele>442</ele>
        <time>2012-09-04T17:37:43Z</time>
      </trkpt>
      <trkpt lat="45.82748" lon="4.82216">
        <ele>448</ele>
        <time>2012-09-04T17:37:49Z</time>
      </trkpt>
      <trkpt lat="45.82737" lon="4.82222">
        <ele>449</ele>
        <time>2012-09-04T17:37:58Z</time>
      </trkpt>
      <trkpt lat="45.82727" lon="4.8223">
        <ele>449</ele>
        <time>2012-09-04T17:38:07Z</time>
      </trkpt>
      <trkpt lat="45.82721" lon="4.82234">
        <ele>450</ele>
        <time>2012-09-04T17:38:12Z</time>
      </trkpt>
      <trkpt lat="45.82716" lon="4.8224">
        <ele>450</ele>
        <time>2012-09-04T17:38:17Z</time>
      </trkpt>
      <trkpt lat="45.82705" lon="4.82248">
        <ele>451</ele>
        <time>2012-09-04T17:38:26Z</time>
      </trkpt>
      <trkpt lat="45.82703" lon="4.8225">
        <ele>451</ele>
        <time>2012-09-04T17:38:28Z</time>
      </trkpt>
      <trkpt lat="45.827" lon="4.82255">
        <ele>451</ele>
        <time>2012-09-04T17:38:34Z</time>
      </trkpt>
      <trkpt lat="45.827" lon="4.82258">
        <ele>451</ele>
        <time>2012-09-04T17:38:43Z</time>
      </trkpt>
      <trkpt lat="45.82697" lon="4.82263">
        <ele>451</ele>
        <time>2012-09-04T17:39:01Z</time>
      </trkpt>
      <trkpt lat="45.82695" lon="4.82261">
        <ele>451</ele>
        <time>2012-09-04T17:39:03Z</time>
      </trkpt>
      <trkpt lat="45.82692" lon="4.82255">
        <ele>452</ele>
        <time>2012-09-04T17:39:06Z</time>
      </trkpt>
      <trkpt lat="45.82686" lon="4.82241">
        <ele>452</ele>
        <time>2012-09-04T17:39:12Z</time>
      </trkpt>
      <trkpt lat="45.82684" lon="4.82238">
        <ele>452</ele>
        <time>2012-09-04T17:39:13Z</time>
      </trkpt>
      <trkpt lat="45.82677" lon="4.82225">
        <ele>452</ele>
        <time>2012-09-04T17:39:18Z</time>
      </trkpt>
      <trkpt lat="45.82674" lon="4.82217">
        <ele>451</ele>
        <time>2012-09-04T17:39:21Z</time>
      </trkpt>
      <trkpt lat="45.82671" lon="4.82209">
        <ele>451</ele>
        <time>2012-09-04T17:39:24Z</time>
      </trkpt>
      <trkpt lat="45.82664" lon="4.82195">
        <ele>456</ele>
        <time>2012-09-04T17:39:29Z</time>
      </trkpt>
      <trkpt lat="45.82662" lon="4.82193">
        <ele>456</ele>
        <time>2012-09-04T17:39:30Z</time>
      </trkpt>
      <trkpt lat="45.82651" lon="4.82197">
        <ele>456</ele>
        <time>2012-09-04T17:39:36Z</time>
      </trkpt>
      <trkpt lat="45.82646" lon="4.82198">
        <ele>456</ele>
        <time>2012-09-04T17:39:39Z</time>
      </trkpt>
      <trkpt lat="45.82643" lon="4.82199">
        <ele>456</ele>
        <time>2012-09-04T17:39:41Z</time>
      </trkpt>
      <trkpt lat="45.82641" lon="4.82199">
        <ele>457</ele>
        <time>2012-09-04T17:39:42Z</time>
      </trkpt>
      <trkpt lat="45.82633" lon="4.82201">
        <ele>457</ele>
        <time>2012-09-04T17:39:46Z</time>
      </trkpt>
      <trkpt lat="45.82627" lon="4.82202">
        <ele>457</ele>
        <time>2012-09-04T17:39:49Z</time>
      </trkpt>
      <trkpt lat="45.82616" lon="4.82206">
        <ele>458</ele>
        <time>2012-09-04T17:39:55Z</time>
      </trkpt>
      <trkpt lat="45.8261" lon="4.8221">
        <ele>458</ele>
        <time>2012-09-04T17:39:58Z</time>
      </trkpt>
      <trkpt lat="45.82601" lon="4.82213">
        <ele>458</ele>
        <time>2012-09-04T17:40:02Z</time>
      </trkpt>
      <trkpt lat="45.82591" lon="4.82216">
        <ele>458</ele>
        <time>2012-09-04T17:40:07Z</time>
      </trkpt>
      <trkpt lat="45.82589" lon="4.82217">
        <ele>458</ele>
        <time>2012-09-04T17:40:08Z</time>
      </trkpt>
      <trkpt lat="45.82581" lon="4.82228">
        <ele>461</ele>
        <time>2012-09-04T17:40:13Z</time>
      </trkpt>
      <trkpt lat="45.82576" lon="4.82229">
        <ele>461</ele>
        <time>2012-09-04T17:40:15Z</time>
      </trkpt>
      <trkpt lat="45.82569" lon="4.82231">
        <ele>462</ele>
        <time>2012-09-04T17:40:18Z</time>
      </trkpt>
      <trkpt lat="45.8256" lon="4.82229">
        <ele>462</ele>
        <time>2012-09-04T17:40:23Z</time>
      </trkpt>
      <trkpt lat="45.82557" lon="4.82229">
        <ele>462</ele>
        <time>2012-09-04T17:40:24Z</time>
      </trkpt>
      <trkpt lat="45.82546" lon="4.82228">
        <ele>462</ele>
        <time>2012-09-04T17:40:28Z</time>
      </trkpt>
      <trkpt lat="45.82538" lon="4.82228">
        <ele>463</ele>
        <time>2012-09-04T17:40:31Z</time>
      </trkpt>
      <trkpt lat="45.82531" lon="4.82227">
        <ele>463</ele>
        <time>2012-09-04T17:40:34Z</time>
      </trkpt>
      <trkpt lat="45.82519" lon="4.82223">
        <ele>463</ele>
        <time>2012-09-04T17:40:39Z</time>
      </trkpt>
      <trkpt lat="45.82517" lon="4.82221">
        <ele>463</ele>
        <time>2012-09-04T17:40:40Z</time>
      </trkpt>
      <trkpt lat="45.82516" lon="4.82218">
        <ele>463</ele>
        <time>2012-09-04T17:40:41Z</time>
      </trkpt>
      <trkpt lat="45.82516" lon="4.82207">
        <ele>463</ele>
        <time>2012-09-04T17:40:44Z</time>
      </trkpt>
      <trkpt lat="45.82517" lon="4.82204">
        <ele>463</ele>
        <time>2012-09-04T17:40:45Z</time>
      </trkpt>
      <trkpt lat="45.82517" lon="4.82197">
        <ele>464</ele>
        <time>2012-09-04T17:40:47Z</time>
      </trkpt>
      <trkpt lat="45.82514" lon="4.82193">
        <ele>464</ele>
        <time>2012-09-04T17:40:49Z</time>
      </trkpt>
      <trkpt lat="45.82506" lon="4.82185">
        <ele>465</ele>
        <time>2012-09-04T17:40:54Z</time>
      </trkpt>
      <trkpt lat="45.82505" lon="4.8218">
        <ele>465</ele>
        <time>2012-09-04T17:40:56Z</time>
      </trkpt>
      <trkpt lat="45.82505" lon="4.82178">
        <ele>465</ele>
        <time>2012-09-04T17:40:57Z</time>
      </trkpt>
      <trkpt lat="45.82507" lon="4.82174">
        <ele>466</ele>
        <time>2012-09-04T17:40:59Z</time>
      </trkpt>
      <trkpt lat="45.82509" lon="4.82163">
        <ele>466</ele>
        <time>2012-09-04T17:41:04Z</time>
      </trkpt>
      <trkpt lat="45.82505" lon="4.82157">
        <ele>466</ele>
        <time>2012-09-04T17:41:07Z</time>
      </trkpt>
      <trkpt lat="45.82502" lon="4.82156">
        <ele>466</ele>
        <time>2012-09-04T17:41:08Z</time>
      </trkpt>
      <trkpt lat="45.82491" lon="4.82155">
        <ele>467</ele>
        <time>2012-09-04T17:41:13Z</time>
      </trkpt>
      <trkpt lat="45.82489" lon="4.82155">
        <ele>467</ele>
        <time>2012-09-04T17:41:14Z</time>
      </trkpt>
      <trkpt lat="45.82487" lon="4.82155">
        <ele>467</ele>
        <time>2012-09-04T17:41:15Z</time>
      </trkpt>
      <trkpt lat="45.82483" lon="4.82154">
        <ele>467</ele>
        <time>2012-09-04T17:41:18Z</time>
      </trkpt>
      <trkpt lat="45.82482" lon="4.82154">
        <ele>467</ele>
        <time>2012-09-04T17:41:19Z</time>
      </trkpt>
      <trkpt lat="45.82475" lon="4.82152">
        <ele>467</ele>
        <time>2012-09-04T17:41:24Z</time>
      </trkpt>
      <trkpt lat="45.82474" lon="4.82151">
        <ele>467</ele>
        <time>2012-09-04T17:41:25Z</time>
      </trkpt>
      <trkpt lat="45.82472" lon="4.8215">
        <ele>467</ele>
        <time>2012-09-04T17:41:31Z</time>
      </trkpt>
      <trkpt lat="45.82467" lon="4.8215">
        <ele>467</ele>
        <time>2012-09-04T17:41:34Z</time>
      </trkpt>
      <trkpt lat="45.82462" lon="4.8215">
        <ele>467</ele>
        <time>2012-09-04T17:41:36Z</time>
      </trkpt>
      <trkpt lat="45.8245" lon="4.82146">
        <ele>467</ele>
        <time>2012-09-04T17:41:41Z</time>
      </trkpt>
      <trkpt lat="45.82448" lon="4.82145">
        <ele>467</ele>
        <time>2012-09-04T17:41:42Z</time>
      </trkpt>
      <trkpt lat="45.82446" lon="4.82144">
        <ele>467</ele>
        <time>2012-09-04T17:41:43Z</time>
      </trkpt>
      <trkpt lat="45.8244" lon="4.82143">
        <ele>467</ele>
        <time>2012-09-04T17:41:45Z</time>
      </trkpt>
      <trkpt lat="45.82431" lon="4.8214">
        <ele>467</ele>
        <time>2012-09-04T17:41:48Z</time>
      </trkpt>
      <trkpt lat="45.82426" lon="4.82139">
        <ele>467</ele>
        <time>2012-09-04T17:41:50Z</time>
      </trkpt>
      <trkpt lat="45.82422" lon="4.82138">
        <ele>467</ele>
        <time>2012-09-04T17:41:51Z</time>
      </trkpt>
      <trkpt lat="45.82412" lon="4.82137">
        <ele>467</ele>
        <time>2012-09-04T17:41:54Z</time>
      </trkpt>
      <trkpt lat="45.82405" lon="4.82134">
        <ele>467</ele>
        <time>2012-09-04T17:41:56Z</time>
      </trkpt>
      <trkpt lat="45.82391" lon="4.8213">
        <ele>467</ele>
        <time>2012-09-04T17:42:00Z</time>
      </trkpt>
      <trkpt lat="45.82385" lon="4.82129">
        <ele>467</ele>
        <time>2012-09-04T17:42:02Z</time>
      </trkpt>
      <trkpt lat="45.82371" lon="4.82128">
        <ele>467</ele>
        <time>2012-09-04T17:42:07Z</time>
      </trkpt>
      <trkpt lat="45.82365" lon="4.82129">
        <ele>467</ele>
        <time>2012-09-04T17:42:09Z</time>
      </trkpt>
      <trkpt lat="45.82352" lon="4.82127">
        <ele>467</ele>
        <time>2012-09-04T17:42:15Z</time>
      </trkpt>
      <trkpt lat="45.82338" lon="4.82123">
        <ele>467</ele>
        <time>2012-09-04T17:42:21Z</time>
      </trkpt>
      <trkpt lat="45.82334" lon="4.82121">
        <ele>467</ele>
        <time>2012-09-04T17:42:23Z</time>
      </trkpt>
      <trkpt lat="45.82326" lon="4.82116">
        <ele>465</ele>
        <time>2012-09-04T17:42:26Z</time>
      </trkpt>
      <trkpt lat="45.82314" lon="4.8211">
        <ele>466</ele>
        <time>2012-09-04T17:42:31Z</time>
      </trkpt>
      <trkpt lat="45.82301" lon="4.82103">
        <ele>465</ele>
        <time>2012-09-04T17:42:36Z</time>
      </trkpt>
      <trkpt lat="45.82297" lon="4.821">
        <ele>465</ele>
        <time>2012-09-04T17:42:38Z</time>
      </trkpt>
      <trkpt lat="45.82286" lon="4.82095">
        <ele>465</ele>
        <time>2012-09-04T17:42:42Z</time>
      </trkpt>
      <trkpt lat="45.82279" lon="4.8209">
        <ele>465</ele>
        <time>2012-09-04T17:42:45Z</time>
      </trkpt>
      <trkpt lat="45.82275" lon="4.82087">
        <ele>465</ele>
        <time>2012-09-04T17:42:47Z</time>
      </trkpt>
      <trkpt lat="45.82263" lon="4.82079">
        <ele>468</ele>
        <time>2012-09-04T17:42:53Z</time>
      </trkpt>
      <trkpt lat="45.82262" lon="4.82079">
        <ele>468</ele>
        <time>2012-09-04T17:42:54Z</time>
      </trkpt>
      <trkpt lat="45.82261" lon="4.82079">
        <ele>468</ele>
        <time>2012-09-04T17:42:56Z</time>
      </trkpt>
      <trkpt lat="45.8226" lon="4.82078">
        <ele>468</ele>
        <time>2012-09-04T17:42:59Z</time>
      </trkpt>
      <trkpt lat="45.82259" lon="4.82076">
        <ele>468</ele>
        <time>2012-09-04T17:43:15Z</time>
      </trkpt>
      <trkpt lat="45.82256" lon="4.82081">
        <ele>468</ele>
        <time>2012-09-04T17:43:20Z</time>
      </trkpt>
      <trkpt lat="45.82255" lon="4.82082">
        <ele>467</ele>
        <time>2012-09-04T17:43:21Z</time>
      </trkpt>
      <trkpt lat="45.8225" lon="4.82087">
        <ele>465</ele>
        <time>2012-09-04T17:43:24Z</time>
      </trkpt>
      <trkpt lat="45.82244" lon="4.82105">
        <ele>459</ele>
        <time>2012-09-04T17:43:30Z</time>
      </trkpt>
      <trkpt lat="45.82243" lon="4.82115">
        <ele>457</ele>
        <time>2012-09-04T17:43:33Z</time>
      </trkpt>
      <trkpt lat="45.82245" lon="4.8212">
        <ele>456</ele>
        <time>2012-09-04T17:43:35Z</time>
      </trkpt>
      <trkpt lat="45.82253" lon="4.82133">
        <ele>462</ele>
        <time>2012-09-04T17:43:40Z</time>
      </trkpt>
      <trkpt lat="45.82254" lon="4.82136">
        <ele>462</ele>
        <time>2012-09-04T17:43:41Z</time>
      </trkpt>
      <trkpt lat="45.82263" lon="4.82147">
        <ele>461</ele>
        <time>2012-09-04T17:43:45Z</time>
      </trkpt>
      <trkpt lat="45.82268" lon="4.82153">
        <ele>461</ele>
        <time>2012-09-04T17:43:47Z</time>
      </trkpt>
      <trkpt lat="45.82273" lon="4.8216">
        <ele>461</ele>
        <time>2012-09-04T17:43:49Z</time>
      </trkpt>
      <trkpt lat="45.82282" lon="4.82173">
        <ele>452</ele>
        <time>2012-09-04T17:43:53Z</time>
      </trkpt>
      <trkpt lat="45.82284" lon="4.82176">
        <ele>452</ele>
        <time>2012-09-04T17:43:54Z</time>
      </trkpt>
      <trkpt lat="45.82293" lon="4.8219">
        <ele>451</ele>
        <time>2012-09-04T17:43:58Z</time>
      </trkpt>
      <trkpt lat="45.82296" lon="4.82193">
        <ele>451</ele>
        <time>2012-09-04T17:43:59Z</time>
      </trkpt>
      <trkpt lat="45.82303" lon="4.82204">
        <ele>451</ele>
        <time>2012-09-04T17:44:03Z</time>
      </trkpt>
      <trkpt lat="45.82308" lon="4.82214">
        <ele>450</ele>
        <time>2012-09-04T17:44:06Z</time>
      </trkpt>
      <trkpt lat="45.82311" lon="4.8222">
        <ele>449</ele>
        <time>2012-09-04T17:44:08Z</time>
      </trkpt>
      <trkpt lat="45.82313" lon="4.8223">
        <ele>449</ele>
        <time>2012-09-04T17:44:11Z</time>
      </trkpt>
      <trkpt lat="45.82315" lon="4.82238">
        <ele>448</ele>
        <time>2012-09-04T17:44:13Z</time>
      </trkpt>
      <trkpt lat="45.82316" lon="4.82253">
        <ele>439</ele>
        <time>2012-09-04T17:44:17Z</time>
      </trkpt>
      <trkpt lat="45.82317" lon="4.82261">
        <ele>438</ele>
        <time>2012-09-04T17:44:20Z</time>
      </trkpt>
      <trkpt lat="45.82318" lon="4.82263">
        <ele>438</ele>
        <time>2012-09-04T17:44:21Z</time>
      </trkpt>
      <trkpt lat="45.82319" lon="4.82265">
        <ele>438</ele>
        <time>2012-09-04T17:44:22Z</time>
      </trkpt>
      <trkpt lat="45.82322" lon="4.8227">
        <ele>437</ele>
        <time>2012-09-04T17:44:24Z</time>
      </trkpt>
      <trkpt lat="45.82326" lon="4.82279">
        <ele>436</ele>
        <time>2012-09-04T17:44:27Z</time>
      </trkpt>
      <trkpt lat="45.82333" lon="4.82286">
        <ele>434</ele>
        <time>2012-09-04T17:44:30Z</time>
      </trkpt>
      <trkpt lat="45.82337" lon="4.82292">
        <ele>442</ele>
        <time>2012-09-04T17:44:32Z</time>
      </trkpt>
      <trkpt lat="45.82348" lon="4.82304">
        <ele>441</ele>
        <time>2012-09-04T17:44:37Z</time>
      </trkpt>
      <trkpt lat="45.82355" lon="4.8231">
        <ele>440</ele>
        <time>2012-09-04T17:44:40Z</time>
      </trkpt>
      <trkpt lat="45.82362" lon="4.82313">
        <ele>441</ele>
        <time>2012-09-04T17:44:43Z</time>
      </trkpt>
      <trkpt lat="45.82363" lon="4.82313">
        <ele>441</ele>
        <time>2012-09-04T17:44:44Z</time>
      </trkpt>
      <trkpt lat="45.82366" lon="4.82314">
        <ele>441</ele>
        <time>2012-09-04T17:44:47Z</time>
      </trkpt>
      <trkpt lat="45.82368" lon="4.82315">
        <ele>441</ele>
        <time>2012-09-04T17:44:50Z</time>
      </trkpt>
      <trkpt lat="45.82372" lon="4.82316">
        <ele>442</ele>
        <time>2012-09-04T17:44:56Z</time>
      </trkpt>
      <trkpt lat="45.82371" lon="4.82318">
        <ele>441</ele>
        <time>2012-09-04T17:44:58Z</time>
      </trkpt>
      <trkpt lat="45.82368" lon="4.8232">
        <ele>441</ele>
        <time>2012-09-04T17:45:00Z</time>
      </trkpt>
      <trkpt lat="45.82365" lon="4.82322">
        <ele>440</ele>
        <time>2012-09-04T17:45:02Z</time>
      </trkpt>
      <trkpt lat="45.82362" lon="4.82323">
        <ele>440</ele>
        <time>2012-09-04T17:45:03Z</time>
      </trkpt>
      <trkpt lat="45.82358" lon="4.82323">
        <ele>439</ele>
        <time>2012-09-04T17:45:05Z</time>
      </trkpt>
      <trkpt lat="45.82344" lon="4.82323">
        <ele>436</ele>
        <time>2012-09-04T17:45:11Z</time>
      </trkpt>
      <trkpt lat="45.82328" lon="4.82321">
        <ele>430</ele>
        <time>2012-09-04T17:45:16Z</time>
      </trkpt>
      <trkpt lat="45.82325" lon="4.8232">
        <ele>430</ele>
        <time>2012-09-04T17:45:17Z</time>
      </trkpt>
      <trkpt lat="45.8231" lon="4.82316">
        <ele>430</ele>
        <time>2012-09-04T17:45:22Z</time>
      </trkpt>
      <trkpt lat="45.82307" lon="4.82315">
        <ele>430</ele>
        <time>2012-09-04T17:45:23Z</time>
      </trkpt>
      <trkpt lat="45.82292" lon="4.8231">
        <ele>428</ele>
        <time>2012-09-04T17:45:28Z</time>
      </trkpt>
      <trkpt lat="45.82286" lon="4.82307">
        <ele>428</ele>
        <time>2012-09-04T17:45:30Z</time>
      </trkpt>
      <trkpt lat="45.82278" lon="4.82303">
        <ele>428</ele>
        <time>2012-09-04T17:45:33Z</time>
      </trkpt>
      <trkpt lat="45.82271" lon="4.82301">
        <ele>427</ele>
        <time>2012-09-04T17:45:37Z</time>
      </trkpt>
      <trkpt lat="45.8227" lon="4.82302">
        <ele>427</ele>
        <time>2012-09-04T17:45:38Z</time>
      </trkpt>
      <trkpt lat="45.82268" lon="4.82304">
        <ele>426</ele>
        <time>2012-09-04T17:45:40Z</time>
      </trkpt>
      <trkpt lat="45.82266" lon="4.82306">
        <ele>425</ele>
        <time>2012-09-04T17:45:41Z</time>
      </trkpt>
      <trkpt lat="45.82261" lon="4.82309">
        <ele>424</ele>
        <time>2012-09-04T17:45:43Z</time>
      </trkpt>
      <trkpt lat="45.8225" lon="4.82306">
        <ele>424</ele>
        <time>2012-09-04T17:45:47Z</time>
      </trkpt>
      <trkpt lat="45.82248" lon="4.82306">
        <ele>414</ele>
        <time>2012-09-04T17:45:48Z</time>
      </trkpt>
      <trkpt lat="45.82244" lon="4.82305">
        <ele>415</ele>
        <time>2012-09-04T17:45:50Z</time>
      </trkpt>
      <trkpt lat="45.82239" lon="4.82303">
        <ele>415</ele>
        <time>2012-09-04T17:45:52Z</time>
      </trkpt>
      <trkpt lat="45.82232" lon="4.82301">
        <ele>415</ele>
        <time>2012-09-04T17:45:54Z</time>
      </trkpt>
      <trkpt lat="45.8222" lon="4.82299">
        <ele>414</ele>
        <time>2012-09-04T17:45:58Z</time>
      </trkpt>
      <trkpt lat="45.82212" lon="4.82301">
        <ele>413</ele>
        <time>2012-09-04T17:46:01Z</time>
      </trkpt>
      <trkpt lat="45.82204" lon="4.82304">
        <ele>412</ele>
        <time>2012-09-04T17:46:04Z</time>
      </trkpt>
      <trkpt lat="45.82193" lon="4.82307">
        <ele>410</ele>
        <time>2012-09-04T17:46:08Z</time>
      </trkpt>
      <trkpt lat="45.82186" lon="4.82308">
        <ele>409</ele>
        <time>2012-09-04T17:46:11Z</time>
      </trkpt>
      <trkpt lat="45.82183" lon="4.82309">
        <ele>408</ele>
        <time>2012-09-04T17:46:12Z</time>
      </trkpt>
      <trkpt lat="45.82173" lon="4.82311">
        <ele>407</ele>
        <time>2012-09-04T17:46:16Z</time>
      </trkpt>
      <trkpt lat="45.82171" lon="4.82313">
        <ele>406</ele>
        <time>2012-09-04T17:46:17Z</time>
      </trkpt>
      <trkpt lat="45.82156" lon="4.82319">
        <ele>397</ele>
        <time>2012-09-04T17:46:22Z</time>
      </trkpt>
      <trkpt lat="45.82144" lon="4.82325">
        <ele>396</ele>
        <time>2012-09-04T17:46:26Z</time>
      </trkpt>
      <trkpt lat="45.82141" lon="4.82327">
        <ele>396</ele>
        <time>2012-09-04T17:46:27Z</time>
      </trkpt>
      <trkpt lat="45.82137" lon="4.82329">
        <ele>396</ele>
        <time>2012-09-04T17:46:28Z</time>
      </trkpt>
      <trkpt lat="45.82129" lon="4.82333">
        <ele>395</ele>
        <time>2012-09-04T17:46:31Z</time>
      </trkpt>
      <trkpt lat="45.82121" lon="4.82335">
        <ele>387</ele>
        <time>2012-09-04T17:46:34Z</time>
      </trkpt>
      <trkpt lat="45.82119" lon="4.82334">
        <ele>387</ele>
        <time>2012-09-04T17:46:35Z</time>
      </trkpt>
      <trkpt lat="45.82117" lon="4.82333">
        <ele>393</ele>
        <time>2012-09-04T17:46:36Z</time>
      </trkpt>
      <trkpt lat="45.82104" lon="4.82321">
        <ele>392</ele>
        <time>2012-09-04T17:46:42Z</time>
      </trkpt>
      <trkpt lat="45.82096" lon="4.82312">
        <ele>392</ele>
        <time>2012-09-04T17:46:46Z</time>
      </trkpt>
      <trkpt lat="45.82088" lon="4.82305">
        <ele>393</ele>
        <time>2012-09-04T17:46:50Z</time>
      </trkpt>
      <trkpt lat="45.82084" lon="4.82302">
        <ele>393</ele>
        <time>2012-09-04T17:46:52Z</time>
      </trkpt>
      <trkpt lat="45.82077" lon="4.82302">
        <ele>383</ele>
        <time>2012-09-04T17:46:55Z</time>
      </trkpt>
      <trkpt lat="45.82075" lon="4.82301">
        <ele>383</ele>
        <time>2012-09-04T17:46:56Z</time>
      </trkpt>
      <trkpt lat="45.82071" lon="4.82296">
        <ele>383</ele>
        <time>2012-09-04T17:46:58Z</time>
      </trkpt>
      <trkpt lat="45.82063" lon="4.82286">
        <ele>383</ele>
        <time>2012-09-04T17:47:02Z</time>
      </trkpt>
      <trkpt lat="45.82057" lon="4.82279">
        <ele>383</ele>
        <time>2012-09-04T17:47:05Z</time>
      </trkpt>
      <trkpt lat="45.82053" lon="4.82275">
        <ele>383</ele>
        <time>2012-09-04T17:47:07Z</time>
      </trkpt>
      <trkpt lat="45.82047" lon="4.82268">
        <ele>383</ele>
        <time>2012-09-04T17:47:11Z</time>
      </trkpt>
      <trkpt lat="45.82045" lon="4.82268">
        <ele>382</ele>
        <time>2012-09-04T17:47:12Z</time>
      </trkpt>
      <trkpt lat="45.8204" lon="4.82266">
        <ele>382</ele>
        <time>2012-09-04T17:47:18Z</time>
      </trkpt>
      <trkpt lat="45.82039" lon="4.82265">
        <ele>382</ele>
        <time>2012-09-04T17:47:26Z</time>
      </trkpt>
      <trkpt lat="45.82039" lon="4.82265">
        <ele>382</ele>
        <time>2012-09-04T17:47:35Z</time>
      </trkpt>
      <trkpt lat="45.82041" lon="4.82268">
        <ele>382</ele>
        <time>2012-09-04T17:47:42Z</time>
      </trkpt>
      <trkpt lat="45.82042" lon="4.82272">
        <ele>382</ele>
        <time>2012-09-04T17:47:51Z</time>
      </trkpt>
      <trkpt lat="45.82043" lon="4.82269">
        <ele>382</ele>
        <time>2012-09-04T17:48:08Z</time>
      </trkpt>
      <trkpt lat="45.82042" lon="4.82269">
        <ele>382</ele>
        <time>2012-09-04T17:48:09Z</time>
      </trkpt>
      <trkpt lat="45.82041" lon="4.82269">
        <ele>382</ele>
        <time>2012-09-04T17:48:10Z</time>
      </trkpt>
      <trkpt lat="45.82037" lon="4.82271">
        <ele>381</ele>
        <time>2012-09-04T17:48:13Z</time>
      </trkpt>
      <trkpt lat="45.82033" lon="4.82275">
        <ele>381</ele>
        <time>2012-09-04T17:48:15Z</time>
      </trkpt>
      <trkpt lat="45.82025" lon="4.82281">
        <ele>380</ele>
        <time>2012-09-04T17:48:19Z</time>
      </trkpt>
      <trkpt lat="45.82023" lon="4.82282">
        <ele>379</ele>
        <time>2012-09-04T17:48:20Z</time>
      </trkpt>
      <trkpt lat="45.82021" lon="4.82285">
        <ele>379</ele>
        <time>2012-09-04T17:48:21Z</time>
      </trkpt>
      <trkpt lat="45.82012" lon="4.82292">
        <ele>378</ele>
        <time>2012-09-04T17:48:25Z</time>
      </trkpt>
      <trkpt lat="45.82008" lon="4.82295">
        <ele>378</ele>
        <time>2012-09-04T17:48:27Z</time>
      </trkpt>
      <trkpt lat="45.82006" lon="4.82297">
        <ele>377</ele>
        <time>2012-09-04T17:48:28Z</time>
      </trkpt>
      <trkpt lat="45.82004" lon="4.82299">
        <ele>377</ele>
        <time>2012-09-04T17:48:29Z</time>
      </trkpt>
      <trkpt lat="45.81992" lon="4.82312">
        <ele>367</ele>
        <time>2012-09-04T17:48:34Z</time>
      </trkpt>
      <trkpt lat="45.81982" lon="4.82318">
        <ele>367</ele>
        <time>2012-09-04T17:48:38Z</time>
      </trkpt>
      <trkpt lat="45.81977" lon="4.82327">
        <ele>366</ele>
        <time>2012-09-04T17:48:41Z</time>
      </trkpt>
      <trkpt lat="45.81975" lon="4.82329">
        <ele>366</ele>
        <time>2012-09-04T17:48:42Z</time>
      </trkpt>
      <trkpt lat="45.81967" lon="4.8234">
        <ele>361</ele>
        <time>2012-09-04T17:48:47Z</time>
      </trkpt>
      <trkpt lat="45.81966" lon="4.82342">
        <ele>361</ele>
        <time>2012-09-04T17:48:48Z</time>
      </trkpt>
      <trkpt lat="45.81963" lon="4.82347">
        <ele>360</ele>
        <time>2012-09-04T17:48:50Z</time>
      </trkpt>
      <trkpt lat="45.81959" lon="4.82349">
        <ele>360</ele>
        <time>2012-09-04T17:48:52Z</time>
      </trkpt>
      <trkpt lat="45.81949" lon="4.82359">
        <ele>358</ele>
        <time>2012-09-04T17:48:56Z</time>
      </trkpt>
      <trkpt lat="45.81946" lon="4.82361">
        <ele>358</ele>
        <time>2012-09-04T17:48:57Z</time>
      </trkpt>
      <trkpt lat="45.81936" lon="4.82363">
        <ele>357</ele>
        <time>2012-09-04T17:49:01Z</time>
      </trkpt>
      <trkpt lat="45.8193" lon="4.82352">
        <ele>357</ele>
        <time>2012-09-04T17:49:04Z</time>
      </trkpt>
      <trkpt lat="45.8193" lon="4.82348">
        <ele>357</ele>
        <time>2012-09-04T17:49:05Z</time>
      </trkpt>
      <trkpt lat="45.81925" lon="4.82331">
        <ele>358</ele>
        <time>2012-09-04T17:49:10Z</time>
      </trkpt>
      <trkpt lat="45.81923" lon="4.82328">
        <ele>358</ele>
        <time>2012-09-04T17:49:11Z</time>
      </trkpt>
      <trkpt lat="45.81919" lon="4.82311">
        <ele>361</ele>
        <time>2012-09-04T17:49:15Z</time>
      </trkpt>
      <trkpt lat="45.81917" lon="4.82302">
        <ele>362</ele>
        <time>2012-09-04T17:49:18Z</time>
      </trkpt>
      <trkpt lat="45.81916" lon="4.82296">
        <ele>355</ele>
        <time>2012-09-04T17:49:20Z</time>
      </trkpt>
      <trkpt lat="45.81911" lon="4.82282">
        <ele>355</ele>
        <time>2012-09-04T17:49:24Z</time>
      </trkpt>
      <trkpt lat="45.81909" lon="4.82278">
        <ele>356</ele>
        <time>2012-09-04T17:49:25Z</time>
      </trkpt>
      <trkpt lat="45.81902" lon="4.82255">
        <ele>357</ele>
        <time>2012-09-04T17:49:31Z</time>
      </trkpt>
      <trkpt lat="45.81891" lon="4.82233">
        <ele>359</ele>
        <time>2012-09-04T17:49:37Z</time>
      </trkpt>
      <trkpt lat="45.81884" lon="4.82217">
        <ele>359</ele>
        <time>2012-09-04T17:49:42Z</time>
      </trkpt>
      <trkpt lat="45.8188" lon="4.82207">
        <ele>359</ele>
        <time>2012-09-04T17:49:45Z</time>
      </trkpt>
      <trkpt lat="45.81876" lon="4.82199">
        <ele>359</ele>
        <time>2012-09-04T17:49:48Z</time>
      </trkpt>
      <trkpt lat="45.81868" lon="4.82187">
        <ele>359</ele>
        <time>2012-09-04T17:49:52Z</time>
      </trkpt>
      <trkpt lat="45.81866" lon="4.82184">
        <ele>359</ele>
        <time>2012-09-04T17:49:53Z</time>
      </trkpt>
      <trkpt lat="45.81857" lon="4.82169">
        <ele>358</ele>
        <time>2012-09-04T17:49:58Z</time>
      </trkpt>
      <trkpt lat="45.81856" lon="4.82165">
        <ele>360</ele>
        <time>2012-09-04T17:49:59Z</time>
      </trkpt>
      <trkpt lat="45.81853" lon="4.82148">
        <ele>360</ele>
        <time>2012-09-04T17:50:04Z</time>
      </trkpt>
      <trkpt lat="45.81854" lon="4.82138">
        <ele>361</ele>
        <time>2012-09-04T17:50:07Z</time>
      </trkpt>
      <trkpt lat="45.81854" lon="4.82131">
        <ele>361</ele>
        <time>2012-09-04T17:50:09Z</time>
      </trkpt>
      <trkpt lat="45.81854" lon="4.82113">
        <ele>361</ele>
        <time>2012-09-04T17:50:14Z</time>
      </trkpt>
      <trkpt lat="45.81853" lon="4.82109">
        <ele>361</ele>
        <time>2012-09-04T17:50:15Z</time>
      </trkpt>
      <trkpt lat="45.81855" lon="4.82094">
        <ele>361</ele>
        <time>2012-09-04T17:50:19Z</time>
      </trkpt>
      <trkpt lat="45.81855" lon="4.82091">
        <ele>361</ele>
        <time>2012-09-04T17:50:20Z</time>
      </trkpt>
      <trkpt lat="45.81855" lon="4.82083">
        <ele>361</ele>
        <time>2012-09-04T17:50:22Z</time>
      </trkpt>
      <trkpt lat="45.81854" lon="4.8208">
        <ele>360</ele>
        <time>2012-09-04T17:50:23Z</time>
      </trkpt>
      <trkpt lat="45.81851" lon="4.82065">
        <ele>360</ele>
        <time>2012-09-04T17:50:27Z</time>
      </trkpt>
      <trkpt lat="45.8185" lon="4.82059">
        <ele>360</ele>
        <time>2012-09-04T17:50:29Z</time>
      </trkpt>
      <trkpt lat="45.81845" lon="4.82046">
        <ele>360</ele>
        <time>2012-09-04T17:50:32Z</time>
      </trkpt>
      <trkpt lat="45.81842" lon="4.82035">
        <ele>360</ele>
        <time>2012-09-04T17:50:35Z</time>
      </trkpt>
      <trkpt lat="45.81841" lon="4.82021">
        <ele>359</ele>
        <time>2012-09-04T17:50:38Z</time>
      </trkpt>
      <trkpt lat="45.8184" lon="4.82009">
        <ele>357</ele>
        <time>2012-09-04T17:50:41Z</time>
      </trkpt>
      <trkpt lat="45.8184" lon="4.82001">
        <ele>356</ele>
        <time>2012-09-04T17:50:43Z</time>
      </trkpt>
      <trkpt lat="45.81841" lon="4.8198">
        <ele>356</ele>
        <time>2012-09-04T17:50:48Z</time>
      </trkpt>
      <trkpt lat="45.81841" lon="4.81976">
        <ele>356</ele>
        <time>2012-09-04T17:50:49Z</time>
      </trkpt>
      <trkpt lat="45.81844" lon="4.81955">
        <ele>356</ele>
        <time>2012-09-04T17:50:54Z</time>
      </trkpt>
      <trkpt lat="45.81844" lon="4.81952">
        <ele>356</ele>
        <time>2012-09-04T17:50:55Z</time>
      </trkpt>
      <trkpt lat="45.81846" lon="4.81933">
        <ele>354</ele>
        <time>2012-09-04T17:51:00Z</time>
      </trkpt>
      <trkpt lat="45.81848" lon="4.81925">
        <ele>353</ele>
        <time>2012-09-04T17:51:02Z</time>
      </trkpt>
      <trkpt lat="45.8185" lon="4.81914">
        <ele>352</ele>
        <time>2012-09-04T17:51:05Z</time>
      </trkpt>
      <trkpt lat="45.81854" lon="4.81899">
        <ele>353</ele>
        <time>2012-09-04T17:51:09Z</time>
      </trkpt>
      <trkpt lat="45.81855" lon="4.81892">
        <ele>353</ele>
        <time>2012-09-04T17:51:11Z</time>
      </trkpt>
      <trkpt lat="45.81859" lon="4.81874">
        <ele>354</ele>
        <time>2012-09-04T17:51:16Z</time>
      </trkpt>
      <trkpt lat="45.81859" lon="4.8187">
        <ele>354</ele>
        <time>2012-09-04T17:51:17Z</time>
      </trkpt>
      <trkpt lat="45.81858" lon="4.81855">
        <ele>353</ele>
        <time>2012-09-04T17:51:21Z</time>
      </trkpt>
      <trkpt lat="45.81856" lon="4.81847">
        <ele>353</ele>
        <time>2012-09-04T17:51:23Z</time>
      </trkpt>
      <trkpt lat="45.8185" lon="4.81832">
        <ele>351</ele>
        <time>2012-09-04T17:51:27Z</time>
      </trkpt>
      <trkpt lat="45.81846" lon="4.81825">
        <ele>351</ele>
        <time>2012-09-04T17:51:29Z</time>
      </trkpt>
      <trkpt lat="45.81835" lon="4.81813">
        <ele>352</ele>
        <time>2012-09-04T17:51:33Z</time>
      </trkpt>
      <trkpt lat="45.81831" lon="4.81808">
        <ele>346</ele>
        <time>2012-09-04T17:51:35Z</time>
      </trkpt>
      <trkpt lat="45.8183" lon="4.81805">
        <ele>346</ele>
        <time>2012-09-04T17:51:36Z</time>
      </trkpt>
      <trkpt lat="45.8183" lon="4.818">
        <ele>346</ele>
        <time>2012-09-04T17:51:38Z</time>
      </trkpt>
      <trkpt lat="45.81835" lon="4.81801">
        <ele>352</ele>
        <time>2012-09-04T17:51:43Z</time>
      </trkpt>
      <trkpt lat="45.81838" lon="4.81804">
        <ele>352</ele>
        <time>2012-09-04T17:51:47Z</time>
      </trkpt>
      <trkpt lat="45.8184" lon="4.81805">
        <ele>352</ele>
        <time>2012-09-04T17:51:49Z</time>
      </trkpt>
      <trkpt lat="45.81843" lon="4.81805">
        <ele>352</ele>
        <time>2012-09-04T17:51:52Z</time>
      </trkpt>
      <trkpt lat="45.81847" lon="4.81803">
        <ele>353</ele>
        <time>2012-09-04T17:51:56Z</time>
      </trkpt>
      <trkpt lat="45.81855" lon="4.81793">
        <ele>353</ele>
        <time>2012-09-04T17:52:04Z</time>
      </trkpt>
      <trkpt lat="45.81857" lon="4.81789">
        <ele>354</ele>
        <time>2012-09-04T17:52:07Z</time>
      </trkpt>
      <trkpt lat="45.81858" lon="4.81788">
        <ele>354</ele>
        <time>2012-09-04T17:52:08Z</time>
      </trkpt>
      <trkpt lat="45.81859" lon="4.81787">
        <ele>354</ele>
        <time>2012-09-04T17:52:10Z</time>
      </trkpt>
      <trkpt lat="45.8186" lon="4.81779">
        <ele>354</ele>
        <time>2012-09-04T17:52:16Z</time>
      </trkpt>
      <trkpt lat="45.81862" lon="4.81775">
        <ele>354</ele>
        <time>2012-09-04T17:52:18Z</time>
      </trkpt>
      <trkpt lat="45.81865" lon="4.81766">
        <ele>354</ele>
        <time>2012-09-04T17:52:23Z</time>
      </trkpt>
      <trkpt lat="45.81866" lon="4.81765">
        <ele>354</ele>
        <time>2012-09-04T17:52:24Z</time>
      </trkpt>
      <trkpt lat="45.8187" lon="4.81753">
        <ele>355</ele>
        <time>2012-09-04T17:52:31Z</time>
      </trkpt>
      <trkpt lat="45.8187" lon="4.8174">
        <ele>354</ele>
        <time>2012-09-04T17:52:36Z</time>
      </trkpt>
      <trkpt lat="45.81871" lon="4.81737">
        <ele>354</ele>
        <time>2012-09-04T17:52:38Z</time>
      </trkpt>
      <trkpt lat="45.81876" lon="4.81724">
        <ele>355</ele>
        <time>2012-09-04T17:52:45Z</time>
      </trkpt>
      <trkpt lat="45.81878" lon="4.81716">
        <ele>355</ele>
        <time>2012-09-04T17:52:50Z</time>
      </trkpt>
      <trkpt lat="45.81878" lon="4.81714">
        <ele>355</ele>
        <time>2012-09-04T17:52:51Z</time>
      </trkpt>
      <trkpt lat="45.81878" lon="4.81713">
        <ele>355</ele>
        <time>2012-09-04T17:52:52Z</time>
      </trkpt>
      <trkpt lat="45.81879" lon="4.81712">
        <ele>355</ele>
        <time>2012-09-04T17:52:55Z</time>
      </trkpt>
      <trkpt lat="45.81883" lon="4.81716">
        <ele>355</ele>
        <time>2012-09-04T17:53:00Z</time>
      </trkpt>
      <trkpt lat="45.81884" lon="4.81716">
        <ele>355</ele>
        <time>2012-09-04T17:53:01Z</time>
      </trkpt>
      <trkpt lat="45.81892" lon="4.81726">
        <ele>356</ele>
        <time>2012-09-04T17:53:06Z</time>
      </trkpt>
      <trkpt lat="45.81893" lon="4.81728">
        <ele>356</ele>
        <time>2012-09-04T17:53:07Z</time>
      </trkpt>
      <trkpt lat="45.81902" lon="4.81742">
        <ele>358</ele>
        <time>2012-09-04T17:53:13Z</time>
      </trkpt>
      <trkpt lat="45.81905" lon="4.81746">
        <ele>359</ele>
        <time>2012-09-04T17:53:15Z</time>
      </trkpt>
      <trkpt lat="45.81913" lon="4.81753">
        <ele>361</ele>
        <time>2012-09-04T17:53:19Z</time>
      </trkpt>
      <trkpt lat="45.81921" lon="4.81763">
        <ele>365</ele>
        <time>2012-09-04T17:53:24Z</time>
      </trkpt>
      <trkpt lat="45.8193" lon="4.81774">
        <ele>367</ele>
        <time>2012-09-04T17:53:30Z</time>
      </trkpt>
      <trkpt lat="45.81936" lon="4.8178">
        <ele>368</ele>
        <time>2012-09-04T17:53:34Z</time>
      </trkpt>
      <trkpt lat="45.81937" lon="4.81782">
        <ele>368</ele>
        <time>2012-09-04T17:53:35Z</time>
      </trkpt>
      <trkpt lat="45.81944" lon="4.81791">
        <ele>369</ele>
        <time>2012-09-04T17:53:41Z</time>
      </trkpt>
      <trkpt lat="45.8195" lon="4.81797">
        <ele>369</ele>
        <time>2012-09-04T17:53:45Z</time>
      </trkpt>
      <trkpt lat="45.81952" lon="4.81801">
        <ele>370</ele>
        <time>2012-09-04T17:53:47Z</time>
      </trkpt>
      <trkpt lat="45.81962" lon="4.81812">
        <ele>371</ele>
        <time>2012-09-04T17:53:54Z</time>
      </trkpt>
      <trkpt lat="45.81964" lon="4.81815">
        <ele>372</ele>
        <time>2012-09-04T17:53:56Z</time>
      </trkpt>
      <trkpt lat="45.81967" lon="4.81819">
        <ele>372</ele>
        <time>2012-09-04T17:54:00Z</time>
      </trkpt>
      <trkpt lat="45.81974" lon="4.81825">
        <ele>374</ele>
        <time>2012-09-04T17:54:07Z</time>
      </trkpt>
      <trkpt lat="45.81976" lon="4.81827">
        <ele>375</ele>
        <time>2012-09-04T17:54:11Z</time>
      </trkpt>
      <trkpt lat="45.81978" lon="4.8183">
        <ele>376</ele>
        <time>2012-09-04T17:54:13Z</time>
      </trkpt>
      <trkpt lat="45.8198" lon="4.81831">
        <ele>376</ele>
        <time>2012-09-04T17:54:14Z</time>
      </trkpt>
      <trkpt lat="45.81987" lon="4.81839">
        <ele>380</ele>
        <time>2012-09-04T17:54:20Z</time>
      </trkpt>
      <trkpt lat="45.81992" lon="4.81844">
        <ele>380</ele>
        <time>2012-09-04T17:54:27Z</time>
      </trkpt>
      <trkpt lat="45.81993" lon="4.81845">
        <ele>380</ele>
        <time>2012-09-04T17:54:28Z</time>
      </trkpt>
      <trkpt lat="45.81995" lon="4.81846">
        <ele>380</ele>
        <time>2012-09-04T17:54:31Z</time>
      </trkpt>
      <trkpt lat="45.81996" lon="4.81847">
        <ele>380</ele>
        <time>2012-09-04T17:54:33Z</time>
      </trkpt>
      <trkpt lat="45.81997" lon="4.81847">
        <ele>380</ele>
        <time>2012-09-04T17:54:34Z</time>
      </trkpt>
      <trkpt lat="45.81998" lon="4.81851">
        <ele>380</ele>
        <time>2012-09-04T17:54:39Z</time>
      </trkpt>
      <trkpt lat="45.81999" lon="4.81856">
        <ele>379</ele>
        <time>2012-09-04T17:54:44Z</time>
      </trkpt>
      <trkpt lat="45.81999" lon="4.81859">
        <ele>379</ele>
        <time>2012-09-04T17:54:50Z</time>
      </trkpt>
      <trkpt lat="45.81999" lon="4.81859">
        <ele>379</ele>
        <time>2012-09-04T17:54:51Z</time>
      </trkpt>
      <trkpt lat="45.82" lon="4.8186">
        <ele>379</ele>
        <time>2012-09-04T17:55:00Z</time>
      </trkpt>
      <trkpt lat="45.82003" lon="4.81862">
        <ele>392</ele>
        <time>2012-09-04T17:55:03Z</time>
      </trkpt>
      <trkpt lat="45.82005" lon="4.81865">
        <ele>392</ele>
        <time>2012-09-04T17:55:05Z</time>
      </trkpt>
      <trkpt lat="45.82008" lon="4.81869">
        <ele>393</ele>
        <time>2012-09-04T17:55:09Z</time>
      </trkpt>
      <trkpt lat="45.82013" lon="4.81876">
        <ele>394</ele>
        <time>2012-09-04T17:55:17Z</time>
      </trkpt>
      <trkpt lat="45.82017" lon="4.81884">
        <ele>394</ele>
        <time>2012-09-04T17:55:24Z</time>
      </trkpt>
      <trkpt lat="45.82021" lon="4.81889">
        <ele>395</ele>
        <time>2012-09-04T17:55:29Z</time>
      </trkpt>
      <trkpt lat="45.82026" lon="4.81897">
        <ele>395</ele>
        <time>2012-09-04T17:55:35Z</time>
      </trkpt>
      <trkpt lat="45.82027" lon="4.81899">
        <ele>396</ele>
        <time>2012-09-04T17:55:36Z</time>
      </trkpt>
      <trkpt lat="45.82031" lon="4.81901">
        <ele>396</ele>
        <time>2012-09-04T17:55:40Z</time>
      </trkpt>
      <trkpt lat="45.82032" lon="4.81903">
        <ele>396</ele>
        <time>2012-09-04T17:55:41Z</time>
      </trkpt>
      <trkpt lat="45.82037" lon="4.81909">
        <ele>398</ele>
        <time>2012-09-04T17:55:47Z</time>
      </trkpt>
      <trkpt lat="45.82037" lon="4.81909">
        <ele>398</ele>
        <time>2012-09-04T17:55:48Z</time>
      </trkpt>
      <trkpt lat="45.82037" lon="4.8191">
        <ele>398</ele>
        <time>2012-09-04T17:55:49Z</time>
      </trkpt>
      <trkpt lat="45.82039" lon="4.81912">
        <ele>398</ele>
        <time>2012-09-04T17:55:51Z</time>
      </trkpt>
      <trkpt lat="45.82041" lon="4.81913">
        <ele>399</ele>
        <time>2012-09-04T17:55:54Z</time>
      </trkpt>
      <trkpt lat="45.82043" lon="4.81916">
        <ele>399</ele>
        <time>2012-09-04T17:55:57Z</time>
      </trkpt>
      <trkpt lat="45.82044" lon="4.81919">
        <ele>404</ele>
        <time>2012-09-04T17:56:00Z</time>
      </trkpt>
      <trkpt lat="45.82048" lon="4.81926">
        <ele>405</ele>
        <time>2012-09-04T17:56:09Z</time>
      </trkpt>
      <trkpt lat="45.82052" lon="4.81931">
        <ele>406</ele>
        <time>2012-09-04T17:56:16Z</time>
      </trkpt>
      <trkpt lat="45.82056" lon="4.81937">
        <ele>407</ele>
        <time>2012-09-04T17:56:23Z</time>
      </trkpt>
      <trkpt lat="45.82057" lon="4.81937">
        <ele>407</ele>
        <time>2012-09-04T17:56:24Z</time>
      </trkpt>
      <trkpt lat="45.8206" lon="4.8194">
        <ele>408</ele>
        <time>2012-09-04T17:56:28Z</time>
      </trkpt>
      <trkpt lat="45.8206" lon="4.8194">
        <ele>408</ele>
        <time>2012-09-04T17:56:29Z</time>
      </trkpt>
      <trkpt lat="45.82063" lon="4.81946">
        <ele>408</ele>
        <time>2012-09-04T17:56:37Z</time>
      </trkpt>
      <trkpt lat="45.82068" lon="4.81953">
        <ele>409</ele>
        <time>2012-09-04T17:56:46Z</time>
      </trkpt>
      <trkpt lat="45.82069" lon="4.81956">
        <ele>409</ele>
        <time>2012-09-04T17:56:49Z</time>
      </trkpt>
      <trkpt lat="45.82071" lon="4.81959">
        <ele>410</ele>
        <time>2012-09-04T17:56:53Z</time>
      </trkpt>
      <trkpt lat="45.82073" lon="4.81963">
        <ele>410</ele>
        <time>2012-09-04T17:56:57Z</time>
      </trkpt>
      <trkpt lat="45.82074" lon="4.81964">
        <ele>411</ele>
        <time>2012-09-04T17:56:59Z</time>
      </trkpt>
      <trkpt lat="45.82076" lon="4.81968">
        <ele>411</ele>
        <time>2012-09-04T17:57:06Z</time>
      </trkpt>
      <trkpt lat="45.82076" lon="4.81971">
        <ele>412</ele>
        <time>2012-09-04T17:58:01Z</time>
      </trkpt>
      <trkpt lat="45.82075" lon="4.81971">
        <ele>412</ele>
        <time>2012-09-04T17:58:05Z</time>
      </trkpt>
      <trkpt lat="45.8208" lon="4.81969">
        <ele>412</ele>
        <time>2012-09-04T17:58:38Z</time>
      </trkpt>
      <trkpt lat="45.82082" lon="4.81965">
        <ele>411</ele>
        <time>2012-09-04T17:58:41Z</time>
      </trkpt>
      <trkpt lat="45.82085" lon="4.81963">
        <ele>428</ele>
        <time>2012-09-04T17:58:43Z</time>
      </trkpt>
      <trkpt lat="45.82087" lon="4.81963">
        <ele>428</ele>
        <time>2012-09-04T17:58:44Z</time>
      </trkpt>
      <trkpt lat="45.82092" lon="4.81961">
        <ele>429</ele>
        <time>2012-09-04T17:58:48Z</time>
      </trkpt>
      <trkpt lat="45.82095" lon="4.8196">
        <ele>429</ele>
        <time>2012-09-04T17:58:51Z</time>
      </trkpt>
      <trkpt lat="45.82097" lon="4.8196">
        <ele>429</ele>
        <time>2012-09-04T17:58:52Z</time>
      </trkpt>
      <trkpt lat="45.821" lon="4.81958">
        <ele>429</ele>
        <time>2012-09-04T17:58:55Z</time>
      </trkpt>
      <trkpt lat="45.82109" lon="4.81954">
        <ele>430</ele>
        <time>2012-09-04T17:59:03Z</time>
      </trkpt>
      <trkpt lat="45.82113" lon="4.81954">
        <ele>431</ele>
        <time>2012-09-04T17:59:06Z</time>
      </trkpt>
      <trkpt lat="45.82119" lon="4.81953">
        <ele>432</ele>
        <time>2012-09-04T17:59:09Z</time>
      </trkpt>
      <trkpt lat="45.8212" lon="4.81953">
        <ele>432</ele>
        <time>2012-09-04T17:59:10Z</time>
      </trkpt>
      <trkpt lat="45.82123" lon="4.81952">
        <ele>432</ele>
        <time>2012-09-04T17:59:14Z</time>
      </trkpt>
      <trkpt lat="45.82127" lon="4.81948">
        <ele>433</ele>
        <time>2012-09-04T17:59:17Z</time>
      </trkpt>
      <trkpt lat="45.82132" lon="4.81942">
        <ele>434</ele>
        <time>2012-09-04T17:59:23Z</time>
      </trkpt>
      <trkpt lat="45.82134" lon="4.8194">
        <ele>434</ele>
        <time>2012-09-04T17:59:25Z</time>
      </trkpt>
      <trkpt lat="45.82136" lon="4.81932">
        <ele>434</ele>
        <time>2012-09-04T17:59:30Z</time>
      </trkpt>
      <trkpt lat="45.82137" lon="4.8193">
        <ele>434</ele>
        <time>2012-09-04T17:59:31Z</time>
      </trkpt>
      <trkpt lat="45.82138" lon="4.81926">
        <ele>434</ele>
        <time>2012-09-04T17:59:34Z</time>
      </trkpt>
      <trkpt lat="45.82139" lon="4.81923">
        <ele>434</ele>
        <time>2012-09-04T17:59:36Z</time>
      </trkpt>
      <trkpt lat="45.8214" lon="4.81921">
        <ele>435</ele>
        <time>2012-09-04T17:59:38Z</time>
      </trkpt>
      <trkpt lat="45.82142" lon="4.81921">
        <ele>435</ele>
        <time>2012-09-04T17:59:40Z</time>
      </trkpt>
      <trkpt lat="45.82143" lon="4.81921">
        <ele>435</ele>
        <time>2012-09-04T17:59:41Z</time>
      </trkpt>
      <trkpt lat="45.82146" lon="4.81925">
        <ele>436</ele>
        <time>2012-09-04T17:59:47Z</time>
      </trkpt>
      <trkpt lat="45.82146" lon="4.81929">
        <ele>436</ele>
        <time>2012-09-04T17:59:52Z</time>
      </trkpt>
      <trkpt lat="45.82145" lon="4.81931">
        <ele>436</ele>
        <time>2012-09-04T17:59:54Z</time>
      </trkpt>
      <trkpt lat="45.82144" lon="4.81934">
        <ele>435</ele>
        <time>2012-09-04T17:59:56Z</time>
      </trkpt>
      <trkpt lat="45.82142" lon="4.81938">
        <ele>435</ele>
        <time>2012-09-04T17:59:59Z</time>
      </trkpt>
      <trkpt lat="45.82135" lon="4.81948">
        <ele>434</ele>
        <time>2012-09-04T18:00:07Z</time>
      </trkpt>
      <trkpt lat="45.82134" lon="4.81957">
        <ele>435</ele>
        <time>2012-09-04T18:00:13Z</time>
      </trkpt>
      <trkpt lat="45.82134" lon="4.81959">
        <ele>435</ele>
        <time>2012-09-04T18:00:14Z</time>
      </trkpt>
      <trkpt lat="45.82133" lon="4.81969">
        <ele>435</ele>
        <time>2012-09-04T18:00:21Z</time>
      </trkpt>
      <trkpt lat="45.82131" lon="4.81981">
        <ele>436</ele>
        <time>2012-09-04T18:00:29Z</time>
      </trkpt>
      <trkpt lat="45.82131" lon="4.81983">
        <ele>436</ele>
        <time>2012-09-04T18:00:30Z</time>
      </trkpt>
      <trkpt lat="45.82131" lon="4.81985">
        <ele>436</ele>
        <time>2012-09-04T18:00:32Z</time>
      </trkpt>
      <trkpt lat="45.8213" lon="4.81988">
        <ele>436</ele>
        <time>2012-09-04T18:00:35Z</time>
      </trkpt>
      <trkpt lat="45.8213" lon="4.81998">
        <ele>437</ele>
        <time>2012-09-04T18:00:40Z</time>
      </trkpt>
      <trkpt lat="45.8213" lon="4.81999">
        <ele>437</ele>
        <time>2012-09-04T18:00:41Z</time>
      </trkpt>
      <trkpt lat="45.82131" lon="4.82006">
        <ele>440</ele>
        <time>2012-09-04T18:00:45Z</time>
      </trkpt>
      <trkpt lat="45.82131" lon="4.82009">
        <ele>440</ele>
        <time>2012-09-04T18:00:47Z</time>
      </trkpt>
      <trkpt lat="45.82132" lon="4.82011">
        <ele>440</ele>
        <time>2012-09-04T18:00:48Z</time>
      </trkpt>
      <trkpt lat="45.82132" lon="4.82022">
        <ele>439</ele>
        <time>2012-09-04T18:00:55Z</time>
      </trkpt>
      <trkpt lat="45.82132" lon="4.82029">
        <ele>439</ele>
        <time>2012-09-04T18:00:59Z</time>
      </trkpt>
      <trkpt lat="45.82133" lon="4.82034">
        <ele>439</ele>
        <time>2012-09-04T18:01:02Z</time>
      </trkpt>
      <trkpt lat="45.82133" lon="4.82035">
        <ele>439</ele>
        <time>2012-09-04T18:01:03Z</time>
      </trkpt>
      <trkpt lat="45.82137" lon="4.82045">
        <ele>440</ele>
        <time>2012-09-04T18:01:09Z</time>
      </trkpt>
      <trkpt lat="45.82138" lon="4.82045">
        <ele>440</ele>
        <time>2012-09-04T18:01:10Z</time>
      </trkpt>
      <trkpt lat="45.82143" lon="4.8204">
        <ele>441</ele>
        <time>2012-09-04T18:01:16Z</time>
      </trkpt>
      <trkpt lat="45.82144" lon="4.82037">
        <ele>441</ele>
        <time>2012-09-04T18:01:18Z</time>
      </trkpt>
      <trkpt lat="45.82144" lon="4.82036">
        <ele>441</ele>
        <time>2012-09-04T18:01:19Z</time>
      </trkpt>
      <trkpt lat="45.82146" lon="4.82027">
        <ele>442</ele>
        <time>2012-09-04T18:01:24Z</time>
      </trkpt>
      <trkpt lat="45.82147" lon="4.82017">
        <ele>443</ele>
        <time>2012-09-04T18:01:29Z</time>
      </trkpt>
      <trkpt lat="45.82146" lon="4.82013">
        <ele>443</ele>
        <time>2012-09-04T18:01:31Z</time>
      </trkpt>
      <trkpt lat="45.82146" lon="4.82011">
        <ele>443</ele>
        <time>2012-09-04T18:01:32Z</time>
      </trkpt>
      <trkpt lat="45.82146" lon="4.82009">
        <ele>443</ele>
        <time>2012-09-04T18:01:33Z</time>
      </trkpt>
      <trkpt lat="45.82147" lon="4.82002">
        <ele>444</ele>
        <time>2012-09-04T18:01:37Z</time>
      </trkpt>
      <trkpt lat="45.82151" lon="4.81992">
        <ele>443</ele>
        <time>2012-09-04T18:01:44Z</time>
      </trkpt>
      <trkpt lat="45.82152" lon="4.8199">
        <ele>443</ele>
        <time>2012-09-04T18:01:50Z</time>
      </trkpt>
      <trkpt lat="45.8215" lon="4.81991">
        <ele>442</ele>
        <time>2012-09-04T18:01:58Z</time>
      </trkpt>
      <trkpt lat="45.82149" lon="4.81991">
        <ele>442</ele>
        <time>2012-09-04T18:02:00Z</time>
      </trkpt>
      <trkpt lat="45.82153" lon="4.8199">
        <ele>443</ele>
        <time>2012-09-04T18:02:06Z</time>
      </trkpt>
      <trkpt lat="45.8216" lon="4.81989">
        <ele>445</ele>
        <time>2012-09-04T18:02:12Z</time>
      </trkpt>
      <trkpt lat="45.82166" lon="4.81989">
        <ele>446</ele>
        <time>2012-09-04T18:02:17Z</time>
      </trkpt>
      <trkpt lat="45.8217" lon="4.81986">
        <ele>453</ele>
        <time>2012-09-04T18:02:21Z</time>
      </trkpt>
      <trkpt lat="45.82178" lon="4.81979">
        <ele>454</ele>
        <time>2012-09-04T18:02:27Z</time>
      </trkpt>
      <trkpt lat="45.82181" lon="4.81976">
        <ele>454</ele>
        <time>2012-09-04T18:02:29Z</time>
      </trkpt>
      <trkpt lat="45.82187" lon="4.8197">
        <ele>454</ele>
        <time>2012-09-04T18:02:33Z</time>
      </trkpt>
      <trkpt lat="45.82196" lon="4.81963">
        <ele>454</ele>
        <time>2012-09-04T18:02:38Z</time>
      </trkpt>
      <trkpt lat="45.82206" lon="4.81956">
        <ele>454</ele>
        <time>2012-09-04T18:02:43Z</time>
      </trkpt>
      <trkpt lat="45.82215" lon="4.81954">
        <ele>455</ele>
        <time>2012-09-04T18:02:48Z</time>
      </trkpt>
      <trkpt lat="45.82226" lon="4.81955">
        <ele>456</ele>
        <time>2012-09-04T18:02:53Z</time>
      </trkpt>
      <trkpt lat="45.82233" lon="4.81957">
        <ele>456</ele>
        <time>2012-09-04T18:02:56Z</time>
      </trkpt>
      <trkpt lat="45.82238" lon="4.81957">
        <ele>457</ele>
        <time>2012-09-04T18:02:58Z</time>
      </trkpt>
      <trkpt lat="45.82242" lon="4.81955">
        <ele>457</ele>
        <time>2012-09-04T18:03:00Z</time>
      </trkpt>
      <trkpt lat="45.82245" lon="4.8195">
        <ele>456</ele>
        <time>2012-09-04T18:03:02Z</time>
      </trkpt>
      <trkpt lat="45.82249" lon="4.81944">
        <ele>456</ele>
        <time>2012-09-04T18:03:05Z</time>
      </trkpt>
      <trkpt lat="45.82252" lon="4.81939">
        <ele>460</ele>
        <time>2012-09-04T18:03:07Z</time>
      </trkpt>
      <trkpt lat="45.82266" lon="4.81929">
        <ele>460</ele>
        <time>2012-09-04T18:03:13Z</time>
      </trkpt>
      <trkpt lat="45.82267" lon="4.81928">
        <ele>460</ele>
        <time>2012-09-04T18:03:14Z</time>
      </trkpt>
      <trkpt lat="45.82281" lon="4.81918">
        <ele>461</ele>
        <time>2012-09-04T18:03:20Z</time>
      </trkpt>
      <trkpt lat="45.82284" lon="4.81917">
        <ele>461</ele>
        <time>2012-09-04T18:03:21Z</time>
      </trkpt>
      <trkpt lat="45.82295" lon="4.81911">
        <ele>451</ele>
        <time>2012-09-04T18:03:26Z</time>
      </trkpt>
      <trkpt lat="45.82303" lon="4.81908">
        <ele>451</ele>
        <time>2012-09-04T18:03:29Z</time>
      </trkpt>
      <trkpt lat="45.82312" lon="4.81903">
        <ele>452</ele>
        <time>2012-09-04T18:03:33Z</time>
      </trkpt>
      <trkpt lat="45.82321" lon="4.81903">
        <ele>453</ele>
        <time>2012-09-04T18:03:37Z</time>
      </trkpt>
      <trkpt lat="45.82324" lon="4.81902">
        <ele>453</ele>
        <time>2012-09-04T18:03:38Z</time>
      </trkpt>
      <trkpt lat="45.82339" lon="4.81897">
        <ele>455</ele>
        <time>2012-09-04T18:03:44Z</time>
      </trkpt>
      <trkpt lat="45.82358" lon="4.81888">
        <ele>453</ele>
        <time>2012-09-04T18:03:51Z</time>
      </trkpt>
      <trkpt lat="45.82364" lon="4.81884">
        <ele>453</ele>
        <time>2012-09-04T18:03:53Z</time>
      </trkpt>
      <trkpt lat="45.82369" lon="4.81881">
        <ele>453</ele>
        <time>2012-09-04T18:03:55Z</time>
      </trkpt>
      <trkpt lat="45.82377" lon="4.81877">
        <ele>453</ele>
        <time>2012-09-04T18:03:58Z</time>
      </trkpt>
      <trkpt lat="45.82383" lon="4.81871">
        <ele>452</ele>
        <time>2012-09-04T18:04:01Z</time>
      </trkpt>
      <trkpt lat="45.82395" lon="4.81864">
        <ele>452</ele>
        <time>2012-09-04T18:04:06Z</time>
      </trkpt>
      <trkpt lat="45.82397" lon="4.81862">
        <ele>452</ele>
        <time>2012-09-04T18:04:07Z</time>
      </trkpt>
      <trkpt lat="45.82413" lon="4.81854">
        <ele>451</ele>
        <time>2012-09-04T18:04:13Z</time>
      </trkpt>
      <trkpt lat="45.82416" lon="4.81853">
        <ele>451</ele>
        <time>2012-09-04T18:04:14Z</time>
      </trkpt>
      <trkpt lat="45.82431" lon="4.81844">
        <ele>453</ele>
        <time>2012-09-04T18:04:21Z</time>
      </trkpt>
      <trkpt lat="45.82435" lon="4.81838">
        <ele>453</ele>
        <time>2012-09-04T18:04:27Z</time>
      </trkpt>
      <trkpt lat="45.82428" lon="4.81832">
        <ele>447</ele>
        <time>2012-09-04T18:04:33Z</time>
      </trkpt>
      <trkpt lat="45.82426" lon="4.81826">
        <ele>447</ele>
        <time>2012-09-04T18:04:36Z</time>
      </trkpt>
      <trkpt lat="45.82426" lon="4.81822">
        <ele>447</ele>
        <time>2012-09-04T18:04:38Z</time>
      </trkpt>
      <trkpt lat="45.82425" lon="4.81809">
        <ele>446</ele>
        <time>2012-09-04T18:04:44Z</time>
      </trkpt>
      <trkpt lat="45.82424" lon="4.81804">
        <ele>446</ele>
        <time>2012-09-04T18:04:46Z</time>
      </trkpt>
      <trkpt lat="45.82424" lon="4.81799">
        <ele>446</ele>
        <time>2012-09-04T18:04:48Z</time>
      </trkpt>
      <trkpt lat="45.82424" lon="4.81794">
        <ele>445</ele>
        <time>2012-09-04T18:04:50Z</time>
      </trkpt>
      <trkpt lat="45.82424" lon="4.81777">
        <ele>443</ele>
        <time>2012-09-04T18:04:57Z</time>
      </trkpt>
      <trkpt lat="45.82423" lon="4.81773">
        <ele>442</ele>
        <time>2012-09-04T18:04:59Z</time>
      </trkpt>
      <trkpt lat="45.82421" lon="4.81762">
        <ele>440</ele>
        <time>2012-09-04T18:05:04Z</time>
      </trkpt>
      <trkpt lat="45.82419" lon="4.81752">
        <ele>437</ele>
        <time>2012-09-04T18:05:09Z</time>
      </trkpt>
      <trkpt lat="45.8242" lon="4.81747">
        <ele>437</ele>
        <time>2012-09-04T18:05:11Z</time>
      </trkpt>
      <trkpt lat="45.82421" lon="4.81741">
        <ele>437</ele>
        <time>2012-09-04T18:05:14Z</time>
      </trkpt>
      <trkpt lat="45.82421" lon="4.8174">
        <ele>437</ele>
        <time>2012-09-04T18:05:15Z</time>
      </trkpt>
      <trkpt lat="45.82421" lon="4.81739">
        <ele>437</ele>
        <time>2012-09-04T18:05:16Z</time>
      </trkpt>
      <trkpt lat="45.82421" lon="4.81733">
        <ele>438</ele>
        <time>2012-09-04T18:05:19Z</time>
      </trkpt>
      <trkpt lat="45.82421" lon="4.81731">
        <ele>438</ele>
        <time>2012-09-04T18:05:20Z</time>
      </trkpt>
      <trkpt lat="45.82424" lon="4.81723">
        <ele>438</ele>
        <time>2012-09-04T18:05:25Z</time>
      </trkpt>
      <trkpt lat="45.82425" lon="4.81721">
        <ele>438</ele>
        <time>2012-09-04T18:05:26Z</time>
      </trkpt>
      <trkpt lat="45.82426" lon="4.81717">
        <ele>438</ele>
        <time>2012-09-04T18:05:28Z</time>
      </trkpt>
      <trkpt lat="45.82427" lon="4.81716">
        <ele>438</ele>
        <time>2012-09-04T18:05:30Z</time>
      </trkpt>
      <trkpt lat="45.82429" lon="4.81716">
        <ele>438</ele>
        <time>2012-09-04T18:05:32Z</time>
      </trkpt>
      <trkpt lat="45.8243" lon="4.81716">
        <ele>439</ele>
        <time>2012-09-04T18:05:34Z</time>
      </trkpt>
      <trkpt lat="45.82433" lon="4.81715">
        <ele>439</ele>
        <time>2012-09-04T18:05:36Z</time>
      </trkpt>
      <trkpt lat="45.8244" lon="4.81717">
        <ele>439</ele>
        <time>2012-09-04T18:05:40Z</time>
      </trkpt>
      <trkpt lat="45.82443" lon="4.81718">
        <ele>439</ele>
        <time>2012-09-04T18:05:42Z</time>
      </trkpt>
      <trkpt lat="45.8245" lon="4.8171">
        <ele>440</ele>
        <time>2012-09-04T18:05:48Z</time>
      </trkpt>
      <trkpt lat="45.8245" lon="4.81708">
        <ele>440</ele>
        <time>2012-09-04T18:05:49Z</time>
      </trkpt>
      <trkpt lat="45.82452" lon="4.817">
        <ele>440</ele>
        <time>2012-09-04T18:05:53Z</time>
      </trkpt>
      <trkpt lat="45.82454" lon="4.81694">
        <ele>440</ele>
        <time>2012-09-04T18:05:56Z</time>
      </trkpt>
      <trkpt lat="45.82454" lon="4.81691">
        <ele>440</ele>
        <time>2012-09-04T18:05:57Z</time>
      </trkpt>
      <trkpt lat="45.82455" lon="4.81682">
        <ele>440</ele>
        <time>2012-09-04T18:06:01Z</time>
      </trkpt>
      <trkpt lat="45.82458" lon="4.81676">
        <ele>440</ele>
        <time>2012-09-04T18:06:04Z</time>
      </trkpt>
      <trkpt lat="45.8246" lon="4.81668">
        <ele>440</ele>
        <time>2012-09-04T18:06:07Z</time>
      </trkpt>
      <trkpt lat="45.82461" lon="4.81666">
        <ele>437</ele>
        <time>2012-09-04T18:06:09Z</time>
      </trkpt>
      <trkpt lat="45.82466" lon="4.81666">
        <ele>438</ele>
        <time>2012-09-04T18:06:13Z</time>
      </trkpt>
      <trkpt lat="45.82473" lon="4.81663">
        <ele>439</ele>
        <time>2012-09-04T18:06:18Z</time>
      </trkpt>
      <trkpt lat="45.82475" lon="4.81663">
        <ele>439</ele>
        <time>2012-09-04T18:06:19Z</time>
      </trkpt>
      <trkpt lat="45.82489" lon="4.81655">
        <ele>441</ele>
        <time>2012-09-04T18:06:26Z</time>
      </trkpt>
      <trkpt lat="45.82491" lon="4.81654">
        <ele>441</ele>
        <time>2012-09-04T18:06:27Z</time>
      </trkpt>
      <trkpt lat="45.82501" lon="4.81649">
        <ele>445</ele>
        <time>2012-09-04T18:06:32Z</time>
      </trkpt>
      <trkpt lat="45.82508" lon="4.81646">
        <ele>445</ele>
        <time>2012-09-04T18:06:35Z</time>
      </trkpt>
      <trkpt lat="45.82517" lon="4.81641">
        <ele>444</ele>
        <time>2012-09-04T18:06:39Z</time>
      </trkpt>
      <trkpt lat="45.82526" lon="4.81636">
        <ele>444</ele>
        <time>2012-09-04T18:06:43Z</time>
      </trkpt>
      <trkpt lat="45.82529" lon="4.81634">
        <ele>444</ele>
        <time>2012-09-04T18:06:45Z</time>
      </trkpt>
      <trkpt lat="45.82543" lon="4.81623">
        <ele>444</ele>
        <time>2012-09-04T18:06:51Z</time>
      </trkpt>
      <trkpt lat="45.82545" lon="4.81621">
        <ele>444</ele>
        <time>2012-09-04T18:06:52Z</time>
      </trkpt>
      <trkpt lat="45.82546" lon="4.8162">
        <ele>444</ele>
        <time>2012-09-04T18:06:53Z</time>
      </trkpt>
      <trkpt lat="45.8256" lon="4.81615">
        <ele>444</ele>
        <time>2012-09-04T18:06:59Z</time>
      </trkpt>
      <trkpt lat="45.82562" lon="4.81613">
        <ele>444</ele>
        <time>2012-09-04T18:07:00Z</time>
      </trkpt>
      <trkpt lat="45.82577" lon="4.81606">
        <ele>443</ele>
        <time>2012-09-04T18:07:05Z</time>
      </trkpt>
      <trkpt lat="45.8259" lon="4.81599">
        <ele>442</ele>
        <time>2012-09-04T18:07:10Z</time>
      </trkpt>
      <trkpt lat="45.82598" lon="4.81594">
        <ele>442</ele>
        <time>2012-09-04T18:07:12Z</time>
      </trkpt>
      <trkpt lat="45.82606" lon="4.8159">
        <ele>442</ele>
        <time>2012-09-04T18:07:16Z</time>
      </trkpt>
      <trkpt lat="45.82616" lon="4.81584">
        <ele>442</ele>
        <time>2012-09-04T18:07:19Z</time>
      </trkpt>
      <trkpt lat="45.82619" lon="4.81582">
        <ele>440</ele>
        <time>2012-09-04T18:07:21Z</time>
      </trkpt>
      <trkpt lat="45.82632" lon="4.81575">
        <ele>440</ele>
        <time>2012-09-04T18:07:26Z</time>
      </trkpt>
      <trkpt lat="45.8264" lon="4.81572">
        <ele>440</ele>
        <time>2012-09-04T18:07:28Z</time>
      </trkpt>
      <trkpt lat="45.82651" lon="4.81567">
        <ele>440</ele>
        <time>2012-09-04T18:07:33Z</time>
      </trkpt>
      <trkpt lat="45.82656" lon="4.81564">
        <ele>440</ele>
        <time>2012-09-04T18:07:34Z</time>
      </trkpt>
      <trkpt lat="45.82672" lon="4.81556">
        <ele>438</ele>
        <time>2012-09-04T18:07:40Z</time>
      </trkpt>
      <trkpt lat="45.82686" lon="4.8155">
        <ele>437</ele>
        <time>2012-09-04T18:07:45Z</time>
      </trkpt>
      <trkpt lat="45.82691" lon="4.81548">
        <ele>437</ele>
        <time>2012-09-04T18:07:47Z</time>
      </trkpt>
      <trkpt lat="45.82701" lon="4.81542">
        <ele>436</ele>
        <time>2012-09-04T18:07:51Z</time>
      </trkpt>
      <trkpt lat="45.82711" lon="4.8154">
        <ele>436</ele>
        <time>2012-09-04T18:07:55Z</time>
      </trkpt>
      <trkpt lat="45.82713" lon="4.81538">
        <ele>436</ele>
        <time>2012-09-04T18:07:57Z</time>
      </trkpt>
      <trkpt lat="45.82718" lon="4.81535">
        <ele>436</ele>
        <time>2012-09-04T18:08:02Z</time>
      </trkpt>
      <trkpt lat="45.82722" lon="4.81533">
        <ele>436</ele>
        <time>2012-09-04T18:08:03Z</time>
      </trkpt>
      <trkpt lat="45.82728" lon="4.81529">
        <ele>435</ele>
        <time>2012-09-04T18:08:06Z</time>
      </trkpt>
      <trkpt lat="45.82736" lon="4.81526">
        <ele>435</ele>
        <time>2012-09-04T18:08:09Z</time>
      </trkpt>
      <trkpt lat="45.82743" lon="4.81522">
        <ele>434</ele>
        <time>2012-09-04T18:08:14Z</time>
      </trkpt>
      <trkpt lat="45.82746" lon="4.81519">
        <ele>434</ele>
        <time>2012-09-04T18:08:16Z</time>
      </trkpt>
      <trkpt lat="45.8275" lon="4.81511">
        <ele>433</ele>
        <time>2012-09-04T18:08:19Z</time>
      </trkpt>
      <trkpt lat="45.82755" lon="4.81493">
        <ele>426</ele>
        <time>2012-09-04T18:08:24Z</time>
      </trkpt>
      <trkpt lat="45.82762" lon="4.81472">
        <ele>420</ele>
        <time>2012-09-04T18:08:30Z</time>
      </trkpt>
      <trkpt lat="45.82764" lon="4.81469">
        <ele>419</ele>
        <time>2012-09-04T18:08:31Z</time>
      </trkpt>
      <trkpt lat="45.82769" lon="4.81457">
        <ele>418</ele>
        <time>2012-09-04T18:08:35Z</time>
      </trkpt>
      <trkpt lat="45.82773" lon="4.81444">
        <ele>417</ele>
        <time>2012-09-04T18:08:39Z</time>
      </trkpt>
      <trkpt lat="45.82775" lon="4.81438">
        <ele>417</ele>
        <time>2012-09-04T18:08:41Z</time>
      </trkpt>
      <trkpt lat="45.82779" lon="4.81423">
        <ele>417</ele>
        <time>2012-09-04T18:08:46Z</time>
      </trkpt>
      <trkpt lat="45.8278" lon="4.8142">
        <ele>416</ele>
        <time>2012-09-04T18:08:47Z</time>
      </trkpt>
      <trkpt lat="45.82781" lon="4.81401">
        <ele>415</ele>
        <time>2012-09-04T18:08:52Z</time>
      </trkpt>
      <trkpt lat="45.82782" lon="4.81393">
        <ele>415</ele>
        <time>2012-09-04T18:08:54Z</time>
      </trkpt>
      <trkpt lat="45.82785" lon="4.81379">
        <ele>415</ele>
        <time>2012-09-04T18:08:58Z</time>
      </trkpt>
      <trkpt lat="45.82787" lon="4.81369">
        <ele>414</ele>
        <time>2012-09-04T18:09:01Z</time>
      </trkpt>
      <trkpt lat="45.82789" lon="4.81358">
        <ele>414</ele>
        <time>2012-09-04T18:09:04Z</time>
      </trkpt>
      <trkpt lat="45.82791" lon="4.81339">
        <ele>414</ele>
        <time>2012-09-04T18:09:09Z</time>
      </trkpt>
      <trkpt lat="45.82792" lon="4.81332">
        <ele>413</ele>
        <time>2012-09-04T18:09:11Z</time>
      </trkpt>
      <trkpt lat="45.82794" lon="4.81314">
        <ele>413</ele>
        <time>2012-09-04T18:09:16Z</time>
      </trkpt>
      <trkpt lat="45.82795" lon="4.81307">
        <ele>413</ele>
        <time>2012-09-04T18:09:18Z</time>
      </trkpt>
      <trkpt lat="45.82803" lon="4.81288">
        <ele>413</ele>
        <time>2012-09-04T18:09:24Z</time>
      </trkpt>
      <trkpt lat="45.82811" lon="4.81263">
        <ele>413</ele>
        <time>2012-09-04T18:09:31Z</time>
      </trkpt>
      <trkpt lat="45.82819" lon="4.81238">
        <ele>411</ele>
        <time>2012-09-04T18:09:39Z</time>
      </trkpt>
      <trkpt lat="45.8282" lon="4.81235">
        <ele>411</ele>
        <time>2012-09-04T18:09:40Z</time>
      </trkpt>
      <trkpt lat="45.82826" lon="4.81214">
        <ele>411</ele>
        <time>2012-09-04T18:09:46Z</time>
      </trkpt>
      <trkpt lat="45.82827" lon="4.8121">
        <ele>411</ele>
        <time>2012-09-04T18:09:47Z</time>
      </trkpt>
      <trkpt lat="45.82833" lon="4.81189">
        <ele>410</ele>
        <time>2012-09-04T18:09:53Z</time>
      </trkpt>
      <trkpt lat="45.82839" lon="4.81165">
        <ele>409</ele>
        <time>2012-09-04T18:10:00Z</time>
      </trkpt>
      <trkpt lat="45.82845" lon="4.81142">
        <ele>408</ele>
        <time>2012-09-04T18:10:07Z</time>
      </trkpt>
      <trkpt lat="45.82845" lon="4.81142">
        <ele>408</ele>
        <time>2012-09-04T18:10:08Z</time>
      </trkpt>
      <trkpt lat="45.82846" lon="4.81136">
        <ele>408</ele>
        <time>2012-09-04T18:10:09Z</time>
      </trkpt>
      <trkpt lat="45.82848" lon="4.81128">
        <ele>408</ele>
        <time>2012-09-04T18:10:11Z</time>
      </trkpt>
      <trkpt lat="45.82855" lon="4.81119">
        <ele>408</ele>
        <time>2012-09-04T18:10:15Z</time>
      </trkpt>
      <trkpt lat="45.82857" lon="4.81116">
        <ele>407</ele>
        <time>2012-09-04T18:10:16Z</time>
      </trkpt>
      <trkpt lat="45.8287" lon="4.81101">
        <ele>407</ele>
        <time>2012-09-04T18:10:23Z</time>
      </trkpt>
      <trkpt lat="45.82872" lon="4.81099">
        <ele>407</ele>
        <time>2012-09-04T18:10:24Z</time>
      </trkpt>
      <trkpt lat="45.82885" lon="4.81086">
        <ele>408</ele>
        <time>2012-09-04T18:10:30Z</time>
      </trkpt>
      <trkpt lat="45.82887" lon="4.81084">
        <ele>408</ele>
        <time>2012-09-04T18:10:32Z</time>
      </trkpt>
      <trkpt lat="45.82897" lon="4.81073">
        <ele>407</ele>
        <time>2012-09-04T18:10:36Z</time>
      </trkpt>
      <trkpt lat="45.82905" lon="4.81065">
        <ele>407</ele>
        <time>2012-09-04T18:10:40Z</time>
      </trkpt>
      <trkpt lat="45.82908" lon="4.81061">
        <ele>407</ele>
        <time>2012-09-04T18:10:42Z</time>
      </trkpt>
      <trkpt lat="45.8292" lon="4.8105">
        <ele>409</ele>
        <time>2012-09-04T18:10:48Z</time>
      </trkpt>
      <trkpt lat="45.8293" lon="4.8104">
        <ele>409</ele>
        <time>2012-09-04T18:10:53Z</time>
      </trkpt>
      <trkpt lat="45.82936" lon="4.81033">
        <ele>410</ele>
        <time>2012-09-04T18:10:56Z</time>
      </trkpt>
      <trkpt lat="45.82943" lon="4.81027">
        <ele>410</ele>
        <time>2012-09-04T18:10:59Z</time>
      </trkpt>
      <trkpt lat="45.82952" lon="4.8102">
        <ele>410</ele>
        <time>2012-09-04T18:11:03Z</time>
      </trkpt>
      <trkpt lat="45.82956" lon="4.81016">
        <ele>410</ele>
        <time>2012-09-04T18:11:05Z</time>
      </trkpt>
      <trkpt lat="45.82964" lon="4.81007">
        <ele>411</ele>
        <time>2012-09-04T18:11:09Z</time>
      </trkpt>
      <trkpt lat="45.82969" lon="4.81003">
        <ele>411</ele>
        <time>2012-09-04T18:11:11Z</time>
      </trkpt>
      <trkpt lat="45.82978" lon="4.80996">
        <ele>413</ele>
        <time>2012-09-04T18:11:15Z</time>
      </trkpt>
      <trkpt lat="45.82985" lon="4.8099">
        <ele>414</ele>
        <time>2012-09-04T18:11:18Z</time>
      </trkpt>
      <trkpt lat="45.82993" lon="4.80982">
        <ele>414</ele>
        <time>2012-09-04T18:11:22Z</time>
      </trkpt>
      <trkpt lat="45.83001" lon="4.80976">
        <ele>414</ele>
        <time>2012-09-04T18:11:26Z</time>
      </trkpt>
      <trkpt lat="45.83005" lon="4.80972">
        <ele>414</ele>
        <time>2012-09-04T18:11:28Z</time>
      </trkpt>
      <trkpt lat="45.83015" lon="4.80962">
        <ele>414</ele>
        <time>2012-09-04T18:11:33Z</time>
      </trkpt>
      <trkpt lat="45.83017" lon="4.8096">
        <ele>414</ele>
        <time>2012-09-04T18:11:34Z</time>
      </trkpt>
      <trkpt lat="45.83027" lon="4.8095">
        <ele>414</ele>
        <time>2012-09-04T18:11:39Z</time>
      </trkpt>
      <trkpt lat="45.83033" lon="4.80944">
        <ele>414</ele>
        <time>2012-09-04T18:11:42Z</time>
      </trkpt>
      <trkpt lat="45.83037" lon="4.8094">
        <ele>414</ele>
        <time>2012-09-04T18:11:44Z</time>
      </trkpt>
      <trkpt lat="45.83047" lon="4.80929">
        <ele>415</ele>
        <time>2012-09-04T18:11:50Z</time>
      </trkpt>
      <trkpt lat="45.83063" lon="4.80913">
        <ele>418</ele>
        <time>2012-09-04T18:11:57Z</time>
      </trkpt>
      <trkpt lat="45.83065" lon="4.80911">
        <ele>419</ele>
        <time>2012-09-04T18:11:58Z</time>
      </trkpt>
      <trkpt lat="45.83075" lon="4.80901">
        <ele>419</ele>
        <time>2012-09-04T18:12:03Z</time>
      </trkpt>
      <trkpt lat="45.83082" lon="4.80896">
        <ele>419</ele>
        <time>2012-09-04T18:12:06Z</time>
      </trkpt>
      <trkpt lat="45.8309" lon="4.80886">
        <ele>418</ele>
        <time>2012-09-04T18:12:10Z</time>
      </trkpt>
      <trkpt lat="45.83096" lon="4.8088">
        <ele>418</ele>
        <time>2012-09-04T18:12:13Z</time>
      </trkpt>
      <trkpt lat="45.83103" lon="4.80874">
        <ele>418</ele>
        <time>2012-09-04T18:12:16Z</time>
      </trkpt>
      <trkpt lat="45.83111" lon="4.80861">
        <ele>418</ele>
        <time>2012-09-04T18:12:21Z</time>
      </trkpt>
      <trkpt lat="45.83116" lon="4.80853">
        <ele>418</ele>
        <time>2012-09-04T18:12:26Z</time>
      </trkpt>
      <trkpt lat="45.83114" lon="4.80847">
        <ele>418</ele>
        <time>2012-09-04T18:12:33Z</time>
      </trkpt>
      <trkpt lat="45.83113" lon="4.80846">
        <ele>418</ele>
        <time>2012-09-04T18:12:47Z</time>
      </trkpt>
      <trkpt lat="45.83113" lon="4.80845">
        <ele>418</ele>
        <time>2012-09-04T18:13:02Z</time>
      </trkpt>
      <trkpt lat="45.83113" lon="4.80846">
        <ele>418</ele>
        <time>2012-09-04T18:13:14Z</time>
      </trkpt>
      <trkpt lat="45.83117" lon="4.80845">
        <ele>418</ele>
        <time>2012-09-04T18:13:18Z</time>
      </trkpt>
      <trkpt lat="45.83119" lon="4.80845">
        <ele>418</ele>
        <time>2012-09-04T18:13:20Z</time>
      </trkpt>
      <trkpt lat="45.83122" lon="4.80845">
        <ele>418</ele>
        <time>2012-09-04T18:13:25Z</time>
      </trkpt>
      <trkpt lat="45.83123" lon="4.80845">
        <ele>418</ele>
        <time>2012-09-04T18:13:26Z</time>
      </trkpt>
      <trkpt lat="45.8313" lon="4.80841">
        <ele>418</ele>
        <time>2012-09-04T18:13:30Z</time>
      </trkpt>
      <trkpt lat="45.83135" lon="4.80836">
        <ele>418</ele>
        <time>2012-09-04T18:13:33Z</time>
      </trkpt>
      <trkpt lat="45.83139" lon="4.80834">
        <ele>417</ele>
        <time>2012-09-04T18:13:35Z</time>
      </trkpt>
      <trkpt lat="45.83153" lon="4.80824">
        <ele>420</ele>
        <time>2012-09-04T18:13:41Z</time>
      </trkpt>
      <trkpt lat="45.83158" lon="4.80815">
        <ele>420</ele>
        <time>2012-09-04T18:13:45Z</time>
      </trkpt>
      <trkpt lat="45.83161" lon="4.8081">
        <ele>420</ele>
        <time>2012-09-04T18:13:47Z</time>
      </trkpt>
      <trkpt lat="45.83168" lon="4.80807">
        <ele>419</ele>
        <time>2012-09-04T18:13:51Z</time>
      </trkpt>
      <trkpt lat="45.83172" lon="4.8081">
        <ele>419</ele>
        <time>2012-09-04T18:13:53Z</time>
      </trkpt>
      <trkpt lat="45.83171" lon="4.80817">
        <ele>419</ele>
        <time>2012-09-04T18:13:56Z</time>
      </trkpt>
      <trkpt lat="45.83165" lon="4.80825">
        <ele>419</ele>
        <time>2012-09-04T18:14:01Z</time>
      </trkpt>
      <trkpt lat="45.8316" lon="4.80833">
        <ele>419</ele>
        <time>2012-09-04T18:14:04Z</time>
      </trkpt>
      <trkpt lat="45.83159" lon="4.80836">
        <ele>418</ele>
        <time>2012-09-04T18:14:05Z</time>
      </trkpt>
      <trkpt lat="45.83158" lon="4.80839">
        <ele>417</ele>
        <time>2012-09-04T18:14:06Z</time>
      </trkpt>
      <trkpt lat="45.8316" lon="4.80849">
        <ele>417</ele>
        <time>2012-09-04T18:14:09Z</time>
      </trkpt>
      <trkpt lat="45.83166" lon="4.80865">
        <ele>416</ele>
        <time>2012-09-04T18:14:14Z</time>
      </trkpt>
      <trkpt lat="45.83168" lon="4.8087">
        <ele>412</ele>
        <time>2012-09-04T18:14:16Z</time>
      </trkpt>
      <trkpt lat="45.83169" lon="4.80874">
        <ele>412</ele>
        <time>2012-09-04T18:14:17Z</time>
      </trkpt>
      <trkpt lat="45.8317" lon="4.80878">
        <ele>411</ele>
        <time>2012-09-04T18:14:18Z</time>
      </trkpt>
      <trkpt lat="45.83175" lon="4.80891">
        <ele>410</ele>
        <time>2012-09-04T18:14:22Z</time>
      </trkpt>
      <trkpt lat="45.83177" lon="4.809">
        <ele>409</ele>
        <time>2012-09-04T18:14:24Z</time>
      </trkpt>
      <trkpt lat="45.83178" lon="4.80905">
        <ele>408</ele>
        <time>2012-09-04T18:14:26Z</time>
      </trkpt>
      <trkpt lat="45.83175" lon="4.8092">
        <ele>403</ele>
        <time>2012-09-04T18:14:30Z</time>
      </trkpt>
      <trkpt lat="45.83172" lon="4.80929">
        <ele>403</ele>
        <time>2012-09-04T18:14:32Z</time>
      </trkpt>
      <trkpt lat="45.8317" lon="4.80933">
        <ele>402</ele>
        <time>2012-09-04T18:14:34Z</time>
      </trkpt>
      <trkpt lat="45.8316" lon="4.80947">
        <ele>403</ele>
        <time>2012-09-04T18:14:40Z</time>
      </trkpt>
      <trkpt lat="45.83158" lon="4.80947">
        <ele>403</ele>
        <time>2012-09-04T18:14:41Z</time>
      </trkpt>
      <trkpt lat="45.83148" lon="4.80953">
        <ele>403</ele>
        <time>2012-09-04T18:14:45Z</time>
      </trkpt>
      <trkpt lat="45.83143" lon="4.80957">
        <ele>403</ele>
        <time>2012-09-04T18:14:47Z</time>
      </trkpt>
      <trkpt lat="45.83138" lon="4.80959">
        <ele>403</ele>
        <time>2012-09-04T18:14:49Z</time>
      </trkpt>
      <trkpt lat="45.83136" lon="4.80961">
        <ele>403</ele>
        <time>2012-09-04T18:14:50Z</time>
      </trkpt>
      <trkpt lat="45.83134" lon="4.80965">
        <ele>403</ele>
        <time>2012-09-04T18:14:52Z</time>
      </trkpt>
      <trkpt lat="45.83132" lon="4.80968">
        <ele>403</ele>
        <time>2012-09-04T18:14:54Z</time>
      </trkpt>
      <trkpt lat="45.83129" lon="4.80976">
        <ele>402</ele>
        <time>2012-09-04T18:14:59Z</time>
      </trkpt>
      <trkpt lat="45.83126" lon="4.80982">
        <ele>402</ele>
        <time>2012-09-04T18:15:04Z</time>
      </trkpt>
      <trkpt lat="45.83124" lon="4.80988">
        <ele>402</ele>
        <time>2012-09-04T18:15:09Z</time>
      </trkpt>
      <trkpt lat="45.83124" lon="4.80988">
        <ele>402</ele>
        <time>2012-09-04T18:15:11Z</time>
      </trkpt>
      <trkpt lat="45.83123" lon="4.81">
        <ele>402</ele>
        <time>2012-09-04T18:15:17Z</time>
      </trkpt>
      <trkpt lat="45.83121" lon="4.81009">
        <ele>392</ele>
        <time>2012-09-04T18:15:22Z</time>
      </trkpt>
      <trkpt lat="45.8312" lon="4.81011">
        <ele>392</ele>
        <time>2012-09-04T18:15:23Z</time>
      </trkpt>
      <trkpt lat="45.8312" lon="4.81014">
        <ele>392</ele>
        <time>2012-09-04T18:15:24Z</time>
      </trkpt>
      <trkpt lat="45.83117" lon="4.81018">
        <ele>391</ele>
        <time>2012-09-04T18:15:28Z</time>
      </trkpt>
      <trkpt lat="45.83117" lon="4.8102">
        <ele>391</ele>
        <time>2012-09-04T18:15:29Z</time>
      </trkpt>
      <trkpt lat="45.83114" lon="4.81029">
        <ele>391</ele>
        <time>2012-09-04T18:15:36Z</time>
      </trkpt>
      <trkpt lat="45.83113" lon="4.81031">
        <ele>391</ele>
        <time>2012-09-04T18:15:37Z</time>
      </trkpt>
      <trkpt lat="45.83112" lon="4.81034">
        <ele>390</ele>
        <time>2012-09-04T18:15:39Z</time>
      </trkpt>
      <trkpt lat="45.83111" lon="4.81034">
        <ele>390</ele>
        <time>2012-09-04T18:15:40Z</time>
      </trkpt>
      <trkpt lat="45.83106" lon="4.81042">
        <ele>390</ele>
        <time>2012-09-04T18:15:46Z</time>
      </trkpt>
      <trkpt lat="45.83105" lon="4.81044">
        <ele>390</ele>
        <time>2012-09-04T18:15:47Z</time>
      </trkpt>
      <trkpt lat="45.83103" lon="4.81059">
        <ele>388</ele>
        <time>2012-09-04T18:15:51Z</time>
      </trkpt>
      <trkpt lat="45.83102" lon="4.81063">
        <ele>388</ele>
        <time>2012-09-04T18:15:52Z</time>
      </trkpt>
      <trkpt lat="45.83098" lon="4.81073">
        <ele>387</ele>
        <time>2012-09-04T18:15:57Z</time>
      </trkpt>
      <trkpt lat="45.83098" lon="4.81074">
        <ele>387</ele>
        <time>2012-09-04T18:15:58Z</time>
      </trkpt>
      <trkpt lat="45.83096" lon="4.81083">
        <ele>387</ele>
        <time>2012-09-04T18:16:02Z</time>
      </trkpt>
      <trkpt lat="45.83095" lon="4.81086">
        <ele>381</ele>
        <time>2012-09-04T18:16:03Z</time>
      </trkpt>
      <trkpt lat="45.8309" lon="4.81094">
        <ele>381</ele>
        <time>2012-09-04T18:16:07Z</time>
      </trkpt>
      <trkpt lat="45.83089" lon="4.81096">
        <ele>380</ele>
        <time>2012-09-04T18:16:08Z</time>
      </trkpt>
      <trkpt lat="45.83086" lon="4.81102">
        <ele>379</ele>
        <time>2012-09-04T18:16:11Z</time>
      </trkpt>
      <trkpt lat="45.83083" lon="4.81108">
        <ele>384</ele>
        <time>2012-09-04T18:16:14Z</time>
      </trkpt>
      <trkpt lat="45.83078" lon="4.81111">
        <ele>383</ele>
        <time>2012-09-04T18:16:17Z</time>
      </trkpt>
      <trkpt lat="45.83074" lon="4.81111">
        <ele>384</ele>
        <time>2012-09-04T18:16:19Z</time>
      </trkpt>
      <trkpt lat="45.83068" lon="4.81117">
        <ele>383</ele>
        <time>2012-09-04T18:16:24Z</time>
      </trkpt>
      <trkpt lat="45.8306" lon="4.81129">
        <ele>382</ele>
        <time>2012-09-04T18:16:39Z</time>
      </trkpt>
      <trkpt lat="45.83064" lon="4.81137">
        <ele>380</ele>
        <time>2012-09-04T18:16:50Z</time>
      </trkpt>
      <trkpt lat="45.83067" lon="4.81142">
        <ele>379</ele>
        <time>2012-09-04T18:17:10Z</time>
      </trkpt>
      <trkpt lat="45.83069" lon="4.81149">
        <ele>377</ele>
        <time>2012-09-04T18:17:16Z</time>
      </trkpt>
      <trkpt lat="45.83069" lon="4.8115">
        <ele>377</ele>
        <time>2012-09-04T18:17:17Z</time>
      </trkpt>
      <trkpt lat="45.8307" lon="4.81152">
        <ele>376</ele>
        <time>2012-09-04T18:17:19Z</time>
      </trkpt>
      <trkpt lat="45.83072" lon="4.81153">
        <ele>376</ele>
        <time>2012-09-04T18:17:21Z</time>
      </trkpt>
      <trkpt lat="45.83078" lon="4.81158">
        <ele>372</ele>
        <time>2012-09-04T18:17:25Z</time>
      </trkpt>
      <trkpt lat="45.83079" lon="4.81159">
        <ele>372</ele>
        <time>2012-09-04T18:17:26Z</time>
      </trkpt>
      <trkpt lat="45.83083" lon="4.81164">
        <ele>369</ele>
        <time>2012-09-04T18:17:30Z</time>
      </trkpt>
      <trkpt lat="45.83088" lon="4.8117">
        <ele>364</ele>
        <time>2012-09-04T18:17:34Z</time>
      </trkpt>
      <trkpt lat="45.83089" lon="4.81174">
        <ele>363</ele>
        <time>2012-09-04T18:17:36Z</time>
      </trkpt>
      <trkpt lat="45.8309" lon="4.81175">
        <ele>362</ele>
        <time>2012-09-04T18:17:37Z</time>
      </trkpt>
      <trkpt lat="45.83092" lon="4.81181">
        <ele>360</ele>
        <time>2012-09-04T18:17:41Z</time>
      </trkpt>
      <trkpt lat="45.83092" lon="4.81184">
        <ele>359</ele>
        <time>2012-09-04T18:17:43Z</time>
      </trkpt>
      <trkpt lat="45.83094" lon="4.81192">
        <ele>357</ele>
        <time>2012-09-04T18:17:47Z</time>
      </trkpt>
      <trkpt lat="45.83093" lon="4.81194">
        <ele>357</ele>
        <time>2012-09-04T18:17:48Z</time>
      </trkpt>
      <trkpt lat="45.83093" lon="4.81196">
        <ele>356</ele>
        <time>2012-09-04T18:17:49Z</time>
      </trkpt>
      <trkpt lat="45.83093" lon="4.81209">
        <ele>353</ele>
        <time>2012-09-04T18:17:54Z</time>
      </trkpt>
      <trkpt lat="45.83092" lon="4.81221">
        <ele>351</ele>
        <time>2012-09-04T18:17:58Z</time>
      </trkpt>
      <trkpt lat="45.83092" lon="4.81224">
        <ele>350</ele>
        <time>2012-09-04T18:17:59Z</time>
      </trkpt>
      <trkpt lat="45.8309" lon="4.8124">
        <ele>345</ele>
        <time>2012-09-04T18:18:05Z</time>
      </trkpt>
      <trkpt lat="45.8309" lon="4.81243">
        <ele>344</ele>
        <time>2012-09-04T18:18:06Z</time>
      </trkpt>
      <trkpt lat="45.83089" lon="4.81246">
        <ele>343</ele>
        <time>2012-09-04T18:18:07Z</time>
      </trkpt>
      <trkpt lat="45.83089" lon="4.81248">
        <ele>343</ele>
        <time>2012-09-04T18:18:08Z</time>
      </trkpt>
      <trkpt lat="45.83089" lon="4.81255">
        <ele>338</ele>
        <time>2012-09-04T18:18:10Z</time>
      </trkpt>
      <trkpt lat="45.83088" lon="4.81263">
        <ele>337</ele>
        <time>2012-09-04T18:18:13Z</time>
      </trkpt>
      <trkpt lat="45.83087" lon="4.81264">
        <ele>337</ele>
        <time>2012-09-04T18:18:14Z</time>
      </trkpt>
      <trkpt lat="45.83086" lon="4.81269">
        <ele>336</ele>
        <time>2012-09-04T18:18:17Z</time>
      </trkpt>
      <trkpt lat="45.83085" lon="4.81275">
        <ele>335</ele>
        <time>2012-09-04T18:18:19Z</time>
      </trkpt>
      <trkpt lat="45.83085" lon="4.81278">
        <ele>335</ele>
        <time>2012-09-04T18:18:20Z</time>
      </trkpt>
      <trkpt lat="45.83084" lon="4.81288">
        <ele>333</ele>
        <time>2012-09-04T18:18:24Z</time>
      </trkpt>
      <trkpt lat="45.83084" lon="4.81294">
        <ele>332</ele>
        <time>2012-09-04T18:18:26Z</time>
      </trkpt>
      <trkpt lat="45.83085" lon="4.81304">
        <ele>330</ele>
        <time>2012-09-04T18:18:30Z</time>
      </trkpt>
      <trkpt lat="45.83086" lon="4.81306">
        <ele>329</ele>
        <time>2012-09-04T18:18:31Z</time>
      </trkpt>
      <trkpt lat="45.83092" lon="4.81319">
        <ele>326</ele>
        <time>2012-09-04T18:18:38Z</time>
      </trkpt>
      <trkpt lat="45.83094" lon="4.81327">
        <ele>325</ele>
        <time>2012-09-04T18:18:41Z</time>
      </trkpt>
      <trkpt lat="45.83094" lon="4.8133">
        <ele>324</ele>
        <time>2012-09-04T18:18:43Z</time>
      </trkpt>
      <trkpt lat="45.83092" lon="4.8134">
        <ele>318</ele>
        <time>2012-09-04T18:18:49Z</time>
      </trkpt>
      <trkpt lat="45.83092" lon="4.81341">
        <ele>318</ele>
        <time>2012-09-04T18:18:51Z</time>
      </trkpt>
      <trkpt lat="45.83092" lon="4.81345">
        <ele>318</ele>
        <time>2012-09-04T18:18:54Z</time>
      </trkpt>
      <trkpt lat="45.83091" lon="4.81347">
        <ele>317</ele>
        <time>2012-09-04T18:18:55Z</time>
      </trkpt>
      <trkpt lat="45.8309" lon="4.81349">
        <ele>317</ele>
        <time>2012-09-04T18:18:57Z</time>
      </trkpt>
      <trkpt lat="45.83089" lon="4.8135">
        <ele>317</ele>
        <time>2012-09-04T18:18:58Z</time>
      </trkpt>
      <trkpt lat="45.83089" lon="4.8135">
        <ele>317</ele>
        <time>2012-09-04T18:18:59Z</time>
      </trkpt>
      <trkpt lat="45.83083" lon="4.81362">
        <ele>316</ele>
        <time>2012-09-04T18:19:05Z</time>
      </trkpt>
      <trkpt lat="45.83079" lon="4.81369">
        <ele>316</ele>
        <time>2012-09-04T18:19:10Z</time>
      </trkpt>
      <trkpt lat="45.83078" lon="4.8137">
        <ele>316</ele>
        <time>2012-09-04T18:19:11Z</time>
      </trkpt>
      <trkpt lat="45.83077" lon="4.81371">
        <ele>315</ele>
        <time>2012-09-04T18:19:12Z</time>
      </trkpt>
      <trkpt lat="45.83075" lon="4.81371">
        <ele>315</ele>
        <time>2012-09-04T18:19:18Z</time>
      </trkpt>
      <trkpt lat="45.83072" lon="4.81373">
        <ele>315</ele>
        <time>2012-09-04T18:19:29Z</time>
      </trkpt>
      <trkpt lat="45.8307" lon="4.81372">
        <ele>315</ele>
        <time>2012-09-04T18:19:32Z</time>
      </trkpt>
      <trkpt lat="45.8307" lon="4.81367">
        <ele>316</ele>
        <time>2012-09-04T18:19:34Z</time>
      </trkpt>
      <trkpt lat="45.83069" lon="4.81359">
        <ele>317</ele>
        <time>2012-09-04T18:19:37Z</time>
      </trkpt>
      <trkpt lat="45.83068" lon="4.81356">
        <ele>317</ele>
        <time>2012-09-04T18:19:38Z</time>
      </trkpt>
      <trkpt lat="45.83067" lon="4.81351">
        <ele>317</ele>
        <time>2012-09-04T18:19:40Z</time>
      </trkpt>
      <trkpt lat="45.83063" lon="4.81338">
        <ele>318</ele>
        <time>2012-09-04T18:19:45Z</time>
      </trkpt>
      <trkpt lat="45.83059" lon="4.81332">
        <ele>326</ele>
        <time>2012-09-04T18:19:48Z</time>
      </trkpt>
      <trkpt lat="45.83053" lon="4.81325">
        <ele>327</ele>
        <time>2012-09-04T18:19:52Z</time>
      </trkpt>
      <trkpt lat="45.83044" lon="4.81315">
        <ele>329</ele>
        <time>2012-09-04T18:19:58Z</time>
      </trkpt>
      <trkpt lat="45.83035" lon="4.81306">
        <ele>330</ele>
        <time>2012-09-04T18:20:03Z</time>
      </trkpt>
      <trkpt lat="45.8303" lon="4.81299">
        <ele>331</ele>
        <time>2012-09-04T18:20:07Z</time>
      </trkpt>
      <trkpt lat="45.83025" lon="4.81294">
        <ele>332</ele>
        <time>2012-09-04T18:20:10Z</time>
      </trkpt>
      <trkpt lat="45.83017" lon="4.81285">
        <ele>333</ele>
        <time>2012-09-04T18:20:15Z</time>
      </trkpt>
      <trkpt lat="45.83014" lon="4.81282">
        <ele>334</ele>
        <time>2012-09-04T18:20:17Z</time>
      </trkpt>
      <trkpt lat="45.83011" lon="4.8128">
        <ele>334</ele>
        <time>2012-09-04T18:20:20Z</time>
      </trkpt>
      <trkpt lat="45.83016" lon="4.81283">
        <ele>334</ele>
        <time>2012-09-04T18:20:28Z</time>
      </trkpt>
      <trkpt lat="45.8302" lon="4.81285">
        <ele>333</ele>
        <time>2012-09-04T18:20:46Z</time>
      </trkpt>
      <trkpt lat="45.83019" lon="4.81287">
        <ele>333</ele>
        <time>2012-09-04T18:20:48Z</time>
      </trkpt>
      <trkpt lat="45.8302" lon="4.81289">
        <ele>333</ele>
        <time>2012-09-04T18:20:50Z</time>
      </trkpt>
      <trkpt lat="45.83021" lon="4.81291">
        <ele>332</ele>
        <time>2012-09-04T18:20:52Z</time>
      </trkpt>
      <trkpt lat="45.83021" lon="4.81295">
        <ele>332</ele>
        <time>2012-09-04T18:20:54Z</time>
      </trkpt>
      <trkpt lat="45.8302" lon="4.81301">
        <ele>331</ele>
        <time>2012-09-04T18:20:57Z</time>
      </trkpt>
      <trkpt lat="45.83017" lon="4.81306">
        <ele>330</ele>
        <time>2012-09-04T18:21:00Z</time>
      </trkpt>
      <trkpt lat="45.83009" lon="4.81306">
        <ele>330</ele>
        <time>2012-09-04T18:21:04Z</time>
      </trkpt>
      <trkpt lat="45.83008" lon="4.81307">
        <ele>330</ele>
        <time>2012-09-04T18:21:05Z</time>
      </trkpt>
      <trkpt lat="45.83005" lon="4.81308">
        <ele>330</ele>
        <time>2012-09-04T18:21:07Z</time>
      </trkpt>
      <trkpt lat="45.83002" lon="4.8131">
        <ele>329</ele>
        <time>2012-09-04T18:21:09Z</time>
      </trkpt>
      <trkpt lat="45.82998" lon="4.81311">
        <ele>343</ele>
        <time>2012-09-04T18:21:12Z</time>
      </trkpt>
      <trkpt lat="45.8299" lon="4.81318">
        <ele>341</ele>
        <time>2012-09-04T18:21:19Z</time>
      </trkpt>
      <trkpt lat="45.82985" lon="4.81321">
        <ele>342</ele>
        <time>2012-09-04T18:21:25Z</time>
      </trkpt>
      <trkpt lat="45.82981" lon="4.81326">
        <ele>343</ele>
        <time>2012-09-04T18:21:29Z</time>
      </trkpt>
      <trkpt lat="45.82979" lon="4.81328">
        <ele>344</ele>
        <time>2012-09-04T18:21:31Z</time>
      </trkpt>
      <trkpt lat="45.82981" lon="4.8133">
        <ele>343</ele>
        <time>2012-09-04T18:21:36Z</time>
      </trkpt>
      <trkpt lat="45.82974" lon="4.81335">
        <ele>339</ele>
        <time>2012-09-04T18:21:41Z</time>
      </trkpt>
      <trkpt lat="45.82973" lon="4.81341">
        <ele>340</ele>
        <time>2012-09-04T18:21:45Z</time>
      </trkpt>
      <trkpt lat="45.8297" lon="4.81345">
        <ele>341</ele>
        <time>2012-09-04T18:21:47Z</time>
      </trkpt>
      <trkpt lat="45.82968" lon="4.81348">
        <ele>342</ele>
        <time>2012-09-04T18:21:50Z</time>
      </trkpt>
      <trkpt lat="45.82964" lon="4.81354">
        <ele>343</ele>
        <time>2012-09-04T18:21:54Z</time>
      </trkpt>
      <trkpt lat="45.82961" lon="4.81362">
        <ele>344</ele>
        <time>2012-09-04T18:21:59Z</time>
      </trkpt>
      <trkpt lat="45.8296" lon="4.81364">
        <ele>344</ele>
        <time>2012-09-04T18:22:00Z</time>
      </trkpt>
      <trkpt lat="45.82959" lon="4.81365">
        <ele>345</ele>
        <time>2012-09-04T18:22:01Z</time>
      </trkpt>
      <trkpt lat="45.82954" lon="4.81373">
        <ele>345</ele>
        <time>2012-09-04T18:22:07Z</time>
      </trkpt>
      <trkpt lat="45.82951" lon="4.81381">
        <ele>346</ele>
        <time>2012-09-04T18:22:13Z</time>
      </trkpt>
      <trkpt lat="45.8295" lon="4.81382">
        <ele>346</ele>
        <time>2012-09-04T18:22:14Z</time>
      </trkpt>
      <trkpt lat="45.82946" lon="4.81387">
        <ele>347</ele>
        <time>2012-09-04T18:22:17Z</time>
      </trkpt>
      <trkpt lat="45.8294" lon="4.81392">
        <ele>349</ele>
        <time>2012-09-04T18:22:21Z</time>
      </trkpt>
      <trkpt lat="45.8294" lon="4.81393">
        <ele>349</ele>
        <time>2012-09-04T18:22:22Z</time>
      </trkpt>
      <trkpt lat="45.82937" lon="4.81398">
        <ele>350</ele>
        <time>2012-09-04T18:22:27Z</time>
      </trkpt>
      <trkpt lat="45.82936" lon="4.814">
        <ele>350</ele>
        <time>2012-09-04T18:22:29Z</time>
      </trkpt>
      <trkpt lat="45.82936" lon="4.81402">
        <ele>350</ele>
        <time>2012-09-04T18:22:31Z</time>
      </trkpt>
      <trkpt lat="45.82934" lon="4.81406">
        <ele>351</ele>
        <time>2012-09-04T18:22:34Z</time>
      </trkpt>
      <trkpt lat="45.82929" lon="4.81411">
        <ele>354</ele>
        <time>2012-09-04T18:22:39Z</time>
      </trkpt>
      <trkpt lat="45.82923" lon="4.81417">
        <ele>356</ele>
        <time>2012-09-04T18:22:46Z</time>
      </trkpt>
      <trkpt lat="45.82922" lon="4.8142">
        <ele>356</ele>
        <time>2012-09-04T18:22:49Z</time>
      </trkpt>
      <trkpt lat="45.8292" lon="4.81423">
        <ele>356</ele>
        <time>2012-09-04T18:22:53Z</time>
      </trkpt>
      <trkpt lat="45.82915" lon="4.8143">
        <ele>369</ele>
        <time>2012-09-04T18:22:59Z</time>
      </trkpt>
      <trkpt lat="45.82912" lon="4.81431">
        <ele>370</ele>
        <time>2012-09-04T18:23:01Z</time>
      </trkpt>
      <trkpt lat="45.82911" lon="4.81431">
        <ele>370</ele>
        <time>2012-09-04T18:23:02Z</time>
      </trkpt>
      <trkpt lat="45.82911" lon="4.81433">
        <ele>371</ele>
        <time>2012-09-04T18:23:05Z</time>
      </trkpt>
      <trkpt lat="45.82911" lon="4.81434">
        <ele>371</ele>
        <time>2012-09-04T18:23:06Z</time>
      </trkpt>
      <trkpt lat="45.82911" lon="4.81441">
        <ele>372</ele>
        <time>2012-09-04T18:23:13Z</time>
      </trkpt>
      <trkpt lat="45.82912" lon="4.81452">
        <ele>373</ele>
        <time>2012-09-04T18:23:18Z</time>
      </trkpt>
      <trkpt lat="45.82912" lon="4.81455">
        <ele>373</ele>
        <time>2012-09-04T18:23:19Z</time>
      </trkpt>
      <trkpt lat="45.82912" lon="4.81461">
        <ele>373</ele>
        <time>2012-09-04T18:23:21Z</time>
      </trkpt>
      <trkpt lat="45.82913" lon="4.81472">
        <ele>372</ele>
        <time>2012-09-04T18:23:25Z</time>
      </trkpt>
      <trkpt lat="45.82912" lon="4.81485">
        <ele>369</ele>
        <time>2012-09-04T18:23:30Z</time>
      </trkpt>
      <trkpt lat="45.82913" lon="4.81488">
        <ele>368</ele>
        <time>2012-09-04T18:23:31Z</time>
      </trkpt>
      <trkpt lat="45.82914" lon="4.81502">
        <ele>363</ele>
        <time>2012-09-04T18:23:36Z</time>
      </trkpt>
      <trkpt lat="45.82914" lon="4.81515">
        <ele>370</ele>
        <time>2012-09-04T18:23:42Z</time>
      </trkpt>
      <trkpt lat="45.82919" lon="4.81529">
        <ele>354</ele>
        <time>2012-09-04T18:23:49Z</time>
      </trkpt>
      <trkpt lat="45.82918" lon="4.8153">
        <ele>354</ele>
        <time>2012-09-04T18:23:50Z</time>
      </trkpt>
      <trkpt lat="45.82918" lon="4.81534">
        <ele>354</ele>
        <time>2012-09-04T18:23:56Z</time>
      </trkpt>
      <trkpt lat="45.82918" lon="4.81535">
        <ele>354</ele>
        <time>2012-09-04T18:23:57Z</time>
      </trkpt>
      <trkpt lat="45.82914" lon="4.81537">
        <ele>376</ele>
        <time>2012-09-04T18:24:00Z</time>
      </trkpt>
      <trkpt lat="45.82913" lon="4.81537">
        <ele>376</ele>
        <time>2012-09-04T18:24:01Z</time>
      </trkpt>
      <trkpt lat="45.82911" lon="4.81539">
        <ele>376</ele>
        <time>2012-09-04T18:24:03Z</time>
      </trkpt>
      <trkpt lat="45.8291" lon="4.81542">
        <ele>377</ele>
        <time>2012-09-04T18:24:06Z</time>
      </trkpt>
      <trkpt lat="45.82909" lon="4.81544">
        <ele>377</ele>
        <time>2012-09-04T18:24:07Z</time>
      </trkpt>
      <trkpt lat="45.82907" lon="4.81545">
        <ele>377</ele>
        <time>2012-09-04T18:24:10Z</time>
      </trkpt>
      <trkpt lat="45.82907" lon="4.81547">
        <ele>377</ele>
        <time>2012-09-04T18:24:11Z</time>
      </trkpt>
      <trkpt lat="45.82907" lon="4.81552">
        <ele>377</ele>
        <time>2012-09-04T18:24:14Z</time>
      </trkpt>
      <trkpt lat="45.82907" lon="4.81553">
        <ele>377</ele>
        <time>2012-09-04T18:24:17Z</time>
      </trkpt>
      <trkpt lat="45.82908" lon="4.81556">
        <ele>377</ele>
        <time>2012-09-04T18:24:24Z</time>
      </trkpt>
      <trkpt lat="45.82904" lon="4.81551">
        <ele>378</ele>
        <time>2012-09-04T18:24:31Z</time>
      </trkpt>
      <trkpt lat="45.82904" lon="4.81547">
        <ele>378</ele>
        <time>2012-09-04T18:24:38Z</time>
      </trkpt>
      <trkpt lat="45.82906" lon="4.81543">
        <ele>377</ele>
        <time>2012-09-04T18:24:42Z</time>
      </trkpt>
      <trkpt lat="45.8291" lon="4.81541">
        <ele>377</ele>
        <time>2012-09-04T18:24:48Z</time>
      </trkpt>
      <trkpt lat="45.82911" lon="4.81544">
        <ele>377</ele>
        <time>2012-09-04T18:24:54Z</time>
      </trkpt>
      <trkpt lat="45.82909" lon="4.81542">
        <ele>377</ele>
        <time>2012-09-04T18:25:02Z</time>
      </trkpt>
      <trkpt lat="45.82912" lon="4.81537">
        <ele>376</ele>
        <time>2012-09-04T18:25:07Z</time>
      </trkpt>
      <trkpt lat="45.82913" lon="4.81533">
        <ele>375</ele>
        <time>2012-09-04T18:25:11Z</time>
      </trkpt>
      <trkpt lat="45.82914" lon="4.81532">
        <ele>375</ele>
        <time>2012-09-04T18:25:12Z</time>
      </trkpt>
      <trkpt lat="45.82918" lon="4.81534">
        <ele>354</ele>
        <time>2012-09-04T18:25:18Z</time>
      </trkpt>
      <trkpt lat="45.82919" lon="4.81539">
        <ele>354</ele>
        <time>2012-09-04T18:25:23Z</time>
      </trkpt>
      <trkpt lat="45.8292" lon="4.81547">
        <ele>355</ele>
        <time>2012-09-04T18:25:29Z</time>
      </trkpt>
      <trkpt lat="45.82922" lon="4.81554">
        <ele>356</ele>
        <time>2012-09-04T18:25:37Z</time>
      </trkpt>
      <trkpt lat="45.82922" lon="4.81555">
        <ele>356</ele>
        <time>2012-09-04T18:25:38Z</time>
      </trkpt>
      <trkpt lat="45.82924" lon="4.81559">
        <ele>357</ele>
        <time>2012-09-04T18:25:46Z</time>
      </trkpt>
      <trkpt lat="45.82924" lon="4.8156">
        <ele>357</ele>
        <time>2012-09-04T18:26:01Z</time>
      </trkpt>
      <trkpt lat="45.82922" lon="4.81565">
        <ele>359</ele>
        <time>2012-09-04T18:26:11Z</time>
      </trkpt>
      <trkpt lat="45.82923" lon="4.81567">
        <ele>359</ele>
        <time>2012-09-04T18:26:17Z</time>
      </trkpt>
      <trkpt lat="45.82922" lon="4.81565">
        <ele>358</ele>
        <time>2012-09-04T18:26:19Z</time>
      </trkpt>
      <trkpt lat="45.82922" lon="4.81562">
        <ele>358</ele>
        <time>2012-09-04T18:26:22Z</time>
      </trkpt>
      <trkpt lat="45.82921" lon="4.81557">
        <ele>356</ele>
        <time>2012-09-04T18:26:26Z</time>
      </trkpt>
      <trkpt lat="45.82921" lon="4.81554">
        <ele>356</ele>
        <time>2012-09-04T18:26:27Z</time>
      </trkpt>
      <trkpt lat="45.82921" lon="4.81552">
        <ele>356</ele>
        <time>2012-09-04T18:26:28Z</time>
      </trkpt>
      <trkpt lat="45.82921" lon="4.81551">
        <ele>355</ele>
        <time>2012-09-04T18:26:29Z</time>
      </trkpt>
      <trkpt lat="45.82919" lon="4.81549">
        <ele>355</ele>
        <time>2012-09-04T18:26:31Z</time>
      </trkpt>
      <trkpt lat="45.82919" lon="4.81548">
        <ele>355</ele>
        <time>2012-09-04T18:26:32Z</time>
      </trkpt>
      <trkpt lat="45.82919" lon="4.81547">
        <ele>355</ele>
        <time>2012-09-04T18:26:33Z</time>
      </trkpt>
      <trkpt lat="45.82919" lon="4.81544">
        <ele>355</ele>
        <time>2012-09-04T18:26:36Z</time>
      </trkpt>
      <trkpt lat="45.82919" lon="4.81542">
        <ele>354</ele>
        <time>2012-09-04T18:26:37Z</time>
      </trkpt>
      <trkpt lat="45.82918" lon="4.81538">
        <ele>354</ele>
        <time>2012-09-04T18:26:40Z</time>
      </trkpt>
      <trkpt lat="45.82916" lon="4.81536">
        <ele>375</ele>
        <time>2012-09-04T18:26:42Z</time>
      </trkpt>
      <trkpt lat="45.82916" lon="4.81533">
        <ele>375</ele>
        <time>2012-09-04T18:26:44Z</time>
      </trkpt>
      <trkpt lat="45.82915" lon="4.81531">
        <ele>375</ele>
        <time>2012-09-04T18:26:45Z</time>
      </trkpt>
      <trkpt lat="45.82915" lon="4.81528">
        <ele>374</ele>
        <time>2012-09-04T18:26:47Z</time>
      </trkpt>
      <trkpt lat="45.82912" lon="4.81515">
        <ele>370</ele>
        <time>2012-09-04T18:26:53Z</time>
      </trkpt>
      <trkpt lat="45.8291" lon="4.81507">
        <ele>367</ele>
        <time>2012-09-04T18:26:58Z</time>
      </trkpt>
      <trkpt lat="45.82911" lon="4.815">
        <ele>365</ele>
        <time>2012-09-04T18:27:00Z</time>
      </trkpt>
      <trkpt lat="45.8291" lon="4.81491">
        <ele>368</ele>
        <time>2012-09-04T18:27:03Z</time>
      </trkpt>
      <trkpt lat="45.82909" lon="4.81476">
        <ele>372</ele>
        <time>2012-09-04T18:27:08Z</time>
      </trkpt>
      <trkpt lat="45.82909" lon="4.81474">
        <ele>372</ele>
        <time>2012-09-04T18:27:09Z</time>
      </trkpt>
      <trkpt lat="45.82909" lon="4.8147">
        <ele>373</ele>
        <time>2012-09-04T18:27:11Z</time>
      </trkpt>
      <trkpt lat="45.8291" lon="4.81461">
        <ele>374</ele>
        <time>2012-09-04T18:27:14Z</time>
      </trkpt>
      <trkpt lat="45.8291" lon="4.81455">
        <ele>374</ele>
        <time>2012-09-04T18:27:16Z</time>
      </trkpt>
      <trkpt lat="45.8291" lon="4.81451">
        <ele>374</ele>
        <time>2012-09-04T18:27:18Z</time>
      </trkpt>
      <trkpt lat="45.82908" lon="4.81447">
        <ele>374</ele>
        <time>2012-09-04T18:27:20Z</time>
      </trkpt>
      <trkpt lat="45.82904" lon="4.81449">
        <ele>374</ele>
        <time>2012-09-04T18:27:23Z</time>
      </trkpt>
      <trkpt lat="45.82903" lon="4.8145">
        <ele>375</ele>
        <time>2012-09-04T18:27:24Z</time>
      </trkpt>
      <trkpt lat="45.82897" lon="4.8146">
        <ele>376</ele>
        <time>2012-09-04T18:27:31Z</time>
      </trkpt>
      <trkpt lat="45.82896" lon="4.81461">
        <ele>376</ele>
        <time>2012-09-04T18:27:32Z</time>
      </trkpt>
      <trkpt lat="45.82893" lon="4.81463">
        <ele>376</ele>
        <time>2012-09-04T18:27:36Z</time>
      </trkpt>
      <trkpt lat="45.82893" lon="4.81465">
        <ele>376</ele>
        <time>2012-09-04T18:27:37Z</time>
      </trkpt>
      <trkpt lat="45.82892" lon="4.81466">
        <ele>376</ele>
        <time>2012-09-04T18:27:38Z</time>
      </trkpt>
      <trkpt lat="45.82889" lon="4.81474">
        <ele>377</ele>
        <time>2012-09-04T18:27:43Z</time>
      </trkpt>
      <trkpt lat="45.82889" lon="4.81476">
        <ele>377</ele>
        <time>2012-09-04T18:27:44Z</time>
      </trkpt>
      <trkpt lat="45.82885" lon="4.81481">
        <ele>377</ele>
        <time>2012-09-04T18:27:48Z</time>
      </trkpt>
      <trkpt lat="45.82883" lon="4.81484">
        <ele>378</ele>
        <time>2012-09-04T18:27:50Z</time>
      </trkpt>
      <trkpt lat="45.82882" lon="4.81485">
        <ele>378</ele>
        <time>2012-09-04T18:27:51Z</time>
      </trkpt>
      <trkpt lat="45.82876" lon="4.8149">
        <ele>380</ele>
        <time>2012-09-04T18:27:57Z</time>
      </trkpt>
      <trkpt lat="45.82872" lon="4.81497">
        <ele>381</ele>
        <time>2012-09-04T18:28:01Z</time>
      </trkpt>
      <trkpt lat="45.82869" lon="4.81502">
        <ele>384</ele>
        <time>2012-09-04T18:28:04Z</time>
      </trkpt>
      <trkpt lat="45.82868" lon="4.81505">
        <ele>384</ele>
        <time>2012-09-04T18:28:05Z</time>
      </trkpt>
      <trkpt lat="45.82865" lon="4.8152">
        <ele>385</ele>
        <time>2012-09-04T18:28:10Z</time>
      </trkpt>
      <trkpt lat="45.82864" lon="4.8153">
        <ele>385</ele>
        <time>2012-09-04T18:28:13Z</time>
      </trkpt>
      <trkpt lat="45.82862" lon="4.81536">
        <ele>386</ele>
        <time>2012-09-04T18:28:15Z</time>
      </trkpt>
      <trkpt lat="45.82859" lon="4.81553">
        <ele>388</ele>
        <time>2012-09-04T18:28:21Z</time>
      </trkpt>
      <trkpt lat="45.8286" lon="4.81556">
        <ele>388</ele>
        <time>2012-09-04T18:28:22Z</time>
      </trkpt>
      <trkpt lat="45.82859" lon="4.81557">
        <ele>388</ele>
        <time>2012-09-04T18:28:23Z</time>
      </trkpt>
      <trkpt lat="45.8286" lon="4.8156">
        <ele>388</ele>
        <time>2012-09-04T18:28:25Z</time>
      </trkpt>
      <trkpt lat="45.82861" lon="4.81563">
        <ele>388</ele>
        <time>2012-09-04T18:28:27Z</time>
      </trkpt>
      <trkpt lat="45.82865" lon="4.81573">
        <ele>388</ele>
        <time>2012-09-04T18:28:31Z</time>
      </trkpt>
      <trkpt lat="45.82868" lon="4.8158">
        <ele>387</ele>
        <time>2012-09-04T18:28:35Z</time>
      </trkpt>
      <trkpt lat="45.82868" lon="4.81582">
        <ele>387</ele>
        <time>2012-09-04T18:28:36Z</time>
      </trkpt>
      <trkpt lat="45.82868" lon="4.81589">
        <ele>394</ele>
        <time>2012-09-04T18:28:42Z</time>
      </trkpt>
      <trkpt lat="45.8287" lon="4.81598">
        <ele>394</ele>
        <time>2012-09-04T18:28:49Z</time>
      </trkpt>
      <trkpt lat="45.82872" lon="4.816">
        <ele>394</ele>
        <time>2012-09-04T18:28:50Z</time>
      </trkpt>
      <trkpt lat="45.82875" lon="4.81606">
        <ele>393</ele>
        <time>2012-09-04T18:28:54Z</time>
      </trkpt>
      <trkpt lat="45.82875" lon="4.81609">
        <ele>394</ele>
        <time>2012-09-04T18:28:56Z</time>
      </trkpt>
      <trkpt lat="45.82874" lon="4.81612">
        <ele>394</ele>
        <time>2012-09-04T18:28:58Z</time>
      </trkpt>
      <trkpt lat="45.82874" lon="4.81615">
        <ele>394</ele>
        <time>2012-09-04T18:29:00Z</time>
      </trkpt>
      <trkpt lat="45.82874" lon="4.81618">
        <ele>395</ele>
        <time>2012-09-04T18:29:02Z</time>
      </trkpt>
      <trkpt lat="45.82875" lon="4.8162">
        <ele>395</ele>
        <time>2012-09-04T18:29:04Z</time>
      </trkpt>
      <trkpt lat="45.82879" lon="4.81626">
        <ele>394</ele>
        <time>2012-09-04T18:29:09Z</time>
      </trkpt>
      <trkpt lat="45.82882" lon="4.81628">
        <ele>394</ele>
        <time>2012-09-04T18:29:12Z</time>
      </trkpt>
      <trkpt lat="45.82884" lon="4.8163">
        <ele>393</ele>
        <time>2012-09-04T18:29:13Z</time>
      </trkpt>
      <trkpt lat="45.82888" lon="4.81632">
        <ele>393</ele>
        <time>2012-09-04T18:29:16Z</time>
      </trkpt>
      <trkpt lat="45.8289" lon="4.81634">
        <ele>393</ele>
        <time>2012-09-04T18:29:18Z</time>
      </trkpt>
      <trkpt lat="45.82896" lon="4.81643">
        <ele>392</ele>
        <time>2012-09-04T18:29:24Z</time>
      </trkpt>
      <trkpt lat="45.82898" lon="4.81646">
        <ele>392</ele>
        <time>2012-09-04T18:29:26Z</time>
      </trkpt>
      <trkpt lat="45.82902" lon="4.81652">
        <ele>391</ele>
        <time>2012-09-04T18:29:31Z</time>
      </trkpt>
      <trkpt lat="45.82906" lon="4.81657">
        <ele>389</ele>
        <time>2012-09-04T18:29:36Z</time>
      </trkpt>
      <trkpt lat="45.82906" lon="4.81659">
        <ele>389</ele>
        <time>2012-09-04T18:29:37Z</time>
      </trkpt>
      <trkpt lat="45.82908" lon="4.81664">
        <ele>388</ele>
        <time>2012-09-04T18:29:40Z</time>
      </trkpt>
      <trkpt lat="45.82909" lon="4.81669">
        <ele>392</ele>
        <time>2012-09-04T18:29:43Z</time>
      </trkpt>
      <trkpt lat="45.8291" lon="4.8167">
        <ele>392</ele>
        <time>2012-09-04T18:29:44Z</time>
      </trkpt>
      <trkpt lat="45.82913" lon="4.8168">
        <ele>396</ele>
        <time>2012-09-04T18:29:51Z</time>
      </trkpt>
      <trkpt lat="45.82914" lon="4.81685">
        <ele>398</ele>
        <time>2012-09-04T18:29:54Z</time>
      </trkpt>
      <trkpt lat="45.82913" lon="4.81689">
        <ele>400</ele>
        <time>2012-09-04T18:29:57Z</time>
      </trkpt>
      <trkpt lat="45.82913" lon="4.81692">
        <ele>401</ele>
        <time>2012-09-04T18:29:59Z</time>
      </trkpt>
      <trkpt lat="45.82915" lon="4.81696">
        <ele>402</ele>
        <time>2012-09-04T18:30:03Z</time>
      </trkpt>
      <trkpt lat="45.82914" lon="4.81705">
        <ele>404</ele>
        <time>2012-09-04T18:30:09Z</time>
      </trkpt>
      <trkpt lat="45.82914" lon="4.81713">
        <ele>405</ele>
        <time>2012-09-04T18:30:14Z</time>
      </trkpt>
      <trkpt lat="45.82915" lon="4.81716">
        <ele>406</ele>
        <time>2012-09-04T18:30:15Z</time>
      </trkpt>
      <trkpt lat="45.82915" lon="4.81726">
        <ele>406</ele>
        <time>2012-09-04T18:30:19Z</time>
      </trkpt>
      <trkpt lat="45.82915" lon="4.81733">
        <ele>407</ele>
        <time>2012-09-04T18:30:22Z</time>
      </trkpt>
      <trkpt lat="45.82916" lon="4.81736">
        <ele>407</ele>
        <time>2012-09-04T18:30:24Z</time>
      </trkpt>
      <trkpt lat="45.82917" lon="4.81738">
        <ele>394</ele>
        <time>2012-09-04T18:30:25Z</time>
      </trkpt>
      <trkpt lat="45.82919" lon="4.81741">
        <ele>396</ele>
        <time>2012-09-04T18:30:27Z</time>
      </trkpt>
      <trkpt lat="45.82921" lon="4.81745">
        <ele>398</ele>
        <time>2012-09-04T18:30:29Z</time>
      </trkpt>
      <trkpt lat="45.8293" lon="4.81753">
        <ele>398</ele>
        <time>2012-09-04T18:30:35Z</time>
      </trkpt>
      <trkpt lat="45.8293" lon="4.81753">
        <ele>398</ele>
        <time>2012-09-04T18:30:36Z</time>
      </trkpt>
      <trkpt lat="45.82928" lon="4.81753">
        <ele>399</ele>
        <time>2012-09-04T18:30:38Z</time>
      </trkpt>
      <trkpt lat="45.82928" lon="4.81754">
        <ele>399</ele>
        <time>2012-09-04T18:30:40Z</time>
      </trkpt>
      <trkpt lat="45.82929" lon="4.81755">
        <ele>398</ele>
        <time>2012-09-04T18:30:41Z</time>
      </trkpt>
      <trkpt lat="45.82931" lon="4.81754">
        <ele>397</ele>
        <time>2012-09-04T18:30:44Z</time>
      </trkpt>
      <trkpt lat="45.82935" lon="4.81755">
        <ele>396</ele>
        <time>2012-09-04T18:30:46Z</time>
      </trkpt>
      <trkpt lat="45.8294" lon="4.81759">
        <ele>394</ele>
        <time>2012-09-04T18:30:49Z</time>
      </trkpt>
      <trkpt lat="45.82941" lon="4.8176">
        <ele>394</ele>
        <time>2012-09-04T18:30:50Z</time>
      </trkpt>
      <trkpt lat="45.82944" lon="4.81764">
        <ele>393</ele>
        <time>2012-09-04T18:30:52Z</time>
      </trkpt>
      <trkpt lat="45.82949" lon="4.81768">
        <ele>391</ele>
        <time>2012-09-04T18:30:55Z</time>
      </trkpt>
      <trkpt lat="45.8295" lon="4.81769">
        <ele>391</ele>
        <time>2012-09-04T18:30:56Z</time>
      </trkpt>
      <trkpt lat="45.82952" lon="4.8177">
        <ele>390</ele>
        <time>2012-09-04T18:30:57Z</time>
      </trkpt>
      <trkpt lat="45.82955" lon="4.81777">
        <ele>390</ele>
        <time>2012-09-04T18:31:00Z</time>
      </trkpt>
      <trkpt lat="45.82956" lon="4.81779">
        <ele>390</ele>
        <time>2012-09-04T18:31:01Z</time>
      </trkpt>
      <trkpt lat="45.82957" lon="4.81783">
        <ele>389</ele>
        <time>2012-09-04T18:31:03Z</time>
      </trkpt>
      <trkpt lat="45.82963" lon="4.81788">
        <ele>388</ele>
        <time>2012-09-04T18:31:06Z</time>
      </trkpt>
      <trkpt lat="45.82964" lon="4.81789">
        <ele>388</ele>
        <time>2012-09-04T18:31:07Z</time>
      </trkpt>
      <trkpt lat="45.82966" lon="4.81789">
        <ele>388</ele>
        <time>2012-09-04T18:31:08Z</time>
      </trkpt>
      <trkpt lat="45.82969" lon="4.8179">
        <ele>387</ele>
        <time>2012-09-04T18:31:09Z</time>
      </trkpt>
      <trkpt lat="45.82974" lon="4.81794">
        <ele>386</ele>
        <time>2012-09-04T18:31:12Z</time>
      </trkpt>
      <trkpt lat="45.82978" lon="4.81798">
        <ele>386</ele>
        <time>2012-09-04T18:31:14Z</time>
      </trkpt>
      <trkpt lat="45.82982" lon="4.81804">
        <ele>385</ele>
        <time>2012-09-04T18:31:17Z</time>
      </trkpt>
      <trkpt lat="45.82986" lon="4.81815">
        <ele>384</ele>
        <time>2012-09-04T18:31:21Z</time>
      </trkpt>
      <trkpt lat="45.82989" lon="4.81821">
        <ele>383</ele>
        <time>2012-09-04T18:31:23Z</time>
      </trkpt>
      <trkpt lat="45.82991" lon="4.81829">
        <ele>381</ele>
        <time>2012-09-04T18:31:26Z</time>
      </trkpt>
      <trkpt lat="45.82992" lon="4.81832">
        <ele>381</ele>
        <time>2012-09-04T18:31:27Z</time>
      </trkpt>
      <trkpt lat="45.82993" lon="4.81838">
        <ele>382</ele>
        <time>2012-09-04T18:31:29Z</time>
      </trkpt>
      <trkpt lat="45.82994" lon="4.81844">
        <ele>384</ele>
        <time>2012-09-04T18:31:31Z</time>
      </trkpt>
      <trkpt lat="45.82996" lon="4.81853">
        <ele>386</ele>
        <time>2012-09-04T18:31:34Z</time>
      </trkpt>
      <trkpt lat="45.82997" lon="4.81856">
        <ele>387</ele>
        <time>2012-09-04T18:31:35Z</time>
      </trkpt>
      <trkpt lat="45.82998" lon="4.81862">
        <ele>388</ele>
        <time>2012-09-04T18:31:37Z</time>
      </trkpt>
      <trkpt lat="45.83003" lon="4.8187">
        <ele>366</ele>
        <time>2012-09-04T18:31:40Z</time>
      </trkpt>
      <trkpt lat="45.83007" lon="4.8188">
        <ele>366</ele>
        <time>2012-09-04T18:31:44Z</time>
      </trkpt>
      <trkpt lat="45.83008" lon="4.8189">
        <ele>368</ele>
        <time>2012-09-04T18:31:48Z</time>
      </trkpt>
      <trkpt lat="45.83012" lon="4.81903">
        <ele>371</ele>
        <time>2012-09-04T18:31:52Z</time>
      </trkpt>
      <trkpt lat="45.83013" lon="4.81909">
        <ele>373</ele>
        <time>2012-09-04T18:31:54Z</time>
      </trkpt>
      <trkpt lat="45.83014" lon="4.81919">
        <ele>376</ele>
        <time>2012-09-04T18:31:57Z</time>
      </trkpt>
      <trkpt lat="45.83015" lon="4.81935">
        <ele>373</ele>
        <time>2012-09-04T18:32:03Z</time>
      </trkpt>
      <trkpt lat="45.83016" lon="4.81942">
        <ele>372</ele>
        <time>2012-09-04T18:32:07Z</time>
      </trkpt>
      <trkpt lat="45.83019" lon="4.81945">
        <ele>371</ele>
        <time>2012-09-04T18:32:14Z</time>
      </trkpt>
      <trkpt lat="45.83018" lon="4.8195">
        <ele>371</ele>
        <time>2012-09-04T18:32:17Z</time>
      </trkpt>
      <trkpt lat="45.83018" lon="4.81951">
        <ele>371</ele>
        <time>2012-09-04T18:32:18Z</time>
      </trkpt>
      <trkpt lat="45.83016" lon="4.81954">
        <ele>371</ele>
        <time>2012-09-04T18:32:20Z</time>
      </trkpt>
      <trkpt lat="45.83013" lon="4.8196">
        <ele>372</ele>
        <time>2012-09-04T18:32:24Z</time>
      </trkpt>
      <trkpt lat="45.83012" lon="4.81963">
        <ele>372</ele>
        <time>2012-09-04T18:32:25Z</time>
      </trkpt>
      <trkpt lat="45.83005" lon="4.81977">
        <ele>375</ele>
        <time>2012-09-04T18:32:30Z</time>
      </trkpt>
      <trkpt lat="45.82999" lon="4.81982">
        <ele>391</ele>
        <time>2012-09-04T18:32:35Z</time>
      </trkpt>
      <trkpt lat="45.82989" lon="4.81991">
        <ele>391</ele>
        <time>2012-09-04T18:32:40Z</time>
      </trkpt>
      <trkpt lat="45.82985" lon="4.81992">
        <ele>391</ele>
        <time>2012-09-04T18:32:42Z</time>
      </trkpt>
      <trkpt lat="45.82984" lon="4.81996">
        <ele>391</ele>
        <time>2012-09-04T18:32:43Z</time>
      </trkpt>
      <trkpt lat="45.82984" lon="4.82">
        <ele>391</ele>
        <time>2012-09-04T18:32:44Z</time>
      </trkpt>
      <trkpt lat="45.82985" lon="4.82008">
        <ele>391</ele>
        <time>2012-09-04T18:32:48Z</time>
      </trkpt>
      <trkpt lat="45.82986" lon="4.8201">
        <ele>391</ele>
        <time>2012-09-04T18:32:49Z</time>
      </trkpt>
      <trkpt lat="45.82992" lon="4.82018">
        <ele>392</ele>
        <time>2012-09-04T18:32:53Z</time>
      </trkpt>
      <trkpt lat="45.82994" lon="4.8202">
        <ele>392</ele>
        <time>2012-09-04T18:32:54Z</time>
      </trkpt>
      <trkpt lat="45.83001" lon="4.8203">
        <ele>377</ele>
        <time>2012-09-04T18:33:01Z</time>
      </trkpt>
      <trkpt lat="45.83003" lon="4.82033">
        <ele>377</ele>
        <time>2012-09-04T18:33:03Z</time>
      </trkpt>
      <trkpt lat="45.83005" lon="4.8204">
        <ele>377</ele>
        <time>2012-09-04T18:33:06Z</time>
      </trkpt>
      <trkpt lat="45.83006" lon="4.82043">
        <ele>377</ele>
        <time>2012-09-04T18:33:07Z</time>
      </trkpt>
      <trkpt lat="45.83007" lon="4.82046">
        <ele>377</ele>
        <time>2012-09-04T18:33:08Z</time>
      </trkpt>
      <trkpt lat="45.83016" lon="4.82055">
        <ele>376</ele>
        <time>2012-09-04T18:33:13Z</time>
      </trkpt>
      <trkpt lat="45.83019" lon="4.82058">
        <ele>376</ele>
        <time>2012-09-04T18:33:15Z</time>
      </trkpt>
      <trkpt lat="45.83032" lon="4.82072">
        <ele>374</ele>
        <time>2012-09-04T18:33:21Z</time>
      </trkpt>
      <trkpt lat="45.83035" lon="4.82077">
        <ele>373</ele>
        <time>2012-09-04T18:33:23Z</time>
      </trkpt>
      <trkpt lat="45.83042" lon="4.82086">
        <ele>378</ele>
        <time>2012-09-04T18:33:26Z</time>
      </trkpt>
      <trkpt lat="45.83049" lon="4.82096">
        <ele>377</ele>
        <time>2012-09-04T18:33:30Z</time>
      </trkpt>
      <trkpt lat="45.8305" lon="4.82098">
        <ele>376</ele>
        <time>2012-09-04T18:33:31Z</time>
      </trkpt>
      <trkpt lat="45.83061" lon="4.8211">
        <ele>375</ele>
        <time>2012-09-04T18:33:36Z</time>
      </trkpt>
      <trkpt lat="45.83065" lon="4.82115">
        <ele>376</ele>
        <time>2012-09-04T18:33:38Z</time>
      </trkpt>
      <trkpt lat="45.83071" lon="4.82125">
        <ele>376</ele>
        <time>2012-09-04T18:33:42Z</time>
      </trkpt>
      <trkpt lat="45.83078" lon="4.82134">
        <ele>377</ele>
        <time>2012-09-04T18:33:46Z</time>
      </trkpt>
      <trkpt lat="45.83089" lon="4.82147">
        <ele>358</ele>
        <time>2012-09-04T18:33:51Z</time>
      </trkpt>
      <trkpt lat="45.83093" lon="4.82153">
        <ele>360</ele>
        <time>2012-09-04T18:33:53Z</time>
      </trkpt>
      <trkpt lat="45.83099" lon="4.82163">
        <ele>360</ele>
        <time>2012-09-04T18:33:57Z</time>
      </trkpt>
      <trkpt lat="45.83104" lon="4.82176">
        <ele>364</ele>
        <time>2012-09-04T18:34:01Z</time>
      </trkpt>
      <trkpt lat="45.83105" lon="4.82179">
        <ele>363</ele>
        <time>2012-09-04T18:34:02Z</time>
      </trkpt>
      <trkpt lat="45.83107" lon="4.82197">
        <ele>362</ele>
        <time>2012-09-04T18:34:08Z</time>
      </trkpt>
      <trkpt lat="45.83108" lon="4.82202">
        <ele>362</ele>
        <time>2012-09-04T18:34:10Z</time>
      </trkpt>
      <trkpt lat="45.8311" lon="4.82214">
        <ele>362</ele>
        <time>2012-09-04T18:34:14Z</time>
      </trkpt>
      <trkpt lat="45.83113" lon="4.82229">
        <ele>363</ele>
        <time>2012-09-04T18:34:19Z</time>
      </trkpt>
      <trkpt lat="45.83119" lon="4.82248">
        <ele>362</ele>
        <time>2012-09-04T18:34:24Z</time>
      </trkpt>
      <trkpt lat="45.83123" lon="4.82255">
        <ele>364</ele>
        <time>2012-09-04T18:34:26Z</time>
      </trkpt>
      <trkpt lat="45.83124" lon="4.82265">
        <ele>364</ele>
        <time>2012-09-04T18:34:29Z</time>
      </trkpt>
      <trkpt lat="45.83126" lon="4.8228">
        <ele>363</ele>
        <time>2012-09-04T18:34:33Z</time>
      </trkpt>
      <trkpt lat="45.83127" lon="4.82283">
        <ele>363</ele>
        <time>2012-09-04T18:34:34Z</time>
      </trkpt>
      <trkpt lat="45.83129" lon="4.82295">
        <ele>363</ele>
        <time>2012-09-04T18:34:38Z</time>
      </trkpt>
      <trkpt lat="45.83132" lon="4.82289">
        <ele>362</ele>
        <time>2012-09-04T18:34:42Z</time>
      </trkpt>
      <trkpt lat="45.83133" lon="4.82284">
        <ele>361</ele>
        <time>2012-09-04T18:34:44Z</time>
      </trkpt>
      <trkpt lat="45.83133" lon="4.82282">
        <ele>361</ele>
        <time>2012-09-04T18:34:45Z</time>
      </trkpt>
      <trkpt lat="45.83133" lon="4.82277">
        <ele>361</ele>
        <time>2012-09-04T18:34:47Z</time>
      </trkpt>
      <trkpt lat="45.83136" lon="4.82274">
        <ele>360</ele>
        <time>2012-09-04T18:34:52Z</time>
      </trkpt>
      <trkpt lat="45.83137" lon="4.82274">
        <ele>359</ele>
        <time>2012-09-04T18:34:55Z</time>
      </trkpt>
      <trkpt lat="45.8314" lon="4.82273">
        <ele>358</ele>
        <time>2012-09-04T18:34:57Z</time>
      </trkpt>
      <trkpt lat="45.83146" lon="4.82274">
        <ele>357</ele>
        <time>2012-09-04T18:35:01Z</time>
      </trkpt>
      <trkpt lat="45.83148" lon="4.82274">
        <ele>356</ele>
        <time>2012-09-04T18:35:02Z</time>
      </trkpt>
      <trkpt lat="45.83149" lon="4.82274">
        <ele>356</ele>
        <time>2012-09-04T18:35:03Z</time>
      </trkpt>
      <trkpt lat="45.83152" lon="4.82274">
        <ele>355</ele>
        <time>2012-09-04T18:35:05Z</time>
      </trkpt>
      <trkpt lat="45.83157" lon="4.82272">
        <ele>353</ele>
        <time>2012-09-04T18:35:08Z</time>
      </trkpt>
      <trkpt lat="45.83163" lon="4.82268">
        <ele>351</ele>
        <time>2012-09-04T18:35:12Z</time>
      </trkpt>
      <trkpt lat="45.83164" lon="4.82267">
        <ele>350</ele>
        <time>2012-09-04T18:35:13Z</time>
      </trkpt>
      <trkpt lat="45.83165" lon="4.82268">
        <ele>350</ele>
        <time>2012-09-04T18:35:15Z</time>
      </trkpt>
      <trkpt lat="45.83167" lon="4.82266">
        <ele>349</ele>
        <time>2012-09-04T18:35:17Z</time>
      </trkpt>
      <trkpt lat="45.83167" lon="4.8226">
        <ele>335</ele>
        <time>2012-09-04T18:35:20Z</time>
      </trkpt>
      <trkpt lat="45.83168" lon="4.82249">
        <ele>337</ele>
        <time>2012-09-04T18:35:24Z</time>
      </trkpt>
      <trkpt lat="45.83168" lon="4.82247">
        <ele>335</ele>
        <time>2012-09-04T18:35:25Z</time>
      </trkpt>
      <trkpt lat="45.8317" lon="4.82236">
        <ele>329</ele>
        <time>2012-09-04T18:35:29Z</time>
      </trkpt>
      <trkpt lat="45.8317" lon="4.82233">
        <ele>328</ele>
        <time>2012-09-04T18:35:30Z</time>
      </trkpt>
      <trkpt lat="45.83172" lon="4.82224">
        <ele>326</ele>
        <time>2012-09-04T18:35:35Z</time>
      </trkpt>
      <trkpt lat="45.83174" lon="4.82222">
        <ele>325</ele>
        <time>2012-09-04T18:35:37Z</time>
      </trkpt>
      <trkpt lat="45.83177" lon="4.82218">
        <ele>324</ele>
        <time>2012-09-04T18:35:40Z</time>
      </trkpt>
      <trkpt lat="45.83181" lon="4.82208">
        <ele>322</ele>
        <time>2012-09-04T18:35:45Z</time>
      </trkpt>
      <trkpt lat="45.83182" lon="4.82204">
        <ele>322</ele>
        <time>2012-09-04T18:35:47Z</time>
      </trkpt>
      <trkpt lat="45.83181" lon="4.822">
        <ele>321</ele>
        <time>2012-09-04T18:35:49Z</time>
      </trkpt>
      <trkpt lat="45.83181" lon="4.82197">
        <ele>321</ele>
        <time>2012-09-04T18:35:50Z</time>
      </trkpt>
      <trkpt lat="45.83181" lon="4.82194">
        <ele>321</ele>
        <time>2012-09-04T18:35:53Z</time>
      </trkpt>
      <trkpt lat="45.83183" lon="4.82192">
        <ele>321</ele>
        <time>2012-09-04T18:35:56Z</time>
      </trkpt>
      <trkpt lat="45.83184" lon="4.82185">
        <ele>321</ele>
        <time>2012-09-04T18:36:02Z</time>
      </trkpt>
      <trkpt lat="45.83183" lon="4.8218">
        <ele>322</ele>
        <time>2012-09-04T18:36:11Z</time>
      </trkpt>
      <trkpt lat="45.83182" lon="4.8218">
        <ele>322</ele>
        <time>2012-09-04T18:36:13Z</time>
      </trkpt>
      <trkpt lat="45.83184" lon="4.82172">
        <ele>322</ele>
        <time>2012-09-04T18:36:21Z</time>
      </trkpt>
      <trkpt lat="45.83183" lon="4.8217">
        <ele>322</ele>
        <time>2012-09-04T18:36:22Z</time>
      </trkpt>
      <trkpt lat="45.83184" lon="4.82167">
        <ele>322</ele>
        <time>2012-09-04T18:36:24Z</time>
      </trkpt>
      <trkpt lat="45.83186" lon="4.82165">
        <ele>313</ele>
        <time>2012-09-04T18:36:26Z</time>
      </trkpt>
      <trkpt lat="45.83186" lon="4.82164">
        <ele>313</ele>
        <time>2012-09-04T18:36:27Z</time>
      </trkpt>
      <trkpt lat="45.83185" lon="4.8216">
        <ele>313</ele>
        <time>2012-09-04T18:36:30Z</time>
      </trkpt>
      <trkpt lat="45.83184" lon="4.82152">
        <ele>311</ele>
        <time>2012-09-04T18:36:36Z</time>
      </trkpt>
      <trkpt lat="45.83184" lon="4.8215">
        <ele>310</ele>
        <time>2012-09-04T18:36:37Z</time>
      </trkpt>
      <trkpt lat="45.83187" lon="4.82143">
        <ele>308</ele>
        <time>2012-09-04T18:36:43Z</time>
      </trkpt>
      <trkpt lat="45.83187" lon="4.82142">
        <ele>307</ele>
        <time>2012-09-04T18:36:44Z</time>
      </trkpt>
      <trkpt lat="45.83187" lon="4.82139">
        <ele>306</ele>
        <time>2012-09-04T18:36:45Z</time>
      </trkpt>
      <trkpt lat="45.83189" lon="4.82135">
        <ele>305</ele>
        <time>2012-09-04T18:36:49Z</time>
      </trkpt>
      <trkpt lat="45.8319" lon="4.82132">
        <ele>304</ele>
        <time>2012-09-04T18:36:51Z</time>
      </trkpt>
      <trkpt lat="45.83191" lon="4.82128">
        <ele>304</ele>
        <time>2012-09-04T18:36:53Z</time>
      </trkpt>
      <trkpt lat="45.83193" lon="4.82123">
        <ele>302</ele>
        <time>2012-09-04T18:36:57Z</time>
      </trkpt>
      <trkpt lat="45.83196" lon="4.82117">
        <ele>301</ele>
        <time>2012-09-04T18:37:02Z</time>
      </trkpt>
      <trkpt lat="45.83197" lon="4.82117">
        <ele>301</ele>
        <time>2012-09-04T18:37:03Z</time>
      </trkpt>
      <trkpt lat="45.83198" lon="4.82114">
        <ele>300</ele>
        <time>2012-09-04T18:37:06Z</time>
      </trkpt>
      <trkpt lat="45.83199" lon="4.8211">
        <ele>300</ele>
        <time>2012-09-04T18:37:09Z</time>
      </trkpt>
      <trkpt lat="45.83203" lon="4.82107">
        <ele>299</ele>
        <time>2012-09-04T18:37:11Z</time>
      </trkpt>
      <trkpt lat="45.83204" lon="4.82102">
        <ele>298</ele>
        <time>2012-09-04T18:37:15Z</time>
      </trkpt>
      <trkpt lat="45.83201" lon="4.82092">
        <ele>298</ele>
        <time>2012-09-04T18:37:25Z</time>
      </trkpt>
      <trkpt lat="45.83201" lon="4.82088">
        <ele>298</ele>
        <time>2012-09-04T18:37:31Z</time>
      </trkpt>
      <trkpt lat="45.83198" lon="4.82088">
        <ele>299</ele>
        <time>2012-09-04T18:37:36Z</time>
      </trkpt>
      <trkpt lat="45.83198" lon="4.82087">
        <ele>299</ele>
        <time>2012-09-04T18:37:37Z</time>
      </trkpt>
      <trkpt lat="45.83198" lon="4.82092">
        <ele>299</ele>
        <time>2012-09-04T18:37:42Z</time>
      </trkpt>
      <trkpt lat="45.83199" lon="4.82093">
        <ele>299</ele>
        <time>2012-09-04T18:37:44Z</time>
      </trkpt>
      <trkpt lat="45.83199" lon="4.82095">
        <ele>299</ele>
        <time>2012-09-04T18:37:49Z</time>
      </trkpt>
      <trkpt lat="45.83196" lon="4.8209">
        <ele>299</ele>
        <time>2012-09-04T18:38:02Z</time>
      </trkpt>
      <trkpt lat="45.83192" lon="4.82086">
        <ele>300</ele>
        <time>2012-09-04T18:38:05Z</time>
      </trkpt>
      <trkpt lat="45.8319" lon="4.82079">
        <ele>291</ele>
        <time>2012-09-04T18:38:08Z</time>
      </trkpt>
      <trkpt lat="45.8319" lon="4.82074">
        <ele>291</ele>
        <time>2012-09-04T18:38:10Z</time>
      </trkpt>
      <trkpt lat="45.83189" lon="4.82063">
        <ele>289</ele>
        <time>2012-09-04T18:38:14Z</time>
      </trkpt>
      <trkpt lat="45.83188" lon="4.82051">
        <ele>287</ele>
        <time>2012-09-04T18:38:17Z</time>
      </trkpt>
      <trkpt lat="45.8319" lon="4.82044">
        <ele>286</ele>
        <time>2012-09-04T18:38:20Z</time>
      </trkpt>
      <trkpt lat="45.83192" lon="4.82043">
        <ele>286</ele>
        <time>2012-09-04T18:38:22Z</time>
      </trkpt>
      <trkpt lat="45.83194" lon="4.82042">
        <ele>285</ele>
        <time>2012-09-04T18:38:24Z</time>
      </trkpt>
      <trkpt lat="45.83195" lon="4.8204">
        <ele>285</ele>
        <time>2012-09-04T18:38:26Z</time>
      </trkpt>
      <trkpt lat="45.83198" lon="4.82045">
        <ele>285</ele>
        <time>2012-09-04T18:38:31Z</time>
      </trkpt>
      <trkpt lat="45.832" lon="4.8205">
        <ele>285</ele>
        <time>2012-09-04T18:38:33Z</time>
      </trkpt>
      <trkpt lat="45.83202" lon="4.82061">
        <ele>285</ele>
        <time>2012-09-04T18:38:37Z</time>
      </trkpt>
      <trkpt lat="45.83204" lon="4.82068">
        <ele>285</ele>
        <time>2012-09-04T18:38:40Z</time>
      </trkpt>
      <trkpt lat="45.83208" lon="4.82074">
        <ele>285</ele>
        <time>2012-09-04T18:38:43Z</time>
      </trkpt>
      <trkpt lat="45.83218" lon="4.82083">
        <ele>292</ele>
        <time>2012-09-04T18:38:48Z</time>
      </trkpt>
      <trkpt lat="45.83224" lon="4.82089">
        <ele>290</ele>
        <time>2012-09-04T18:38:51Z</time>
      </trkpt>
      <trkpt lat="45.83228" lon="4.82092">
        <ele>289</ele>
        <time>2012-09-04T18:38:53Z</time>
      </trkpt>
      <trkpt lat="45.83241" lon="4.82101">
        <ele>287</ele>
        <time>2012-09-04T18:38:59Z</time>
      </trkpt>
      <trkpt lat="45.83253" lon="4.82113">
        <ele>270</ele>
        <time>2012-09-04T18:39:05Z</time>
      </trkpt>
      <trkpt lat="45.83258" lon="4.82116">
        <ele>270</ele>
        <time>2012-09-04T18:39:07Z</time>
      </trkpt>
      <trkpt lat="45.83264" lon="4.82122">
        <ele>270</ele>
        <time>2012-09-04T18:39:10Z</time>
      </trkpt>
      <trkpt lat="45.83273" lon="4.8213">
        <ele>270</ele>
        <time>2012-09-04T18:39:15Z</time>
      </trkpt>
      <trkpt lat="45.83284" lon="4.82137">
        <ele>269</ele>
        <time>2012-09-04T18:39:20Z</time>
      </trkpt>
      <trkpt lat="45.83289" lon="4.82141">
        <ele>269</ele>
        <time>2012-09-04T18:39:22Z</time>
      </trkpt>
      <trkpt lat="45.83301" lon="4.82156">
        <ele>267</ele>
        <time>2012-09-04T18:39:27Z</time>
      </trkpt>
      <trkpt lat="45.83304" lon="4.82158">
        <ele>267</ele>
        <time>2012-09-04T18:39:28Z</time>
      </trkpt>
      <trkpt lat="45.83317" lon="4.82173">
        <ele>273</ele>
        <time>2012-09-04T18:39:34Z</time>
      </trkpt>
      <trkpt lat="45.8332" lon="4.82176">
        <ele>272</ele>
        <time>2012-09-04T18:39:35Z</time>
      </trkpt>
      <trkpt lat="45.83329" lon="4.82186">
        <ele>274</ele>
        <time>2012-09-04T18:39:39Z</time>
      </trkpt>
      <trkpt lat="45.83334" lon="4.82192">
        <ele>261</ele>
        <time>2012-09-04T18:39:41Z</time>
      </trkpt>
      <trkpt lat="45.83342" lon="4.82203">
        <ele>262</ele>
        <time>2012-09-04T18:39:45Z</time>
      </trkpt>
      <trkpt lat="45.83349" lon="4.82212">
        <ele>262</ele>
        <time>2012-09-04T18:39:48Z</time>
      </trkpt>
      <trkpt lat="45.83353" lon="4.82218">
        <ele>263</ele>
        <time>2012-09-04T18:39:50Z</time>
      </trkpt>
      <trkpt lat="45.83362" lon="4.82233">
        <ele>264</ele>
        <time>2012-09-04T18:39:55Z</time>
      </trkpt>
      <trkpt lat="45.83363" lon="4.82235">
        <ele>263</ele>
        <time>2012-09-04T18:39:56Z</time>
      </trkpt>
      <trkpt lat="45.83374" lon="4.82247">
        <ele>262</ele>
        <time>2012-09-04T18:40:01Z</time>
      </trkpt>
      <trkpt lat="45.83376" lon="4.82249">
        <ele>261</ele>
        <time>2012-09-04T18:40:02Z</time>
      </trkpt>
      <trkpt lat="45.83382" lon="4.82258">
        <ele>270</ele>
        <time>2012-09-04T18:40:06Z</time>
      </trkpt>
      <trkpt lat="45.83391" lon="4.82268">
        <ele>268</ele>
        <time>2012-09-04T18:40:10Z</time>
      </trkpt>
      <trkpt lat="45.83394" lon="4.82272">
        <ele>268</ele>
        <time>2012-09-04T18:40:12Z</time>
      </trkpt>
      <trkpt lat="45.83405" lon="4.82281">
        <ele>268</ele>
        <time>2012-09-04T18:40:18Z</time>
      </trkpt>
      <trkpt lat="45.83422" lon="4.82289">
        <ele>252</ele>
        <time>2012-09-04T18:40:24Z</time>
      </trkpt>
      <trkpt lat="45.83425" lon="4.82291">
        <ele>252</ele>
        <time>2012-09-04T18:40:25Z</time>
      </trkpt>
      <trkpt lat="45.83434" lon="4.82297">
        <ele>252</ele>
        <time>2012-09-04T18:40:29Z</time>
      </trkpt>
      <trkpt lat="45.8344" lon="4.82306">
        <ele>252</ele>
        <time>2012-09-04T18:40:33Z</time>
      </trkpt>
      <trkpt lat="45.83442" lon="4.82308">
        <ele>252</ele>
        <time>2012-09-04T18:40:34Z</time>
      </trkpt>
      <trkpt lat="45.83447" lon="4.82319">
        <ele>253</ele>
        <time>2012-09-04T18:40:38Z</time>
      </trkpt>
      <trkpt lat="45.83451" lon="4.8233">
        <ele>252</ele>
        <time>2012-09-04T18:40:42Z</time>
      </trkpt>
      <trkpt lat="45.83453" lon="4.82332">
        <ele>252</ele>
        <time>2012-09-04T18:40:43Z</time>
      </trkpt>
    </trkseg>
  </trk>
</gpx>